<?xml version='1.0' encoding='UTF-8'?><gpx version="1.1" creator="JPX - https://github.com/jenetics/jpx" xmlns="http://www.topografix.com/GPX/1/1"><trk><trkseg><trkpt lat="40.4557892" lon="15.1622219"><ele>304.0</ele><time>2026-05-05T14:04:56.977Z</time></trkpt><trkpt lat="40.4557406" lon="15.1622927"><ele>304.0</ele><time>2026-05-05T14:04:57.977Z</time></trkpt><trkpt lat="40.4556702" lon="15.1623862"><ele>304.0</ele><time>2026-05-05T14:04:58.977Z</time></trkpt><trkpt lat="40.455598" lon="15.1624891"><ele>304.0</ele><time>2026-05-05T14:04:59.977Z</time></trkpt><trkpt lat="40.4555184" lon="15.1625973"><ele>304.0</ele><time>2026-05-05T14:05:00.978Z</time></trkpt><trkpt lat="40.4554349" lon="15.1627105"><ele>302.75</ele><time>2026-05-05T14:05:01.977Z</time></trkpt><trkpt lat="40.4553419" lon="15.162839"><ele>301.5</ele><time>2026-05-05T14:05:02.977Z</time></trkpt><trkpt lat="40.4552437" lon="15.1629816"><ele>300.25</ele><time>2026-05-05T14:05:03.977Z</time></trkpt><trkpt lat="40.4551368" lon="15.1631348"><ele>299.0</ele><time>2026-05-05T14:05:04.978Z</time></trkpt><trkpt lat="40.4550253" lon="15.1632843"><ele>299.0</ele><time>2026-05-05T14:05:05.977Z</time></trkpt><trkpt lat="40.4549082" lon="15.1634486"><ele>299.0</ele><time>2026-05-05T14:05:06.977Z</time></trkpt><trkpt lat="40.4548041" lon="15.1636088"><ele>299.0</ele><time>2026-05-05T14:05:07.977Z</time></trkpt><trkpt lat="40.4547166" lon="15.1637548"><ele>299.0</ele><time>2026-05-05T14:05:08.978Z</time></trkpt><trkpt lat="40.4546382" lon="15.1638778"><ele>299.0</ele><time>2026-05-05T14:05:09.977Z</time></trkpt><trkpt lat="40.4545597" lon="15.1639754"><ele>299.0</ele><time>2026-05-05T14:05:10.977Z</time></trkpt><trkpt lat="40.4544674" lon="15.1640494"><ele>299.0</ele><time>2026-05-05T14:05:11.978Z</time></trkpt><trkpt lat="40.4543638" lon="15.1641197"><ele>299.25</ele><time>2026-05-05T14:05:12.977Z</time></trkpt><trkpt lat="40.4542572" lon="15.1641905"><ele>299.5</ele><time>2026-05-05T14:05:13.978Z</time></trkpt><trkpt lat="40.454153" lon="15.1642603"><ele>299.75</ele><time>2026-05-05T14:05:14.976Z</time></trkpt><trkpt lat="40.4540486" lon="15.1643251"><ele>300.0</ele><time>2026-05-05T14:05:15.977Z</time></trkpt><trkpt lat="40.4539514" lon="15.1643816"><ele>300.0</ele><time>2026-05-05T14:05:16.978Z</time></trkpt><trkpt lat="40.4538485" lon="15.1644292"><ele>300.0</ele><time>2026-05-05T14:05:17.978Z</time></trkpt><trkpt lat="40.4537386" lon="15.1644705"><ele>300.0</ele><time>2026-05-05T14:05:18.977Z</time></trkpt><trkpt lat="40.453614" lon="15.1645276"><ele>300.0</ele><time>2026-05-05T14:05:19.978Z</time></trkpt><trkpt lat="40.4534753" lon="15.1645999"><ele>298.75</ele><time>2026-05-05T14:05:20.978Z</time></trkpt><trkpt lat="40.4533351" lon="15.1646792"><ele>297.5</ele><time>2026-05-05T14:05:21.978Z</time></trkpt><trkpt lat="40.4532051" lon="15.1647347"><ele>296.25</ele><time>2026-05-05T14:05:22.976Z</time></trkpt><trkpt lat="40.4530769" lon="15.1647796"><ele>295.0</ele><time>2026-05-05T14:05:23.978Z</time></trkpt><trkpt lat="40.4529502" lon="15.1648263"><ele>296.25</ele><time>2026-05-05T14:05:24.977Z</time></trkpt><trkpt lat="40.4528349" lon="15.1648661"><ele>297.5</ele><time>2026-05-05T14:05:25.978Z</time></trkpt><trkpt lat="40.4527197" lon="15.1649024"><ele>298.75</ele><time>2026-05-05T14:05:26.977Z</time></trkpt><trkpt lat="40.4526123" lon="15.1649297"><ele>300.0</ele><time>2026-05-05T14:05:27.977Z</time></trkpt><trkpt lat="40.4524999" lon="15.1649566"><ele>300.0</ele><time>2026-05-05T14:05:28.977Z</time></trkpt><trkpt lat="40.4524119" lon="15.1648753"><ele>300.0</ele><time>2026-05-05T14:05:29.978Z</time></trkpt><trkpt lat="40.4523172" lon="15.1648442"><ele>300.0</ele><time>2026-05-05T14:05:30.977Z</time></trkpt><trkpt lat="40.4522312" lon="15.1647987"><ele>300.0</ele><time>2026-05-05T14:05:31.978Z</time></trkpt><trkpt lat="40.4521399" lon="15.1647377"><ele>300.0</ele><time>2026-05-05T14:05:32.977Z</time></trkpt><trkpt lat="40.452053" lon="15.1646808"><ele>300.4</ele><time>2026-05-05T14:05:33.978Z</time></trkpt><trkpt lat="40.4519733" lon="15.1646177"><ele>300.8</ele><time>2026-05-05T14:05:34.977Z</time></trkpt><trkpt lat="40.4518956" lon="15.1645503"><ele>301.2</ele><time>2026-05-05T14:05:35.978Z</time></trkpt><trkpt lat="40.4518142" lon="15.1644703"><ele>301.6</ele><time>2026-05-05T14:05:36.978Z</time></trkpt><trkpt lat="40.4517286" lon="15.164378"><ele>302.0</ele><time>2026-05-05T14:05:37.978Z</time></trkpt><trkpt lat="40.4516374" lon="15.1642836"><ele>302.0</ele><time>2026-05-05T14:05:38.978Z</time></trkpt><trkpt lat="40.4515578" lon="15.1642052"><ele>302.0</ele><time>2026-05-05T14:05:39.978Z</time></trkpt><trkpt lat="40.4514736" lon="15.1641202"><ele>302.0</ele><time>2026-05-05T14:05:40.978Z</time></trkpt><trkpt lat="40.4513954" lon="15.1640386"><ele>302.0</ele><time>2026-05-05T14:05:41.977Z</time></trkpt><trkpt lat="40.4513045" lon="15.1639971"><ele>302.0</ele><time>2026-05-05T14:05:42.977Z</time></trkpt><trkpt lat="40.4512049" lon="15.1640696"><ele>303.6</ele><time>2026-05-05T14:05:43.978Z</time></trkpt><trkpt lat="40.4510941" lon="15.164066"><ele>305.2</ele><time>2026-05-05T14:05:44.977Z</time></trkpt><trkpt lat="40.4509927" lon="15.1640735"><ele>306.8</ele><time>2026-05-05T14:05:45.978Z</time></trkpt><trkpt lat="40.4508898" lon="15.1640649"><ele>308.4</ele><time>2026-05-05T14:05:46.978Z</time></trkpt><trkpt lat="40.4507833" lon="15.1640671"><ele>310.0</ele><time>2026-05-05T14:05:47.978Z</time></trkpt><trkpt lat="40.4506846" lon="15.1640616"><ele>310.0</ele><time>2026-05-05T14:05:48.977Z</time></trkpt><trkpt lat="40.4505948" lon="15.1640432"><ele>310.0</ele><time>2026-05-05T14:05:49.977Z</time></trkpt><trkpt lat="40.4505127" lon="15.1640118"><ele>310.0</ele><time>2026-05-05T14:05:50.978Z</time></trkpt><trkpt lat="40.450428" lon="15.1639979"><ele>310.0</ele><time>2026-05-05T14:05:51.977Z</time></trkpt><trkpt lat="40.4503451" lon="15.1640124"><ele>310.0</ele><time>2026-05-05T14:05:52.977Z</time></trkpt><trkpt lat="40.4502592" lon="15.1640619"><ele>310.0</ele><time>2026-05-05T14:05:53.977Z</time></trkpt><trkpt lat="40.4501733" lon="15.1641088"><ele>309.6</ele><time>2026-05-05T14:05:54.977Z</time></trkpt><trkpt lat="40.4500816" lon="15.164141"><ele>309.2</ele><time>2026-05-05T14:05:55.978Z</time></trkpt><trkpt lat="40.4499899" lon="15.1641611"><ele>308.8</ele><time>2026-05-05T14:05:56.978Z</time></trkpt><trkpt lat="40.4498917" lon="15.1641711"><ele>308.4</ele><time>2026-05-05T14:05:57.977Z</time></trkpt><trkpt lat="40.4497887" lon="15.1641753"><ele>308.0</ele><time>2026-05-05T14:05:58.977Z</time></trkpt><trkpt lat="40.4496785" lon="15.1641652"><ele>306.6</ele><time>2026-05-05T14:05:59.977Z</time></trkpt><trkpt lat="40.449571" lon="15.1641412"><ele>305.20000000000005</ele><time>2026-05-05T14:06:00.978Z</time></trkpt><trkpt lat="40.4494625" lon="15.1641075"><ele>303.8</ele><time>2026-05-05T14:06:01.978Z</time></trkpt><trkpt lat="40.4493579" lon="15.1640754"><ele>302.40000000000003</ele><time>2026-05-05T14:06:02.978Z</time></trkpt><trkpt lat="40.4492473" lon="15.1640357"><ele>301.0</ele><time>2026-05-05T14:06:03.978Z</time></trkpt><trkpt lat="40.4491317" lon="15.1639839"><ele>301.0</ele><time>2026-05-05T14:06:04.978Z</time></trkpt><trkpt lat="40.4490175" lon="15.1639315"><ele>301.0</ele><time>2026-05-05T14:06:05.978Z</time></trkpt><trkpt lat="40.4489016" lon="15.1638722"><ele>301.0</ele><time>2026-05-05T14:06:06.978Z</time></trkpt><trkpt lat="40.4487854" lon="15.1638112"><ele>301.0</ele><time>2026-05-05T14:06:07.978Z</time></trkpt><trkpt lat="40.4486699" lon="15.16375"><ele>297.0</ele><time>2026-05-05T14:06:08.977Z</time></trkpt><trkpt lat="40.4485579" lon="15.1636897"><ele>293.0</ele><time>2026-05-05T14:06:09.978Z</time></trkpt><trkpt lat="40.448446" lon="15.1636379"><ele>289.0</ele><time>2026-05-05T14:06:10.976Z</time></trkpt><trkpt lat="40.4483282" lon="15.1635986"><ele>285.0</ele><time>2026-05-05T14:06:11.978Z</time></trkpt><trkpt lat="40.4482054" lon="15.1635767"><ele>285.0</ele><time>2026-05-05T14:06:12.978Z</time></trkpt><trkpt lat="40.4480754" lon="15.1635763"><ele>285.0</ele><time>2026-05-05T14:06:13.977Z</time></trkpt><trkpt lat="40.4479456" lon="15.1635744"><ele>285.0</ele><time>2026-05-05T14:06:14.978Z</time></trkpt><trkpt lat="40.4478148" lon="15.1635723"><ele>285.0</ele><time>2026-05-05T14:06:15.976Z</time></trkpt><trkpt lat="40.4476919" lon="15.1635712"><ele>284.0</ele><time>2026-05-05T14:06:16.978Z</time></trkpt><trkpt lat="40.4475715" lon="15.1635686"><ele>283.0</ele><time>2026-05-05T14:06:17.978Z</time></trkpt><trkpt lat="40.447458" lon="15.1635703"><ele>282.0</ele><time>2026-05-05T14:06:18.978Z</time></trkpt><trkpt lat="40.4473517" lon="15.1635684"><ele>281.0</ele><time>2026-05-05T14:06:19.977Z</time></trkpt><trkpt lat="40.4472494" lon="15.1635668"><ele>280.0</ele><time>2026-05-05T14:06:20.978Z</time></trkpt><trkpt lat="40.4471499" lon="15.1635641"><ele>279.4</ele><time>2026-05-05T14:06:21.977Z</time></trkpt><trkpt lat="40.4470542" lon="15.1635596"><ele>278.8</ele><time>2026-05-05T14:06:22.977Z</time></trkpt><trkpt lat="40.4469549" lon="15.1635547"><ele>278.2</ele><time>2026-05-05T14:06:23.977Z</time></trkpt><trkpt lat="40.4468603" lon="15.1635562"><ele>277.6</ele><time>2026-05-05T14:06:24.978Z</time></trkpt><trkpt lat="40.4467661" lon="15.1635597"><ele>277.0</ele><time>2026-05-05T14:06:25.978Z</time></trkpt><trkpt lat="40.4466751" lon="15.1635582"><ele>277.0</ele><time>2026-05-05T14:06:26.977Z</time></trkpt><trkpt lat="40.4465837" lon="15.1635508"><ele>277.0</ele><time>2026-05-05T14:06:27.977Z</time></trkpt><trkpt lat="40.4464958" lon="15.163533"><ele>277.0</ele><time>2026-05-05T14:06:28.978Z</time></trkpt><trkpt lat="40.4464104" lon="15.1635171"><ele>277.0</ele><time>2026-05-05T14:06:29.978Z</time></trkpt><trkpt lat="40.4463258" lon="15.1635002"><ele>277.0</ele><time>2026-05-05T14:06:30.978Z</time></trkpt><trkpt lat="40.4462342" lon="15.1634849"><ele>277.0</ele><time>2026-05-05T14:06:31.978Z</time></trkpt><trkpt lat="40.4461445" lon="15.163466"><ele>276.0</ele><time>2026-05-05T14:06:32.977Z</time></trkpt><trkpt lat="40.4460458" lon="15.1634361"><ele>275.0</ele><time>2026-05-05T14:06:33.977Z</time></trkpt><trkpt lat="40.4459469" lon="15.1634021"><ele>274.0</ele><time>2026-05-05T14:06:34.977Z</time></trkpt><trkpt lat="40.4458496" lon="15.1633649"><ele>273.0</ele><time>2026-05-05T14:06:35.977Z</time></trkpt><trkpt lat="40.4457572" lon="15.1633228"><ele>272.0</ele><time>2026-05-05T14:06:36.977Z</time></trkpt><trkpt lat="40.4456804" lon="15.1632691"><ele>272.0</ele><time>2026-05-05T14:06:37.978Z</time></trkpt><trkpt lat="40.445633" lon="15.1632108"><ele>272.0</ele><time>2026-05-05T14:06:38.978Z</time></trkpt><trkpt lat="40.4455752" lon="15.1631239"><ele>272.0</ele><time>2026-05-05T14:06:40.976Z</time></trkpt><trkpt lat="40.4454498" lon="15.1630431"><ele>272.0</ele><time>2026-05-05T14:06:42.977Z</time></trkpt><trkpt lat="40.4453569" lon="15.1630226"><ele>272.0</ele><time>2026-05-05T14:06:43.978Z</time></trkpt><trkpt lat="40.4452516" lon="15.1630042"><ele>271.0</ele><time>2026-05-05T14:06:44.978Z</time></trkpt><trkpt lat="40.4451355" lon="15.1629806"><ele>270.0</ele><time>2026-05-05T14:06:45.977Z</time></trkpt><trkpt lat="40.4450085" lon="15.1629496"><ele>269.0</ele><time>2026-05-05T14:06:46.977Z</time></trkpt><trkpt lat="40.4448755" lon="15.1629099"><ele>268.0</ele><time>2026-05-05T14:06:47.977Z</time></trkpt><trkpt lat="40.444731" lon="15.1628673"><ele>268.25</ele><time>2026-05-05T14:06:48.978Z</time></trkpt><trkpt lat="40.4445787" lon="15.1628215"><ele>268.5</ele><time>2026-05-05T14:06:49.978Z</time></trkpt><trkpt lat="40.4444432" lon="15.1627794"><ele>268.75</ele><time>2026-05-05T14:06:50.978Z</time></trkpt><trkpt lat="40.4443133" lon="15.1627371"><ele>269.0</ele><time>2026-05-05T14:06:51.977Z</time></trkpt><trkpt lat="40.4441943" lon="15.1626965"><ele>269.0</ele><time>2026-05-05T14:06:52.978Z</time></trkpt><trkpt lat="40.4440842" lon="15.1626541"><ele>269.0</ele><time>2026-05-05T14:06:53.978Z</time></trkpt><trkpt lat="40.4439823" lon="15.1626148"><ele>269.0</ele><time>2026-05-05T14:06:54.978Z</time></trkpt><trkpt lat="40.4439026" lon="15.1625807"><ele>269.0</ele><time>2026-05-05T14:06:55.978Z</time></trkpt><trkpt lat="40.4438302" lon="15.1625374"><ele>269.0</ele><time>2026-05-05T14:06:57.978Z</time></trkpt><trkpt lat="40.4437345" lon="15.1624965"><ele>268.8</ele><time>2026-05-05T14:07:02.978Z</time></trkpt><trkpt lat="40.443664" lon="15.162465"><ele>268.59999999999997</ele><time>2026-05-05T14:07:03.978Z</time></trkpt><trkpt lat="40.443585" lon="15.1624266"><ele>268.4</ele><time>2026-05-05T14:07:04.978Z</time></trkpt><trkpt lat="40.4434934" lon="15.1623761"><ele>268.2</ele><time>2026-05-05T14:07:05.978Z</time></trkpt><trkpt lat="40.443394" lon="15.1623125"><ele>268.0</ele><time>2026-05-05T14:07:06.977Z</time></trkpt><trkpt lat="40.4432896" lon="15.1622294"><ele>268.25</ele><time>2026-05-05T14:07:07.978Z</time></trkpt><trkpt lat="40.4431931" lon="15.162117"><ele>268.5</ele><time>2026-05-05T14:07:08.977Z</time></trkpt><trkpt lat="40.4431103" lon="15.1619742"><ele>268.75</ele><time>2026-05-05T14:07:09.978Z</time></trkpt><trkpt lat="40.4430299" lon="15.1618244"><ele>269.0</ele><time>2026-05-05T14:07:10.977Z</time></trkpt><trkpt lat="40.4429556" lon="15.1616932"><ele>269.0</ele><time>2026-05-05T14:07:11.978Z</time></trkpt><trkpt lat="40.442876" lon="15.1615794"><ele>269.0</ele><time>2026-05-05T14:07:12.976Z</time></trkpt><trkpt lat="40.4427941" lon="15.161484"><ele>269.0</ele><time>2026-05-05T14:07:13.978Z</time></trkpt><trkpt lat="40.4427055" lon="15.1614115"><ele>269.0</ele><time>2026-05-05T14:07:14.978Z</time></trkpt><trkpt lat="40.442607" lon="15.161355"><ele>269.0</ele><time>2026-05-05T14:07:15.977Z</time></trkpt><trkpt lat="40.442499" lon="15.1613004"><ele>270.5</ele><time>2026-05-05T14:07:16.978Z</time></trkpt><trkpt lat="40.4423814" lon="15.1612454"><ele>272.0</ele><time>2026-05-05T14:07:17.978Z</time></trkpt><trkpt lat="40.4422554" lon="15.1611886"><ele>273.5</ele><time>2026-05-05T14:07:18.977Z</time></trkpt><trkpt lat="40.4421288" lon="15.161131"><ele>275.0</ele><time>2026-05-05T14:07:19.978Z</time></trkpt><trkpt lat="40.4420141" lon="15.1610886"><ele>275.33333333333337</ele><time>2026-05-05T14:07:20.978Z</time></trkpt><trkpt lat="40.4419065" lon="15.1610613"><ele>275.6666666666667</ele><time>2026-05-05T14:07:21.978Z</time></trkpt><trkpt lat="40.4418144" lon="15.1610485"><ele>276.0</ele><time>2026-05-05T14:07:22.978Z</time></trkpt><trkpt lat="40.4417466" lon="15.1610426"><ele>276.3333333333333</ele><time>2026-05-05T14:07:23.978Z</time></trkpt><trkpt lat="40.4416738" lon="15.1610033"><ele>276.66666666666663</ele><time>2026-05-05T14:07:25.978Z</time></trkpt><trkpt lat="40.4416075" lon="15.1609327"><ele>277.0</ele><time>2026-05-05T14:07:27.977Z</time></trkpt><trkpt lat="40.4415652" lon="15.1608606"><ele>277.0</ele><time>2026-05-05T14:07:28.977Z</time></trkpt><trkpt lat="40.441525" lon="15.1607535"><ele>277.0</ele><time>2026-05-05T14:07:29.977Z</time></trkpt><trkpt lat="40.4414751" lon="15.1606328"><ele>277.0</ele><time>2026-05-05T14:07:30.977Z</time></trkpt><trkpt lat="40.4414176" lon="15.1605051"><ele>277.0</ele><time>2026-05-05T14:07:31.978Z</time></trkpt><trkpt lat="40.4413529" lon="15.1603582"><ele>277.0</ele><time>2026-05-05T14:07:32.978Z</time></trkpt><trkpt lat="40.4412874" lon="15.1602144"><ele>281.5</ele><time>2026-05-05T14:07:33.976Z</time></trkpt><trkpt lat="40.4412085" lon="15.1600833"><ele>286.0</ele><time>2026-05-05T14:07:34.977Z</time></trkpt><trkpt lat="40.4411242" lon="15.1599606"><ele>290.5</ele><time>2026-05-05T14:07:35.978Z</time></trkpt><trkpt lat="40.4410376" lon="15.159843"><ele>295.0</ele><time>2026-05-05T14:07:36.977Z</time></trkpt><trkpt lat="40.440954" lon="15.1597275"><ele>297.6</ele><time>2026-05-05T14:07:37.978Z</time></trkpt><trkpt lat="40.4408762" lon="15.1596067"><ele>300.2</ele><time>2026-05-05T14:07:38.978Z</time></trkpt><trkpt lat="40.4408046" lon="15.1594925"><ele>302.8</ele><time>2026-05-05T14:07:39.978Z</time></trkpt><trkpt lat="40.4407396" lon="15.1593839"><ele>305.4</ele><time>2026-05-05T14:07:40.978Z</time></trkpt><trkpt lat="40.4406812" lon="15.1592819"><ele>308.0</ele><time>2026-05-05T14:07:41.977Z</time></trkpt><trkpt lat="40.4406233" lon="15.159181"><ele>308.0</ele><time>2026-05-05T14:07:42.977Z</time></trkpt><trkpt lat="40.4405703" lon="15.1590879"><ele>308.0</ele><time>2026-05-05T14:07:43.977Z</time></trkpt><trkpt lat="40.4405186" lon="15.1590018"><ele>308.0</ele><time>2026-05-05T14:07:44.978Z</time></trkpt><trkpt lat="40.4404698" lon="15.1589311"><ele>308.0</ele><time>2026-05-05T14:07:45.978Z</time></trkpt><trkpt lat="40.440417" lon="15.1588762"><ele>308.0</ele><time>2026-05-05T14:07:46.978Z</time></trkpt><trkpt lat="40.440365" lon="15.158826"><ele>308.0</ele><time>2026-05-05T14:07:47.978Z</time></trkpt><trkpt lat="40.4403276" lon="15.1587585"><ele>308.0</ele><time>2026-05-05T14:07:48.977Z</time></trkpt><trkpt lat="40.4403025" lon="15.1586577"><ele>308.0</ele><time>2026-05-05T14:07:49.978Z</time></trkpt><trkpt lat="40.4402888" lon="15.1585396"><ele>308.0</ele><time>2026-05-05T14:07:50.977Z</time></trkpt><trkpt lat="40.4402731" lon="15.1584253"><ele>308.0</ele><time>2026-05-05T14:07:51.978Z</time></trkpt><trkpt lat="40.4402615" lon="15.1583143"><ele>308.0</ele><time>2026-05-05T14:07:52.978Z</time></trkpt><trkpt lat="40.4402685" lon="15.1582034"><ele>308.0</ele><time>2026-05-05T14:07:53.977Z</time></trkpt><trkpt lat="40.4403003" lon="15.1580808"><ele>308.0</ele><time>2026-05-05T14:07:54.977Z</time></trkpt><trkpt lat="40.4403372" lon="15.1579437"><ele>308.0</ele><time>2026-05-05T14:07:55.978Z</time></trkpt><trkpt lat="40.4403767" lon="15.1577871"><ele>308.0</ele><time>2026-05-05T14:07:56.978Z</time></trkpt><trkpt lat="40.4404168" lon="15.1576285"><ele>308.0</ele><time>2026-05-05T14:07:57.977Z</time></trkpt><trkpt lat="40.4404554" lon="15.1574679"><ele>308.0</ele><time>2026-05-05T14:07:58.978Z</time></trkpt><trkpt lat="40.4404923" lon="15.1573064"><ele>302.0</ele><time>2026-05-05T14:07:59.977Z</time></trkpt><trkpt lat="40.440526" lon="15.1571503"><ele>296.0</ele><time>2026-05-05T14:08:00.978Z</time></trkpt><trkpt lat="40.4405578" lon="15.1569892"><ele>290.0</ele><time>2026-05-05T14:08:01.978Z</time></trkpt><trkpt lat="40.4405842" lon="15.1568209"><ele>284.0</ele><time>2026-05-05T14:08:02.977Z</time></trkpt><trkpt lat="40.4406042" lon="15.1566455"><ele>285.0</ele><time>2026-05-05T14:08:03.978Z</time></trkpt><trkpt lat="40.4406205" lon="15.1564636"><ele>286.0</ele><time>2026-05-05T14:08:04.977Z</time></trkpt><trkpt lat="40.4406352" lon="15.1562818"><ele>287.0</ele><time>2026-05-05T14:08:05.978Z</time></trkpt><trkpt lat="40.4406535" lon="15.1561053"><ele>288.0</ele><time>2026-05-05T14:08:06.977Z</time></trkpt><trkpt lat="40.440678" lon="15.1559286"><ele>288.0</ele><time>2026-05-05T14:08:07.978Z</time></trkpt><trkpt lat="40.4407139" lon="15.1557658"><ele>288.0</ele><time>2026-05-05T14:08:08.978Z</time></trkpt><trkpt lat="40.440767" lon="15.1556185"><ele>288.0</ele><time>2026-05-05T14:08:09.978Z</time></trkpt><trkpt lat="40.4408389" lon="15.1554813"><ele>288.0</ele><time>2026-05-05T14:08:10.978Z</time></trkpt><trkpt lat="40.440917" lon="15.1553545"><ele>291.0</ele><time>2026-05-05T14:08:11.978Z</time></trkpt><trkpt lat="40.4409878" lon="15.1552267"><ele>294.0</ele><time>2026-05-05T14:08:12.976Z</time></trkpt><trkpt lat="40.4410466" lon="15.1550883"><ele>297.0</ele><time>2026-05-05T14:08:13.977Z</time></trkpt><trkpt lat="40.441098" lon="15.1549416"><ele>300.0</ele><time>2026-05-05T14:08:14.977Z</time></trkpt><trkpt lat="40.4411415" lon="15.1547913"><ele>303.0</ele><time>2026-05-05T14:08:15.978Z</time></trkpt><trkpt lat="40.441185" lon="15.1546454"><ele>306.0</ele><time>2026-05-05T14:08:16.977Z</time></trkpt><trkpt lat="40.441225" lon="15.1544996"><ele>309.0</ele><time>2026-05-05T14:08:17.978Z</time></trkpt><trkpt lat="40.4412742" lon="15.1543691"><ele>312.0</ele><time>2026-05-05T14:08:18.978Z</time></trkpt><trkpt lat="40.4413403" lon="15.1542523"><ele>308.1666666666667</ele><time>2026-05-05T14:08:19.977Z</time></trkpt><trkpt lat="40.441423" lon="15.154156"><ele>304.3333333333333</ele><time>2026-05-05T14:08:20.977Z</time></trkpt><trkpt lat="40.4415056" lon="15.1540825"><ele>300.5</ele><time>2026-05-05T14:08:21.978Z</time></trkpt><trkpt lat="40.4415768" lon="15.1540227"><ele>296.66666666666663</ele><time>2026-05-05T14:08:22.977Z</time></trkpt><trkpt lat="40.4416357" lon="15.1539652"><ele>292.8333333333333</ele><time>2026-05-05T14:08:23.978Z</time></trkpt><trkpt lat="40.4416845" lon="15.1539082"><ele>289.0</ele><time>2026-05-05T14:08:24.978Z</time></trkpt><trkpt lat="40.4417678" lon="15.1537853"><ele>289.0</ele><time>2026-05-05T14:08:26.978Z</time></trkpt><trkpt lat="40.4418053" lon="15.1537069"><ele>289.0</ele><time>2026-05-05T14:08:27.978Z</time></trkpt><trkpt lat="40.4418405" lon="15.1535947"><ele>289.0</ele><time>2026-05-05T14:08:28.978Z</time></trkpt><trkpt lat="40.441878" lon="15.1534608"><ele>289.0</ele><time>2026-05-05T14:08:29.977Z</time></trkpt><trkpt lat="40.441918" lon="15.1533078"><ele>289.0</ele><time>2026-05-05T14:08:30.977Z</time></trkpt><trkpt lat="40.4419578" lon="15.1531323"><ele>290.0</ele><time>2026-05-05T14:08:31.977Z</time></trkpt><trkpt lat="40.4420004" lon="15.1529392"><ele>291.0</ele><time>2026-05-05T14:08:32.978Z</time></trkpt><trkpt lat="40.4420472" lon="15.1527521"><ele>292.0</ele><time>2026-05-05T14:08:33.977Z</time></trkpt><trkpt lat="40.4420927" lon="15.1525835"><ele>293.0</ele><time>2026-05-05T14:08:34.976Z</time></trkpt><trkpt lat="40.4421404" lon="15.1524157"><ele>287.5</ele><time>2026-05-05T14:08:35.977Z</time></trkpt><trkpt lat="40.4421855" lon="15.1522614"><ele>282.0</ele><time>2026-05-05T14:08:36.977Z</time></trkpt><trkpt lat="40.4422249" lon="15.1521176"><ele>276.5</ele><time>2026-05-05T14:08:37.976Z</time></trkpt><trkpt lat="40.4422594" lon="15.1519796"><ele>271.0</ele><time>2026-05-05T14:08:38.978Z</time></trkpt><trkpt lat="40.4422795" lon="15.1518411"><ele>271.0</ele><time>2026-05-05T14:08:39.978Z</time></trkpt><trkpt lat="40.4422869" lon="15.1516862"><ele>271.0</ele><time>2026-05-05T14:08:40.977Z</time></trkpt><trkpt lat="40.4422926" lon="15.1515203"><ele>271.0</ele><time>2026-05-05T14:08:41.978Z</time></trkpt><trkpt lat="40.4422994" lon="15.1513399"><ele>271.0</ele><time>2026-05-05T14:08:42.976Z</time></trkpt><trkpt lat="40.4423047" lon="15.1511623"><ele>270.25</ele><time>2026-05-05T14:08:43.978Z</time></trkpt><trkpt lat="40.4423128" lon="15.1509861"><ele>269.5</ele><time>2026-05-05T14:08:44.978Z</time></trkpt><trkpt lat="40.4423207" lon="15.1508057"><ele>268.75</ele><time>2026-05-05T14:08:45.977Z</time></trkpt><trkpt lat="40.4423303" lon="15.1506192"><ele>268.0</ele><time>2026-05-05T14:08:46.977Z</time></trkpt><trkpt lat="40.4423385" lon="15.1504287"><ele>268.0</ele><time>2026-05-05T14:08:47.977Z</time></trkpt><trkpt lat="40.4423476" lon="15.1502361"><ele>268.0</ele><time>2026-05-05T14:08:48.978Z</time></trkpt><trkpt lat="40.4423566" lon="15.1500378"><ele>268.0</ele><time>2026-05-05T14:08:49.976Z</time></trkpt><trkpt lat="40.4423638" lon="15.14983"><ele>268.66666666666663</ele><time>2026-05-05T14:08:50.977Z</time></trkpt><trkpt lat="40.4423713" lon="15.1496302"><ele>269.3333333333333</ele><time>2026-05-05T14:08:51.977Z</time></trkpt><trkpt lat="40.4423786" lon="15.1494358"><ele>270.0</ele><time>2026-05-05T14:08:52.976Z</time></trkpt><trkpt lat="40.4423898" lon="15.1492356"><ele>273.0</ele><time>2026-05-05T14:08:53.977Z</time></trkpt><trkpt lat="40.4424064" lon="15.1490294"><ele>276.0</ele><time>2026-05-05T14:08:54.978Z</time></trkpt><trkpt lat="40.4424241" lon="15.1488212"><ele>279.0</ele><time>2026-05-05T14:08:55.978Z</time></trkpt><trkpt lat="40.4424461" lon="15.148612"><ele>279.0</ele><time>2026-05-05T14:08:56.976Z</time></trkpt><trkpt lat="40.4424742" lon="15.1484026"><ele>279.0</ele><time>2026-05-05T14:08:57.977Z</time></trkpt><trkpt lat="40.442496" lon="15.1481943"><ele>279.0</ele><time>2026-05-05T14:08:58.978Z</time></trkpt><trkpt lat="40.4425038" lon="15.1479834"><ele>282.6666666666667</ele><time>2026-05-05T14:08:59.977Z</time></trkpt><trkpt lat="40.4425003" lon="15.1477695"><ele>286.33333333333337</ele><time>2026-05-05T14:09:00.978Z</time></trkpt><trkpt lat="40.4424996" lon="15.1475673"><ele>290.0</ele><time>2026-05-05T14:09:01.978Z</time></trkpt><trkpt lat="40.4425139" lon="15.1473891"><ele>293.5</ele><time>2026-05-05T14:09:02.978Z</time></trkpt><trkpt lat="40.442543" lon="15.147217"><ele>297.0</ele><time>2026-05-05T14:09:03.977Z</time></trkpt><trkpt lat="40.4425918" lon="15.1470511"><ele>300.5</ele><time>2026-05-05T14:09:04.978Z</time></trkpt><trkpt lat="40.4426478" lon="15.146888"><ele>304.0</ele><time>2026-05-05T14:09:05.977Z</time></trkpt><trkpt lat="40.4427102" lon="15.1467311"><ele>304.0</ele><time>2026-05-05T14:09:06.977Z</time></trkpt><trkpt lat="40.4427763" lon="15.1465773"><ele>304.0</ele><time>2026-05-05T14:09:07.978Z</time></trkpt><trkpt lat="40.4428454" lon="15.1464229"><ele>304.0</ele><time>2026-05-05T14:09:08.977Z</time></trkpt><trkpt lat="40.4429252" lon="15.1462695"><ele>304.0</ele><time>2026-05-05T14:09:09.978Z</time></trkpt><trkpt lat="40.4430061" lon="15.1461177"><ele>305.5</ele><time>2026-05-05T14:09:10.978Z</time></trkpt><trkpt lat="40.4430844" lon="15.1459694"><ele>307.0</ele><time>2026-05-05T14:09:11.978Z</time></trkpt><trkpt lat="40.4431597" lon="15.1458217"><ele>308.5</ele><time>2026-05-05T14:09:12.977Z</time></trkpt><trkpt lat="40.443225" lon="15.1456702"><ele>310.0</ele><time>2026-05-05T14:09:13.976Z</time></trkpt><trkpt lat="40.4432753" lon="15.1455055"><ele>310.0</ele><time>2026-05-05T14:09:14.978Z</time></trkpt><trkpt lat="40.4433154" lon="15.1453331"><ele>310.0</ele><time>2026-05-05T14:09:15.977Z</time></trkpt><trkpt lat="40.4433551" lon="15.1451576"><ele>310.0</ele><time>2026-05-05T14:09:16.978Z</time></trkpt><trkpt lat="40.4434025" lon="15.144982"><ele>310.0</ele><time>2026-05-05T14:09:17.978Z</time></trkpt><trkpt lat="40.443465" lon="15.1448153"><ele>312.75</ele><time>2026-05-05T14:09:18.978Z</time></trkpt><trkpt lat="40.4435371" lon="15.1446558"><ele>315.5</ele><time>2026-05-05T14:09:19.977Z</time></trkpt><trkpt lat="40.4436006" lon="15.144504"><ele>318.25</ele><time>2026-05-05T14:09:20.977Z</time></trkpt><trkpt lat="40.4436547" lon="15.1443667"><ele>321.0</ele><time>2026-05-05T14:09:21.978Z</time></trkpt><trkpt lat="40.4436951" lon="15.1442315"><ele>321.0</ele><time>2026-05-05T14:09:22.978Z</time></trkpt><trkpt lat="40.443714" lon="15.1441029"><ele>321.0</ele><time>2026-05-05T14:09:23.978Z</time></trkpt><trkpt lat="40.4437117" lon="15.143976"><ele>321.0</ele><time>2026-05-05T14:09:24.978Z</time></trkpt><trkpt lat="40.4436948" lon="15.1438429"><ele>321.0</ele><time>2026-05-05T14:09:25.977Z</time></trkpt><trkpt lat="40.4436742" lon="15.1437081"><ele>321.0</ele><time>2026-05-05T14:09:26.978Z</time></trkpt><trkpt lat="40.4436522" lon="15.143571"><ele>320.6</ele><time>2026-05-05T14:09:27.978Z</time></trkpt><trkpt lat="40.4436231" lon="15.1434411"><ele>320.20000000000005</ele><time>2026-05-05T14:09:28.978Z</time></trkpt><trkpt lat="40.4435856" lon="15.143318"><ele>319.79999999999995</ele><time>2026-05-05T14:09:29.978Z</time></trkpt><trkpt lat="40.4435389" lon="15.143193"><ele>319.4</ele><time>2026-05-05T14:09:30.978Z</time></trkpt><trkpt lat="40.4434852" lon="15.1430676"><ele>319.0</ele><time>2026-05-05T14:09:31.976Z</time></trkpt><trkpt lat="40.443427" lon="15.1429433"><ele>316.2</ele><time>2026-05-05T14:09:32.978Z</time></trkpt><trkpt lat="40.4433685" lon="15.1428237"><ele>313.4</ele><time>2026-05-05T14:09:33.978Z</time></trkpt><trkpt lat="40.4433107" lon="15.1427038"><ele>310.6</ele><time>2026-05-05T14:09:34.977Z</time></trkpt><trkpt lat="40.4432559" lon="15.1425815"><ele>307.8</ele><time>2026-05-05T14:09:35.978Z</time></trkpt><trkpt lat="40.4432041" lon="15.1424595"><ele>305.0</ele><time>2026-05-05T14:09:36.977Z</time></trkpt><trkpt lat="40.4431499" lon="15.1423428"><ele>305.0</ele><time>2026-05-05T14:09:37.977Z</time></trkpt><trkpt lat="40.443095" lon="15.1422342"><ele>305.0</ele><time>2026-05-05T14:09:38.977Z</time></trkpt><trkpt lat="40.4430543" lon="15.142136"><ele>305.0</ele><time>2026-05-05T14:09:39.977Z</time></trkpt><trkpt lat="40.4430342" lon="15.1420573"><ele>305.0</ele><time>2026-05-05T14:09:40.977Z</time></trkpt><trkpt lat="40.4430304" lon="15.1419493"><ele>305.0</ele><time>2026-05-05T14:09:42.978Z</time></trkpt><trkpt lat="40.443093" lon="15.1418318"><ele>305.0</ele><time>2026-05-05T14:09:44.978Z</time></trkpt><trkpt lat="40.4431645" lon="15.1417926"><ele>305.0</ele><time>2026-05-05T14:09:45.978Z</time></trkpt><trkpt lat="40.4432423" lon="15.1417595"><ele>305.0</ele><time>2026-05-05T14:09:46.977Z</time></trkpt><trkpt lat="40.4433301" lon="15.1417252"><ele>305.0</ele><time>2026-05-05T14:09:47.977Z</time></trkpt><trkpt lat="40.4434184" lon="15.1416858"><ele>305.0</ele><time>2026-05-05T14:09:48.977Z</time></trkpt><trkpt lat="40.4434992" lon="15.1416423"><ele>305.0</ele><time>2026-05-05T14:09:49.978Z</time></trkpt><trkpt lat="40.4435839" lon="15.1415937"><ele>305.0</ele><time>2026-05-05T14:09:50.977Z</time></trkpt><trkpt lat="40.4436696" lon="15.1415457"><ele>306.5</ele><time>2026-05-05T14:09:51.977Z</time></trkpt><trkpt lat="40.4437532" lon="15.1415024"><ele>308.0</ele><time>2026-05-05T14:09:52.977Z</time></trkpt><trkpt lat="40.4438307" lon="15.141467"><ele>309.5</ele><time>2026-05-05T14:09:53.978Z</time></trkpt><trkpt lat="40.4439026" lon="15.1414423"><ele>311.0</ele><time>2026-05-05T14:09:54.977Z</time></trkpt><trkpt lat="40.4439996" lon="15.1414166"><ele>312.5</ele><time>2026-05-05T14:09:56.976Z</time></trkpt><trkpt lat="40.4440828" lon="15.1414324"><ele>314.0</ele><time>2026-05-05T14:09:58.977Z</time></trkpt><trkpt lat="40.4441924" lon="15.1414502"><ele>314.0</ele><time>2026-05-05T14:10:00.977Z</time></trkpt><trkpt lat="40.4442936" lon="15.1414537"><ele>314.0</ele><time>2026-05-05T14:10:02.978Z</time></trkpt><trkpt lat="40.444374" lon="15.1414191"><ele>314.0</ele><time>2026-05-05T14:10:04.978Z</time></trkpt><trkpt lat="40.444446" lon="15.1413995"><ele>314.0</ele><time>2026-05-05T14:10:06.977Z</time></trkpt><trkpt lat="40.4445355" lon="15.1413549"><ele>314.0</ele><time>2026-05-05T14:10:09.977Z</time></trkpt><trkpt lat="40.4445875" lon="15.1412579"><ele>314.0</ele><time>2026-05-05T14:10:11.977Z</time></trkpt><trkpt lat="40.4446634" lon="15.1411651"><ele>309.59999999999997</ele><time>2026-05-05T14:10:13.978Z</time></trkpt><trkpt lat="40.4447066" lon="15.1410629"><ele>305.2</ele><time>2026-05-05T14:10:15.978Z</time></trkpt><trkpt lat="40.4447348" lon="15.1409224"><ele>300.79999999999995</ele><time>2026-05-05T14:10:17.977Z</time></trkpt><trkpt lat="40.4447578" lon="15.1408007"><ele>296.4</ele><time>2026-05-05T14:10:19.978Z</time></trkpt><trkpt lat="40.4447962" lon="15.1406968"><ele>292.0</ele><time>2026-05-05T14:10:21.977Z</time></trkpt><trkpt lat="40.4448406" lon="15.140612"><ele>291.3333333333333</ele><time>2026-05-05T14:10:24.978Z</time></trkpt><trkpt lat="40.4448769" lon="15.1405402"><ele>290.66666666666663</ele><time>2026-05-05T14:11:51.979Z</time></trkpt><trkpt lat="40.444866" lon="15.140404"><ele>290.0</ele><time>2026-05-05T14:11:54.978Z</time></trkpt><trkpt lat="40.4448422" lon="15.1402989"><ele>289.3333333333333</ele><time>2026-05-05T14:11:56.979Z</time></trkpt><trkpt lat="40.4448476" lon="15.1404175"><ele>288.6666666666667</ele><time>2026-05-05T14:12:00.979Z</time></trkpt><trkpt lat="40.4448643" lon="15.1405357"><ele>288.0</ele><time>2026-05-05T14:12:02.978Z</time></trkpt><trkpt lat="40.4448283" lon="15.1406289"><ele>288.8</ele><time>2026-05-05T14:12:04.979Z</time></trkpt><trkpt lat="40.4447762" lon="15.1407416"><ele>289.6</ele><time>2026-05-05T14:12:06.979Z</time></trkpt><trkpt lat="40.4447417" lon="15.1408883"><ele>290.4</ele><time>2026-05-05T14:12:08.979Z</time></trkpt><trkpt lat="40.4447155" lon="15.1410349"><ele>291.2</ele><time>2026-05-05T14:12:10.979Z</time></trkpt><trkpt lat="40.4446724" lon="15.1411578"><ele>292.0</ele><time>2026-05-05T14:12:12.979Z</time></trkpt><trkpt lat="40.444612" lon="15.1412547"><ele>296.4</ele><time>2026-05-05T14:12:14.979Z</time></trkpt><trkpt lat="40.4445391" lon="15.1413438"><ele>300.79999999999995</ele><time>2026-05-05T14:12:16.979Z</time></trkpt><trkpt lat="40.4444628" lon="15.1414039"><ele>305.2</ele><time>2026-05-05T14:12:18.978Z</time></trkpt><trkpt lat="40.4443794" lon="15.141421"><ele>309.59999999999997</ele><time>2026-05-05T14:12:20.979Z</time></trkpt><trkpt lat="40.4442695" lon="15.1414542"><ele>314.0</ele><time>2026-05-05T14:12:22.979Z</time></trkpt><trkpt lat="40.4441648" lon="15.141453"><ele>314.0</ele><time>2026-05-05T14:12:24.978Z</time></trkpt><trkpt lat="40.4440782" lon="15.141444"><ele>314.0</ele><time>2026-05-05T14:12:26.978Z</time></trkpt><trkpt lat="40.4440541" lon="15.1413632"><ele>314.0</ele><time>2026-05-05T14:12:28.979Z</time></trkpt><trkpt lat="40.4441076" lon="15.1412867"><ele>314.0</ele><time>2026-05-05T14:12:30.978Z</time></trkpt><trkpt lat="40.4441881" lon="15.1412477"><ele>314.0</ele><time>2026-05-05T14:12:32.979Z</time></trkpt><trkpt lat="40.444252" lon="15.1412427"><ele>314.0</ele><time>2026-05-05T14:12:34.978Z</time></trkpt><trkpt lat="40.4441564" lon="15.1412661"><ele>314.0</ele><time>2026-05-05T14:12:47.978Z</time></trkpt><trkpt lat="40.4440861" lon="15.1413432"><ele>314.0</ele><time>2026-05-05T14:12:49.979Z</time></trkpt><trkpt lat="40.4439886" lon="15.1414225"><ele>314.0</ele><time>2026-05-05T14:12:51.978Z</time></trkpt><trkpt lat="40.4439225" lon="15.1414502"><ele>314.0</ele><time>2026-05-05T14:12:52.979Z</time></trkpt><trkpt lat="40.4438419" lon="15.1414759"><ele>314.0</ele><time>2026-05-05T14:12:53.978Z</time></trkpt><trkpt lat="40.4437666" lon="15.141511"><ele>314.0</ele><time>2026-05-05T14:12:54.979Z</time></trkpt><trkpt lat="40.4436975" lon="15.1415518"><ele>312.5</ele><time>2026-05-05T14:12:55.978Z</time></trkpt><trkpt lat="40.443632" lon="15.1415861"><ele>311.0</ele><time>2026-05-05T14:12:56.979Z</time></trkpt><trkpt lat="40.4435591" lon="15.1415994"><ele>309.5</ele><time>2026-05-05T14:12:57.979Z</time></trkpt><trkpt lat="40.4434786" lon="15.1415984"><ele>308.0</ele><time>2026-05-05T14:12:58.978Z</time></trkpt><trkpt lat="40.4434077" lon="15.1416247"><ele>306.5</ele><time>2026-05-05T14:12:59.978Z</time></trkpt><trkpt lat="40.4433302" lon="15.1415808"><ele>305.0</ele><time>2026-05-05T14:13:01.979Z</time></trkpt><trkpt lat="40.4433709" lon="15.1415002"><ele>309.0</ele><time>2026-05-05T14:13:03.979Z</time></trkpt><trkpt lat="40.4434703" lon="15.1413746"><ele>313.0</ele><time>2026-05-05T14:13:05.979Z</time></trkpt><trkpt lat="40.4435241" lon="15.1412917"><ele>317.0</ele><time>2026-05-05T14:13:06.979Z</time></trkpt><trkpt lat="40.4435814" lon="15.1412013"><ele>321.0</ele><time>2026-05-05T14:13:07.978Z</time></trkpt><trkpt lat="40.4436392" lon="15.1411034"><ele>325.0</ele><time>2026-05-05T14:13:08.979Z</time></trkpt><trkpt lat="40.4436883" lon="15.1410007"><ele>325.0</ele><time>2026-05-05T14:13:09.978Z</time></trkpt><trkpt lat="40.4437286" lon="15.1409143"><ele>325.0</ele><time>2026-05-05T14:13:10.978Z</time></trkpt><trkpt lat="40.4438067" lon="15.1408241"><ele>325.0</ele><time>2026-05-05T14:13:12.978Z</time></trkpt><trkpt lat="40.4438901" lon="15.1407816"><ele>325.0</ele><time>2026-05-05T14:13:14.979Z</time></trkpt><trkpt lat="40.4439839" lon="15.1407939"><ele>325.0</ele><time>2026-05-05T14:13:16.977Z</time></trkpt><trkpt lat="40.4438915" lon="15.1408068"><ele>325.0</ele><time>2026-05-05T14:13:24.979Z</time></trkpt><trkpt lat="40.4438232" lon="15.1408048"><ele>325.0</ele><time>2026-05-05T14:14:01.979Z</time></trkpt><trkpt lat="40.4437824" lon="15.1407314"><ele>325.0</ele><time>2026-05-05T14:14:05.979Z</time></trkpt><trkpt lat="40.4438348" lon="15.1406216"><ele>325.0</ele><time>2026-05-05T14:14:07.978Z</time></trkpt><trkpt lat="40.4438659" lon="15.1405415"><ele>325.0</ele><time>2026-05-05T14:14:08.979Z</time></trkpt><trkpt lat="40.4438946" lon="15.1404493"><ele>325.0</ele><time>2026-05-05T14:14:09.979Z</time></trkpt><trkpt lat="40.4439117" lon="15.1403598"><ele>323.3333333333333</ele><time>2026-05-05T14:14:10.977Z</time></trkpt><trkpt lat="40.4439207" lon="15.1402744"><ele>321.66666666666663</ele><time>2026-05-05T14:14:11.979Z</time></trkpt><trkpt lat="40.4438845" lon="15.1401898"><ele>320.0</ele><time>2026-05-05T14:14:12.979Z</time></trkpt><trkpt lat="40.4438511" lon="15.1400952"><ele>318.3333333333333</ele><time>2026-05-05T14:14:13.977Z</time></trkpt><trkpt lat="40.4438249" lon="15.1399917"><ele>316.6666666666667</ele><time>2026-05-05T14:14:14.978Z</time></trkpt><trkpt lat="40.4438004" lon="15.1398803"><ele>315.0</ele><time>2026-05-05T14:14:15.978Z</time></trkpt><trkpt lat="40.4437678" lon="15.139768"><ele>320.5</ele><time>2026-05-05T14:14:16.979Z</time></trkpt><trkpt lat="40.4437343" lon="15.1396566"><ele>326.0</ele><time>2026-05-05T14:14:17.979Z</time></trkpt><trkpt lat="40.4436991" lon="15.1395548"><ele>331.5</ele><time>2026-05-05T14:14:18.979Z</time></trkpt><trkpt lat="40.4436623" lon="15.1394495"><ele>337.0</ele><time>2026-05-05T14:14:19.979Z</time></trkpt><trkpt lat="40.4436222" lon="15.1393438"><ele>342.5</ele><time>2026-05-05T14:14:20.979Z</time></trkpt><trkpt lat="40.4435794" lon="15.1392375"><ele>348.0</ele><time>2026-05-05T14:14:21.977Z</time></trkpt><trkpt lat="40.4435452" lon="15.1391211"><ele>345.59999999999997</ele><time>2026-05-05T14:14:22.979Z</time></trkpt><trkpt lat="40.4435119" lon="15.1389997"><ele>343.2</ele><time>2026-05-05T14:14:23.978Z</time></trkpt><trkpt lat="40.4434846" lon="15.1388832"><ele>340.8</ele><time>2026-05-05T14:14:24.979Z</time></trkpt><trkpt lat="40.4434551" lon="15.1387595"><ele>338.4</ele><time>2026-05-05T14:14:25.979Z</time></trkpt><trkpt lat="40.4434168" lon="15.1386345"><ele>336.0</ele><time>2026-05-05T14:14:26.979Z</time></trkpt><trkpt lat="40.4433678" lon="15.1385076"><ele>336.0</ele><time>2026-05-05T14:14:27.979Z</time></trkpt><trkpt lat="40.4433112" lon="15.1383851"><ele>336.0</ele><time>2026-05-05T14:14:28.978Z</time></trkpt><trkpt lat="40.4432473" lon="15.1382627"><ele>336.0</ele><time>2026-05-05T14:14:29.979Z</time></trkpt><trkpt lat="40.4431785" lon="15.1381499"><ele>336.0</ele><time>2026-05-05T14:14:30.978Z</time></trkpt><trkpt lat="40.4430988" lon="15.138053"><ele>336.0</ele><time>2026-05-05T14:14:31.978Z</time></trkpt><trkpt lat="40.4430243" lon="15.1379517"><ele>339.8</ele><time>2026-05-05T14:14:32.978Z</time></trkpt><trkpt lat="40.4429563" lon="15.137835"><ele>343.6</ele><time>2026-05-05T14:14:33.977Z</time></trkpt><trkpt lat="40.4428902" lon="15.1377172"><ele>347.4</ele><time>2026-05-05T14:14:34.978Z</time></trkpt><trkpt lat="40.4428289" lon="15.1376061"><ele>351.2</ele><time>2026-05-05T14:14:35.978Z</time></trkpt><trkpt lat="40.4427628" lon="15.1374957"><ele>355.0</ele><time>2026-05-05T14:14:36.978Z</time></trkpt><trkpt lat="40.4426966" lon="15.1373829"><ele>355.0</ele><time>2026-05-05T14:14:37.979Z</time></trkpt><trkpt lat="40.442638" lon="15.1372661"><ele>355.0</ele><time>2026-05-05T14:14:38.978Z</time></trkpt><trkpt lat="40.4425825" lon="15.137139"><ele>355.0</ele><time>2026-05-05T14:14:39.978Z</time></trkpt><trkpt lat="40.4425164" lon="15.1370086"><ele>355.0</ele><time>2026-05-05T14:14:40.979Z</time></trkpt><trkpt lat="40.4424605" lon="15.1368828"><ele>355.0</ele><time>2026-05-05T14:14:41.979Z</time></trkpt><trkpt lat="40.4424105" lon="15.1367619"><ele>355.0</ele><time>2026-05-05T14:14:42.979Z</time></trkpt><trkpt lat="40.442358" lon="15.1366443"><ele>355.0</ele><time>2026-05-05T14:14:43.979Z</time></trkpt><trkpt lat="40.4423057" lon="15.136517"><ele>355.0</ele><time>2026-05-05T14:14:44.979Z</time></trkpt><trkpt lat="40.4422476" lon="15.1363917"><ele>355.0</ele><time>2026-05-05T14:14:45.977Z</time></trkpt><trkpt lat="40.44219" lon="15.1362735"><ele>355.0</ele><time>2026-05-05T14:14:46.979Z</time></trkpt><trkpt lat="40.4421339" lon="15.1361629"><ele>363.6</ele><time>2026-05-05T14:14:47.979Z</time></trkpt><trkpt lat="40.4420738" lon="15.1360521"><ele>372.2</ele><time>2026-05-05T14:14:48.979Z</time></trkpt><trkpt lat="40.442011" lon="15.1359367"><ele>380.79999999999995</ele><time>2026-05-05T14:14:49.979Z</time></trkpt><trkpt lat="40.4419638" lon="15.1358338"><ele>389.4</ele><time>2026-05-05T14:14:50.979Z</time></trkpt><trkpt lat="40.4419051" lon="15.1357457"><ele>398.0</ele><time>2026-05-05T14:14:51.979Z</time></trkpt><trkpt lat="40.441855" lon="15.1356591"><ele>400.16666666666663</ele><time>2026-05-05T14:14:52.979Z</time></trkpt><trkpt lat="40.4418113" lon="15.1355884"><ele>402.3333333333333</ele><time>2026-05-05T14:14:53.978Z</time></trkpt><trkpt lat="40.4418173" lon="15.1354652"><ele>404.5</ele><time>2026-05-05T14:14:55.978Z</time></trkpt><trkpt lat="40.4418562" lon="15.1353934"><ele>406.66666666666663</ele><time>2026-05-05T14:15:05.978Z</time></trkpt><trkpt lat="40.4419481" lon="15.1353638"><ele>408.8333333333333</ele><time>2026-05-05T14:15:07.978Z</time></trkpt><trkpt lat="40.4420686" lon="15.1353748"><ele>411.0</ele><time>2026-05-05T14:15:09.979Z</time></trkpt><trkpt lat="40.4421394" lon="15.1353752"><ele>411.1666666666667</ele><time>2026-05-05T14:15:10.978Z</time></trkpt><trkpt lat="40.4422113" lon="15.1353828"><ele>411.33333333333337</ele><time>2026-05-05T14:15:11.979Z</time></trkpt><trkpt lat="40.4422927" lon="15.1353877"><ele>411.5</ele><time>2026-05-05T14:15:12.979Z</time></trkpt><trkpt lat="40.4423783" lon="15.135395"><ele>411.6666666666667</ele><time>2026-05-05T14:15:13.979Z</time></trkpt><trkpt lat="40.4424608" lon="15.1354048"><ele>411.83333333333337</ele><time>2026-05-05T14:15:14.979Z</time></trkpt><trkpt lat="40.442547" lon="15.135407"><ele>412.0</ele><time>2026-05-05T14:15:15.978Z</time></trkpt><trkpt lat="40.4426297" lon="15.1354118"><ele>412.00000000000006</ele><time>2026-05-05T14:15:16.978Z</time></trkpt><trkpt lat="40.44271" lon="15.135419"><ele>412.0</ele><time>2026-05-05T14:15:17.978Z</time></trkpt><trkpt lat="40.4427964" lon="15.1354391"><ele>412.0</ele><time>2026-05-05T14:15:18.978Z</time></trkpt><trkpt lat="40.4428795" lon="15.1354649"><ele>412.0</ele><time>2026-05-05T14:15:19.979Z</time></trkpt><trkpt lat="40.4429576" lon="15.1354947"><ele>412.00000000000006</ele><time>2026-05-05T14:15:20.978Z</time></trkpt><trkpt lat="40.4430389" lon="15.1355319"><ele>412.0</ele><time>2026-05-05T14:15:21.979Z</time></trkpt><trkpt lat="40.443121" lon="15.1355726"><ele>411.33333333333337</ele><time>2026-05-05T14:15:22.978Z</time></trkpt><trkpt lat="40.443205" lon="15.1356141"><ele>410.6666666666667</ele><time>2026-05-05T14:15:23.979Z</time></trkpt><trkpt lat="40.443289" lon="15.1356623"><ele>410.0</ele><time>2026-05-05T14:15:24.979Z</time></trkpt><trkpt lat="40.4433693" lon="15.1356839"><ele>409.33333333333337</ele><time>2026-05-05T14:15:25.978Z</time></trkpt><trkpt lat="40.4434327" lon="15.135697"><ele>408.6666666666667</ele><time>2026-05-05T14:15:26.978Z</time></trkpt><trkpt lat="40.4435149" lon="15.1356531"><ele>408.0</ele><time>2026-05-05T14:15:28.978Z</time></trkpt><trkpt lat="40.4435449" lon="15.1355365"><ele>408.0</ele><time>2026-05-05T14:15:30.977Z</time></trkpt><trkpt lat="40.4435808" lon="15.1353916"><ele>408.0</ele><time>2026-05-05T14:15:32.978Z</time></trkpt><trkpt lat="40.4436082" lon="15.1353057"><ele>408.0</ele><time>2026-05-05T14:15:33.979Z</time></trkpt><trkpt lat="40.4436368" lon="15.1352077"><ele>408.0</ele><time>2026-05-05T14:15:34.979Z</time></trkpt><trkpt lat="40.4436639" lon="15.1351058"><ele>408.0</ele><time>2026-05-05T14:15:35.978Z</time></trkpt><trkpt lat="40.4436812" lon="15.1350059"><ele>408.0</ele><time>2026-05-05T14:15:36.978Z</time></trkpt><trkpt lat="40.443686" lon="15.1349026"><ele>410.5</ele><time>2026-05-05T14:15:37.979Z</time></trkpt><trkpt lat="40.4436926" lon="15.1348086"><ele>413.0</ele><time>2026-05-05T14:15:38.979Z</time></trkpt><trkpt lat="40.4437039" lon="15.1347009"><ele>415.5</ele><time>2026-05-05T14:15:39.979Z</time></trkpt><trkpt lat="40.4437221" lon="15.1345945"><ele>418.0</ele><time>2026-05-05T14:15:40.979Z</time></trkpt><trkpt lat="40.4438052" lon="15.1345021"><ele>420.5</ele><time>2026-05-05T14:15:41.979Z</time></trkpt><trkpt lat="40.4438479" lon="15.1343794"><ele>423.0</ele><time>2026-05-05T14:15:42.978Z</time></trkpt><trkpt lat="40.4438995" lon="15.1342497"><ele>418.0</ele><time>2026-05-05T14:15:43.978Z</time></trkpt><trkpt lat="40.4439495" lon="15.1341251"><ele>413.0</ele><time>2026-05-05T14:15:44.979Z</time></trkpt><trkpt lat="40.4439976" lon="15.1339979"><ele>408.0</ele><time>2026-05-05T14:15:45.979Z</time></trkpt><trkpt lat="40.4440371" lon="15.1338614"><ele>403.0</ele><time>2026-05-05T14:15:46.979Z</time></trkpt><trkpt lat="40.4440367" lon="15.1337223"><ele>398.0</ele><time>2026-05-05T14:15:47.978Z</time></trkpt><trkpt lat="40.4440499" lon="15.133608"><ele>398.0</ele><time>2026-05-05T14:15:48.977Z</time></trkpt><trkpt lat="40.4440651" lon="15.1334942"><ele>398.0</ele><time>2026-05-05T14:15:49.978Z</time></trkpt><trkpt lat="40.4440716" lon="15.1333861"><ele>398.0</ele><time>2026-05-05T14:15:50.979Z</time></trkpt><trkpt lat="40.4440777" lon="15.1332876"><ele>398.0</ele><time>2026-05-05T14:15:51.977Z</time></trkpt><trkpt lat="40.444084" lon="15.1331893"><ele>398.0</ele><time>2026-05-05T14:15:52.979Z</time></trkpt><trkpt lat="40.444069" lon="15.1329998"><ele>398.16666666666663</ele><time>2026-05-05T14:15:54.977Z</time></trkpt><trkpt lat="40.4440551" lon="15.1329064"><ele>398.3333333333333</ele><time>2026-05-05T14:15:55.979Z</time></trkpt><trkpt lat="40.4440489" lon="15.1328199"><ele>398.5</ele><time>2026-05-05T14:15:56.978Z</time></trkpt><trkpt lat="40.4440379" lon="15.132718"><ele>398.66666666666663</ele><time>2026-05-05T14:15:57.978Z</time></trkpt><trkpt lat="40.4440411" lon="15.1326066"><ele>398.8333333333333</ele><time>2026-05-05T14:15:58.977Z</time></trkpt><trkpt lat="40.4440551" lon="15.132487"><ele>399.0</ele><time>2026-05-05T14:15:59.979Z</time></trkpt><trkpt lat="40.4440665" lon="15.1323604"><ele>398.6</ele><time>2026-05-05T14:16:00.979Z</time></trkpt><trkpt lat="40.4440725" lon="15.1322102"><ele>398.2</ele><time>2026-05-05T14:16:01.978Z</time></trkpt><trkpt lat="40.4440768" lon="15.1320809"><ele>397.8</ele><time>2026-05-05T14:16:02.977Z</time></trkpt><trkpt lat="40.444076" lon="15.1319604"><ele>397.40000000000003</ele><time>2026-05-05T14:16:03.979Z</time></trkpt><trkpt lat="40.4440609" lon="15.1318293"><ele>397.0</ele><time>2026-05-05T14:16:04.978Z</time></trkpt><trkpt lat="40.4440357" lon="15.1316937"><ele>397.0</ele><time>2026-05-05T14:16:05.979Z</time></trkpt><trkpt lat="40.4440198" lon="15.1315626"><ele>397.0</ele><time>2026-05-05T14:16:06.978Z</time></trkpt><trkpt lat="40.4439977" lon="15.1314362"><ele>397.0</ele><time>2026-05-05T14:16:07.979Z</time></trkpt><trkpt lat="40.4439783" lon="15.1313157"><ele>397.0</ele><time>2026-05-05T14:16:08.978Z</time></trkpt><trkpt lat="40.4439546" lon="15.1311917"><ele>397.0</ele><time>2026-05-05T14:16:09.979Z</time></trkpt><trkpt lat="40.4439367" lon="15.131072"><ele>397.40000000000003</ele><time>2026-05-05T14:16:10.979Z</time></trkpt><trkpt lat="40.4439357" lon="15.1309506"><ele>397.8</ele><time>2026-05-05T14:16:11.978Z</time></trkpt><trkpt lat="40.4439441" lon="15.1308317"><ele>398.2</ele><time>2026-05-05T14:16:12.978Z</time></trkpt><trkpt lat="40.4439689" lon="15.1307055"><ele>398.6</ele><time>2026-05-05T14:16:13.979Z</time></trkpt><trkpt lat="40.4440053" lon="15.1305832"><ele>399.0</ele><time>2026-05-05T14:16:14.978Z</time></trkpt><trkpt lat="40.4440502" lon="15.1304614"><ele>400.6</ele><time>2026-05-05T14:16:15.978Z</time></trkpt><trkpt lat="40.4441048" lon="15.1303418"><ele>402.2</ele><time>2026-05-05T14:16:16.979Z</time></trkpt><trkpt lat="40.4441547" lon="15.1302261"><ele>403.8</ele><time>2026-05-05T14:16:17.978Z</time></trkpt><trkpt lat="40.4442042" lon="15.1301097"><ele>405.40000000000003</ele><time>2026-05-05T14:16:18.979Z</time></trkpt><trkpt lat="40.4442514" lon="15.1299954"><ele>407.0</ele><time>2026-05-05T14:16:19.978Z</time></trkpt><trkpt lat="40.4442908" lon="15.1298698"><ele>408.0</ele><time>2026-05-05T14:16:20.979Z</time></trkpt><trkpt lat="40.4443243" lon="15.1297433"><ele>409.0</ele><time>2026-05-05T14:16:21.979Z</time></trkpt><trkpt lat="40.4443586" lon="15.1296153"><ele>410.0</ele><time>2026-05-05T14:16:22.978Z</time></trkpt><trkpt lat="40.4443881" lon="15.1294869"><ele>411.0</ele><time>2026-05-05T14:16:23.979Z</time></trkpt><trkpt lat="40.4444302" lon="15.1293548"><ele>412.0</ele><time>2026-05-05T14:16:24.979Z</time></trkpt><trkpt lat="40.4444789" lon="15.1292303"><ele>412.0</ele><time>2026-05-05T14:16:25.978Z</time></trkpt><trkpt lat="40.4445317" lon="15.1291112"><ele>412.0</ele><time>2026-05-05T14:16:26.978Z</time></trkpt><trkpt lat="40.4445721" lon="15.1289955"><ele>412.0</ele><time>2026-05-05T14:16:27.978Z</time></trkpt><trkpt lat="40.4446153" lon="15.1288888"><ele>412.0</ele><time>2026-05-05T14:16:28.979Z</time></trkpt><trkpt lat="40.4446617" lon="15.1287971"><ele>412.0</ele><time>2026-05-05T14:16:29.979Z</time></trkpt><trkpt lat="40.4447097" lon="15.128722"><ele>408.8</ele><time>2026-05-05T14:16:30.978Z</time></trkpt><trkpt lat="40.4447935" lon="15.1286812"><ele>405.6</ele><time>2026-05-05T14:16:32.979Z</time></trkpt><trkpt lat="40.4448384" lon="15.1287849"><ele>402.40000000000003</ele><time>2026-05-05T14:16:34.979Z</time></trkpt><trkpt lat="40.4449173" lon="15.1289076"><ele>399.20000000000005</ele><time>2026-05-05T14:16:36.979Z</time></trkpt><trkpt lat="40.4449911" lon="15.1289348"><ele>396.0</ele><time>2026-05-05T14:16:37.979Z</time></trkpt><trkpt lat="40.4450774" lon="15.1289345"><ele>396.0</ele><time>2026-05-05T14:16:38.979Z</time></trkpt><trkpt lat="40.4451658" lon="15.1289223"><ele>396.0</ele><time>2026-05-05T14:16:39.979Z</time></trkpt><trkpt lat="40.4452569" lon="15.128912"><ele>396.0</ele><time>2026-05-05T14:16:40.978Z</time></trkpt><trkpt lat="40.4453486" lon="15.1289099"><ele>396.0</ele><time>2026-05-05T14:16:41.979Z</time></trkpt><trkpt lat="40.4454396" lon="15.1289236"><ele>396.0</ele><time>2026-05-05T14:16:42.979Z</time></trkpt><trkpt lat="40.4455267" lon="15.1289588"><ele>393.4</ele><time>2026-05-05T14:16:43.979Z</time></trkpt><trkpt lat="40.4456095" lon="15.1289931"><ele>390.8</ele><time>2026-05-05T14:16:44.979Z</time></trkpt><trkpt lat="40.4456888" lon="15.1290025"><ele>388.2</ele><time>2026-05-05T14:16:45.978Z</time></trkpt><trkpt lat="40.4458114" lon="15.1289243"><ele>385.59999999999997</ele><time>2026-05-05T14:16:47.979Z</time></trkpt><trkpt lat="40.4458702" lon="15.1288326"><ele>383.0</ele><time>2026-05-05T14:16:48.979Z</time></trkpt><trkpt lat="40.4459407" lon="15.128724"><ele>383.0</ele><time>2026-05-05T14:16:49.979Z</time></trkpt><trkpt lat="40.4460185" lon="15.1286202"><ele>383.0</ele><time>2026-05-05T14:16:50.979Z</time></trkpt><trkpt lat="40.4460968" lon="15.1285169"><ele>383.0</ele><time>2026-05-05T14:16:51.978Z</time></trkpt><trkpt lat="40.4461733" lon="15.1284127"><ele>383.0</ele><time>2026-05-05T14:16:52.978Z</time></trkpt><trkpt lat="40.4462504" lon="15.1283091"><ele>383.0</ele><time>2026-05-05T14:16:53.978Z</time></trkpt><trkpt lat="40.4463157" lon="15.1281949"><ele>377.5</ele><time>2026-05-05T14:16:54.978Z</time></trkpt><trkpt lat="40.4463623" lon="15.1280764"><ele>372.0</ele><time>2026-05-05T14:16:55.978Z</time></trkpt><trkpt lat="40.446403" lon="15.1279841"><ele>366.5</ele><time>2026-05-05T14:16:56.979Z</time></trkpt><trkpt lat="40.4464562" lon="15.1279381"><ele>361.0</ele><time>2026-05-05T14:16:57.979Z</time></trkpt><trkpt lat="40.4465113" lon="15.1280199"><ele>355.5</ele><time>2026-05-05T14:16:59.979Z</time></trkpt><trkpt lat="40.4464975" lon="15.128103"><ele>350.0</ele><time>2026-05-05T14:17:00.978Z</time></trkpt><trkpt lat="40.4464761" lon="15.128219"><ele>349.25</ele><time>2026-05-05T14:17:01.978Z</time></trkpt><trkpt lat="40.4464588" lon="15.1283647"><ele>348.5</ele><time>2026-05-05T14:17:02.978Z</time></trkpt><trkpt lat="40.4464407" lon="15.1285276"><ele>347.75</ele><time>2026-05-05T14:17:03.979Z</time></trkpt><trkpt lat="40.4464243" lon="15.1287086"><ele>347.0</ele><time>2026-05-05T14:17:04.979Z</time></trkpt><trkpt lat="40.4464053" lon="15.1288815"><ele>347.0</ele><time>2026-05-05T14:17:05.978Z</time></trkpt><trkpt lat="40.4463888" lon="15.1290494"><ele>347.0</ele><time>2026-05-05T14:17:06.979Z</time></trkpt><trkpt lat="40.4463733" lon="15.1292128"><ele>347.0</ele><time>2026-05-05T14:17:07.977Z</time></trkpt><trkpt lat="40.4463587" lon="15.1293706"><ele>347.0</ele><time>2026-05-05T14:17:08.979Z</time></trkpt><trkpt lat="40.4463309" lon="15.129514"><ele>345.0</ele><time>2026-05-05T14:17:09.978Z</time></trkpt><trkpt lat="40.4462955" lon="15.1296241"><ele>343.0</ele><time>2026-05-05T14:17:10.978Z</time></trkpt><trkpt lat="40.4462758" lon="15.1297116"><ele>341.0</ele><time>2026-05-05T14:17:11.979Z</time></trkpt><trkpt lat="40.4462892" lon="15.1298099"><ele>339.0</ele><time>2026-05-05T14:17:13.978Z</time></trkpt><trkpt lat="40.4463806" lon="15.1297387"><ele>337.0</ele><time>2026-05-05T14:17:50.978Z</time></trkpt><trkpt lat="40.446462" lon="15.1296038"><ele>337.0</ele><time>2026-05-05T14:17:52.979Z</time></trkpt><trkpt lat="40.4465124" lon="15.1295144"><ele>337.0</ele><time>2026-05-05T14:17:53.978Z</time></trkpt><trkpt lat="40.4465614" lon="15.1294229"><ele>337.0</ele><time>2026-05-05T14:17:54.979Z</time></trkpt><trkpt lat="40.4466135" lon="15.1293315"><ele>337.0</ele><time>2026-05-05T14:17:55.978Z</time></trkpt><trkpt lat="40.4466655" lon="15.1292434"><ele>337.0</ele><time>2026-05-05T14:17:56.979Z</time></trkpt><trkpt lat="40.4467133" lon="15.1291565"><ele>337.0</ele><time>2026-05-05T14:17:57.979Z</time></trkpt><trkpt lat="40.4467553" lon="15.1290668"><ele>338.66666666666663</ele><time>2026-05-05T14:17:58.979Z</time></trkpt><trkpt lat="40.4467929" lon="15.1289718"><ele>340.3333333333333</ele><time>2026-05-05T14:17:59.978Z</time></trkpt><trkpt lat="40.4468302" lon="15.1288643"><ele>342.0</ele><time>2026-05-05T14:18:00.978Z</time></trkpt><trkpt lat="40.446867" lon="15.128758"><ele>343.6666666666667</ele><time>2026-05-05T14:18:01.979Z</time></trkpt><trkpt lat="40.4469014" lon="15.1286493"><ele>345.33333333333337</ele><time>2026-05-05T14:18:02.979Z</time></trkpt><trkpt lat="40.4469375" lon="15.1285402"><ele>347.0</ele><time>2026-05-05T14:18:03.978Z</time></trkpt><trkpt lat="40.446978" lon="15.1284339"><ele>347.0</ele><time>2026-05-05T14:18:04.979Z</time></trkpt><trkpt lat="40.4470195" lon="15.1283282"><ele>347.0</ele><time>2026-05-05T14:18:05.979Z</time></trkpt><trkpt lat="40.4470595" lon="15.1282179"><ele>347.0</ele><time>2026-05-05T14:18:06.978Z</time></trkpt><trkpt lat="40.4470999" lon="15.1281048"><ele>347.0</ele><time>2026-05-05T14:18:07.978Z</time></trkpt><trkpt lat="40.4471388" lon="15.127989"><ele>347.0</ele><time>2026-05-05T14:18:08.979Z</time></trkpt><trkpt lat="40.4471747" lon="15.1278739"><ele>340.33333333333337</ele><time>2026-05-05T14:18:09.978Z</time></trkpt><trkpt lat="40.4472016" lon="15.1277625"><ele>333.6666666666667</ele><time>2026-05-05T14:18:10.979Z</time></trkpt><trkpt lat="40.4472264" lon="15.1276567"><ele>327.0</ele><time>2026-05-05T14:18:11.979Z</time></trkpt><trkpt lat="40.4472726" lon="15.1275967"><ele>320.3333333333333</ele><time>2026-05-05T14:18:12.978Z</time></trkpt><trkpt lat="40.4473619" lon="15.1276541"><ele>313.66666666666663</ele><time>2026-05-05T14:18:14.978Z</time></trkpt><trkpt lat="40.4473828" lon="15.1277474"><ele>307.0</ele><time>2026-05-05T14:18:15.978Z</time></trkpt><trkpt lat="40.4474054" lon="15.1278679"><ele>307.0</ele><time>2026-05-05T14:18:16.979Z</time></trkpt><trkpt lat="40.4474365" lon="15.1280069"><ele>307.0</ele><time>2026-05-05T14:18:17.979Z</time></trkpt><trkpt lat="40.4474668" lon="15.1281532"><ele>307.0</ele><time>2026-05-05T14:18:18.979Z</time></trkpt><trkpt lat="40.4474893" lon="15.1283043"><ele>307.0</ele><time>2026-05-05T14:18:19.978Z</time></trkpt><trkpt lat="40.4475074" lon="15.1284601"><ele>306.5</ele><time>2026-05-05T14:18:20.979Z</time></trkpt><trkpt lat="40.4475202" lon="15.1286195"><ele>306.0</ele><time>2026-05-05T14:18:21.978Z</time></trkpt><trkpt lat="40.4475327" lon="15.1287824"><ele>305.5</ele><time>2026-05-05T14:18:22.979Z</time></trkpt><trkpt lat="40.4475432" lon="15.1289441"><ele>305.0</ele><time>2026-05-05T14:18:23.979Z</time></trkpt><trkpt lat="40.4475455" lon="15.1291056"><ele>304.0</ele><time>2026-05-05T14:18:24.978Z</time></trkpt><trkpt lat="40.447535" lon="15.1292649"><ele>303.0</ele><time>2026-05-05T14:18:25.979Z</time></trkpt><trkpt lat="40.4475132" lon="15.1294183"><ele>302.0</ele><time>2026-05-05T14:18:26.979Z</time></trkpt><trkpt lat="40.4474872" lon="15.1295692"><ele>301.0</ele><time>2026-05-05T14:18:27.979Z</time></trkpt><trkpt lat="40.4474596" lon="15.1297209"><ele>301.0</ele><time>2026-05-05T14:18:28.979Z</time></trkpt><trkpt lat="40.4474292" lon="15.1298727"><ele>301.0</ele><time>2026-05-05T14:18:29.979Z</time></trkpt><trkpt lat="40.4474017" lon="15.1300237"><ele>301.0</ele><time>2026-05-05T14:18:30.978Z</time></trkpt><trkpt lat="40.4473786" lon="15.13017"><ele>301.0</ele><time>2026-05-05T14:18:31.979Z</time></trkpt><trkpt lat="40.4473551" lon="15.1303139"><ele>298.8333333333333</ele><time>2026-05-05T14:18:32.979Z</time></trkpt><trkpt lat="40.4473277" lon="15.1304525"><ele>296.66666666666663</ele><time>2026-05-05T14:18:33.979Z</time></trkpt><trkpt lat="40.447292" lon="15.1305777"><ele>294.5</ele><time>2026-05-05T14:18:34.978Z</time></trkpt><trkpt lat="40.4472514" lon="15.1306759"><ele>292.3333333333333</ele><time>2026-05-05T14:18:35.979Z</time></trkpt><trkpt lat="40.4472414" lon="15.1307603"><ele>290.1666666666667</ele><time>2026-05-05T14:18:36.978Z</time></trkpt><trkpt lat="40.4473159" lon="15.1308192"><ele>288.0</ele><time>2026-05-05T14:18:38.979Z</time></trkpt><trkpt lat="40.44741" lon="15.130681"><ele>288.0</ele><time>2026-05-05T14:18:40.979Z</time></trkpt><trkpt lat="40.4474648" lon="15.1305792"><ele>288.0</ele><time>2026-05-05T14:18:41.978Z</time></trkpt><trkpt lat="40.4475273" lon="15.1304688"><ele>288.0</ele><time>2026-05-05T14:18:42.978Z</time></trkpt><trkpt lat="40.4475928" lon="15.1303619"><ele>288.0</ele><time>2026-05-05T14:18:43.978Z</time></trkpt><trkpt lat="40.4476514" lon="15.1302526"><ele>288.0</ele><time>2026-05-05T14:18:44.979Z</time></trkpt><trkpt lat="40.4476982" lon="15.1301395"><ele>288.0</ele><time>2026-05-05T14:18:45.979Z</time></trkpt><trkpt lat="40.447733" lon="15.1300442"><ele>288.0</ele><time>2026-05-05T14:18:46.979Z</time></trkpt><trkpt lat="40.4477586" lon="15.1299601"><ele>288.0</ele><time>2026-05-05T14:18:47.979Z</time></trkpt><trkpt lat="40.4478168" lon="15.1298564"><ele>288.0</ele><time>2026-05-05T14:18:49.979Z</time></trkpt><trkpt lat="40.4478407" lon="15.1300072"><ele>288.0</ele><time>2026-05-05T14:19:40.979Z</time></trkpt><trkpt lat="40.4478308" lon="15.1300931"><ele>288.0</ele><time>2026-05-05T14:19:41.979Z</time></trkpt><trkpt lat="40.4478022" lon="15.1302862"><ele>288.0</ele><time>2026-05-05T14:19:43.979Z</time></trkpt><trkpt lat="40.4477939" lon="15.1303946"><ele>288.0</ele><time>2026-05-05T14:19:44.978Z</time></trkpt><trkpt lat="40.4477866" lon="15.130509"><ele>288.0</ele><time>2026-05-05T14:19:45.979Z</time></trkpt><trkpt lat="40.4477728" lon="15.1306272"><ele>288.0</ele><time>2026-05-05T14:19:46.978Z</time></trkpt><trkpt lat="40.4477532" lon="15.1307482"><ele>288.0</ele><time>2026-05-05T14:19:47.979Z</time></trkpt><trkpt lat="40.4477326" lon="15.1308729"><ele>285.0</ele><time>2026-05-05T14:19:48.979Z</time></trkpt><trkpt lat="40.4477115" lon="15.1310027"><ele>282.0</ele><time>2026-05-05T14:19:49.978Z</time></trkpt><trkpt lat="40.4476884" lon="15.1311354"><ele>279.0</ele><time>2026-05-05T14:19:50.979Z</time></trkpt><trkpt lat="40.447666" lon="15.1312705"><ele>276.0</ele><time>2026-05-05T14:19:51.978Z</time></trkpt><trkpt lat="40.4476441" lon="15.1314043"><ele>273.0</ele><time>2026-05-05T14:19:52.979Z</time></trkpt><trkpt lat="40.4476201" lon="15.1315344"><ele>269.8</ele><time>2026-05-05T14:19:53.977Z</time></trkpt><trkpt lat="40.4475989" lon="15.1316635"><ele>266.6</ele><time>2026-05-05T14:19:54.978Z</time></trkpt><trkpt lat="40.4475818" lon="15.1317896"><ele>263.4</ele><time>2026-05-05T14:19:55.979Z</time></trkpt><trkpt lat="40.4475556" lon="15.1319053"><ele>260.2</ele><time>2026-05-05T14:19:56.977Z</time></trkpt><trkpt lat="40.4475305" lon="15.1320004"><ele>257.0</ele><time>2026-05-05T14:19:57.978Z</time></trkpt><trkpt lat="40.44756" lon="15.1321332"><ele>257.0</ele><time>2026-05-05T14:19:59.979Z</time></trkpt><trkpt lat="40.4476665" lon="15.1321035"><ele>257.0</ele><time>2026-05-05T14:20:01.978Z</time></trkpt><trkpt lat="40.4477307" lon="15.1320339"><ele>257.0</ele><time>2026-05-05T14:20:02.977Z</time></trkpt><trkpt lat="40.4478004" lon="15.131948"><ele>257.0</ele><time>2026-05-05T14:20:03.978Z</time></trkpt><trkpt lat="40.4478809" lon="15.131846"><ele>257.0</ele><time>2026-05-05T14:20:04.979Z</time></trkpt><trkpt lat="40.4479604" lon="15.1317268"><ele>252.25</ele><time>2026-05-05T14:20:05.979Z</time></trkpt><trkpt lat="40.448032" lon="15.1316044"><ele>247.5</ele><time>2026-05-05T14:20:06.978Z</time></trkpt><trkpt lat="40.4481012" lon="15.1314813"><ele>242.75</ele><time>2026-05-05T14:20:07.978Z</time></trkpt><trkpt lat="40.4481691" lon="15.1313592"><ele>238.0</ele><time>2026-05-05T14:20:08.979Z</time></trkpt><trkpt lat="40.4482394" lon="15.131239"><ele>238.0</ele><time>2026-05-05T14:20:09.979Z</time></trkpt><trkpt lat="40.4483097" lon="15.1311189"><ele>238.0</ele><time>2026-05-05T14:20:10.978Z</time></trkpt><trkpt lat="40.4483803" lon="15.1309984"><ele>238.0</ele><time>2026-05-05T14:20:11.979Z</time></trkpt><trkpt lat="40.4484497" lon="15.1308819"><ele>238.0</ele><time>2026-05-05T14:20:12.978Z</time></trkpt><trkpt lat="40.4485183" lon="15.1307674"><ele>239.8</ele><time>2026-05-05T14:20:13.979Z</time></trkpt><trkpt lat="40.4485876" lon="15.130654"><ele>241.60000000000002</ele><time>2026-05-05T14:20:14.978Z</time></trkpt><trkpt lat="40.4486626" lon="15.1305491"><ele>243.39999999999998</ele><time>2026-05-05T14:20:15.979Z</time></trkpt><trkpt lat="40.4487364" lon="15.1304453"><ele>245.2</ele><time>2026-05-05T14:20:16.978Z</time></trkpt><trkpt lat="40.448803" lon="15.1303289"><ele>247.0</ele><time>2026-05-05T14:20:17.979Z</time></trkpt><trkpt lat="40.4488504" lon="15.1301935"><ele>239.6</ele><time>2026-05-05T14:20:18.979Z</time></trkpt><trkpt lat="40.4488852" lon="15.1300488"><ele>232.2</ele><time>2026-05-05T14:20:19.978Z</time></trkpt><trkpt lat="40.4489177" lon="15.1299038"><ele>224.8</ele><time>2026-05-05T14:20:20.979Z</time></trkpt><trkpt lat="40.4489518" lon="15.1297642"><ele>217.4</ele><time>2026-05-05T14:20:21.979Z</time></trkpt><trkpt lat="40.4489815" lon="15.1296344"><ele>210.0</ele><time>2026-05-05T14:20:22.979Z</time></trkpt><trkpt lat="40.4490042" lon="15.1295161"><ele>210.0</ele><time>2026-05-05T14:20:23.979Z</time></trkpt><trkpt lat="40.4490292" lon="15.1294203"><ele>210.0</ele><time>2026-05-05T14:20:24.979Z</time></trkpt><trkpt lat="40.4490866" lon="15.1293172"><ele>210.0</ele><time>2026-05-05T14:20:26.978Z</time></trkpt><trkpt lat="40.4491285" lon="15.1292352"><ele>210.0</ele><time>2026-05-05T14:21:00.978Z</time></trkpt><trkpt lat="40.4491445" lon="15.1290882"><ele>210.0</ele><time>2026-05-05T14:21:02.979Z</time></trkpt><trkpt lat="40.4491605" lon="15.1290055"><ele>210.0</ele><time>2026-05-05T14:21:03.979Z</time></trkpt><trkpt lat="40.4491865" lon="15.1289205"><ele>211.33333333333334</ele><time>2026-05-05T14:21:04.979Z</time></trkpt><trkpt lat="40.4492142" lon="15.1288261"><ele>212.66666666666669</ele><time>2026-05-05T14:21:05.978Z</time></trkpt><trkpt lat="40.4492426" lon="15.1287295"><ele>214.0</ele><time>2026-05-05T14:21:06.979Z</time></trkpt><trkpt lat="40.4492757" lon="15.1286317"><ele>215.33333333333334</ele><time>2026-05-05T14:21:07.979Z</time></trkpt><trkpt lat="40.4493047" lon="15.1285336"><ele>216.66666666666669</ele><time>2026-05-05T14:21:08.979Z</time></trkpt><trkpt lat="40.4493303" lon="15.1284342"><ele>218.0</ele><time>2026-05-05T14:21:09.979Z</time></trkpt><trkpt lat="40.4493575" lon="15.128337"><ele>218.0</ele><time>2026-05-05T14:21:10.979Z</time></trkpt><trkpt lat="40.4493826" lon="15.1282403"><ele>218.0</ele><time>2026-05-05T14:21:11.978Z</time></trkpt><trkpt lat="40.4494057" lon="15.1281395"><ele>218.0</ele><time>2026-05-05T14:21:12.978Z</time></trkpt><trkpt lat="40.4494264" lon="15.1280366"><ele>218.0</ele><time>2026-05-05T14:21:13.977Z</time></trkpt><trkpt lat="40.4494472" lon="15.1279429"><ele>218.0</ele><time>2026-05-05T14:21:14.978Z</time></trkpt><trkpt lat="40.4494675" lon="15.1278559"><ele>218.0</ele><time>2026-05-05T14:21:15.979Z</time></trkpt><trkpt lat="40.449483" lon="15.1277734"><ele>218.0</ele><time>2026-05-05T14:21:16.978Z</time></trkpt><trkpt lat="40.4494977" lon="15.1276893"><ele>218.50000000000003</ele><time>2026-05-05T14:21:17.979Z</time></trkpt><trkpt lat="40.4495266" lon="15.1275244"><ele>219.0</ele><time>2026-05-05T14:21:19.978Z</time></trkpt><trkpt lat="40.4495444" lon="15.1274281"><ele>219.5</ele><time>2026-05-05T14:21:20.979Z</time></trkpt><trkpt lat="40.4495514" lon="15.1273259"><ele>220.0</ele><time>2026-05-05T14:21:21.978Z</time></trkpt><trkpt lat="40.4495461" lon="15.1272243"><ele>220.50000000000003</ele><time>2026-05-05T14:21:22.978Z</time></trkpt><trkpt lat="40.4495565" lon="15.1271307"><ele>221.0</ele><time>2026-05-05T14:21:23.979Z</time></trkpt><trkpt lat="40.449566" lon="15.1270433"><ele>221.0</ele><time>2026-05-05T14:21:24.978Z</time></trkpt><trkpt lat="40.4495532" lon="15.1269029"><ele>221.00000000000003</ele><time>2026-05-05T14:21:26.977Z</time></trkpt><trkpt lat="40.4495524" lon="15.1268187"><ele>221.00000000000003</ele><time>2026-05-05T14:22:02.979Z</time></trkpt><trkpt lat="40.4495588" lon="15.1269485"><ele>221.0</ele><time>2026-05-05T14:22:14.979Z</time></trkpt><trkpt lat="40.4495768" lon="15.127055"><ele>221.0</ele><time>2026-05-05T14:22:16.979Z</time></trkpt><trkpt lat="40.4495627" lon="15.1272208"><ele>221.00000000000003</ele><time>2026-05-05T14:22:18.978Z</time></trkpt><trkpt lat="40.4495653" lon="15.1273081"><ele>221.0</ele><time>2026-05-05T14:22:19.979Z</time></trkpt><trkpt lat="40.4495563" lon="15.1274042"><ele>221.0</ele><time>2026-05-05T14:22:20.979Z</time></trkpt><trkpt lat="40.4495425" lon="15.1274976"><ele>221.0</ele><time>2026-05-05T14:22:21.979Z</time></trkpt><trkpt lat="40.4495285" lon="15.1275796"><ele>221.00000000000003</ele><time>2026-05-05T14:22:22.979Z</time></trkpt><trkpt lat="40.4494994" lon="15.1277445"><ele>221.0</ele><time>2026-05-05T14:22:24.979Z</time></trkpt><trkpt lat="40.4494813" lon="15.1278388"><ele>221.42857142857144</ele><time>2026-05-05T14:22:25.979Z</time></trkpt><trkpt lat="40.4494646" lon="15.1279393"><ele>221.85714285714286</ele><time>2026-05-05T14:22:26.978Z</time></trkpt><trkpt lat="40.4494423" lon="15.1280444"><ele>222.28571428571428</ele><time>2026-05-05T14:22:27.978Z</time></trkpt><trkpt lat="40.4494186" lon="15.1281399"><ele>222.71428571428572</ele><time>2026-05-05T14:22:28.979Z</time></trkpt><trkpt lat="40.4493954" lon="15.1282263"><ele>223.14285714285714</ele><time>2026-05-05T14:22:29.979Z</time></trkpt><trkpt lat="40.449375" lon="15.1283061"><ele>223.57142857142858</ele><time>2026-05-05T14:22:30.979Z</time></trkpt><trkpt lat="40.4493546" lon="15.1283868"><ele>224.0</ele><time>2026-05-05T14:22:31.979Z</time></trkpt><trkpt lat="40.4493323" lon="15.1284677"><ele>223.00000000000003</ele><time>2026-05-05T14:22:32.977Z</time></trkpt><trkpt lat="40.4493068" lon="15.1285482"><ele>222.0</ele><time>2026-05-05T14:22:33.979Z</time></trkpt><trkpt lat="40.4492864" lon="15.1286276"><ele>221.0</ele><time>2026-05-05T14:22:34.978Z</time></trkpt><trkpt lat="40.449246" lon="15.1287852"><ele>220.0</ele><time>2026-05-05T14:22:36.978Z</time></trkpt><trkpt lat="40.4492207" lon="15.1288671"><ele>219.00000000000003</ele><time>2026-05-05T14:22:37.979Z</time></trkpt><trkpt lat="40.4491936" lon="15.1289503"><ele>218.0</ele><time>2026-05-05T14:22:38.978Z</time></trkpt><trkpt lat="40.4491671" lon="15.1290384"><ele>216.66666666666669</ele><time>2026-05-05T14:22:39.979Z</time></trkpt><trkpt lat="40.4491471" lon="15.12913"><ele>215.33333333333334</ele><time>2026-05-05T14:22:40.979Z</time></trkpt><trkpt lat="40.4491337" lon="15.1292247"><ele>214.0</ele><time>2026-05-05T14:22:41.979Z</time></trkpt><trkpt lat="40.4491313" lon="15.1293213"><ele>212.66666666666669</ele><time>2026-05-05T14:22:42.979Z</time></trkpt><trkpt lat="40.4491354" lon="15.1294257"><ele>211.33333333333334</ele><time>2026-05-05T14:22:43.978Z</time></trkpt><trkpt lat="40.449137" lon="15.1295289"><ele>210.0</ele><time>2026-05-05T14:22:44.978Z</time></trkpt><trkpt lat="40.4491465" lon="15.1296319"><ele>210.0</ele><time>2026-05-05T14:22:45.978Z</time></trkpt><trkpt lat="40.4491702" lon="15.1297328"><ele>210.0</ele><time>2026-05-05T14:22:46.978Z</time></trkpt><trkpt lat="40.4492094" lon="15.1298291"><ele>210.0</ele><time>2026-05-05T14:22:47.978Z</time></trkpt><trkpt lat="40.4492642" lon="15.1299192"><ele>210.0</ele><time>2026-05-05T14:22:48.978Z</time></trkpt><trkpt lat="40.4493303" lon="15.1300023"><ele>210.0</ele><time>2026-05-05T14:22:49.979Z</time></trkpt><trkpt lat="40.4493996" lon="15.1300787"><ele>210.0</ele><time>2026-05-05T14:22:50.978Z</time></trkpt><trkpt lat="40.4494718" lon="15.1301426"><ele>209.5</ele><time>2026-05-05T14:22:51.979Z</time></trkpt><trkpt lat="40.4495347" lon="15.1302217"><ele>209.0</ele><time>2026-05-05T14:22:52.978Z</time></trkpt><trkpt lat="40.4495769" lon="15.1303237"><ele>208.5</ele><time>2026-05-05T14:22:53.978Z</time></trkpt><trkpt lat="40.4496042" lon="15.1304387"><ele>208.0</ele><time>2026-05-05T14:22:54.979Z</time></trkpt><trkpt lat="40.4496236" lon="15.1305557"><ele>207.5</ele><time>2026-05-05T14:22:55.979Z</time></trkpt><trkpt lat="40.4496412" lon="15.1306713"><ele>207.0</ele><time>2026-05-05T14:22:56.978Z</time></trkpt><trkpt lat="40.4496619" lon="15.1307759"><ele>202.2</ele><time>2026-05-05T14:22:57.979Z</time></trkpt><trkpt lat="40.4496931" lon="15.1308575"><ele>197.39999999999998</ele><time>2026-05-05T14:22:58.977Z</time></trkpt><trkpt lat="40.4497753" lon="15.1309163"><ele>192.60000000000002</ele><time>2026-05-05T14:23:00.977Z</time></trkpt><trkpt lat="40.4498431" lon="15.1308715"><ele>187.8</ele><time>2026-05-05T14:23:02.979Z</time></trkpt><trkpt lat="40.449905" lon="15.1307053"><ele>183.0</ele><time>2026-05-05T14:23:04.979Z</time></trkpt><trkpt lat="40.4499451" lon="15.1305989"><ele>183.0</ele><time>2026-05-05T14:23:05.979Z</time></trkpt><trkpt lat="40.4499915" lon="15.1305025"><ele>183.0</ele><time>2026-05-05T14:23:06.978Z</time></trkpt><trkpt lat="40.450036" lon="15.1304072"><ele>183.0</ele><time>2026-05-05T14:23:07.979Z</time></trkpt><trkpt lat="40.4500683" lon="15.1303012"><ele>183.0</ele><time>2026-05-05T14:23:08.978Z</time></trkpt><trkpt lat="40.4500871" lon="15.1301734"><ele>183.0</ele><time>2026-05-05T14:23:09.979Z</time></trkpt><trkpt lat="40.4500843" lon="15.1300306"><ele>181.75</ele><time>2026-05-05T14:23:10.979Z</time></trkpt><trkpt lat="40.4500721" lon="15.1298822"><ele>180.5</ele><time>2026-05-05T14:23:11.979Z</time></trkpt><trkpt lat="40.4500639" lon="15.1297294"><ele>179.25</ele><time>2026-05-05T14:23:12.979Z</time></trkpt><trkpt lat="40.4500614" lon="15.1295755"><ele>178.0</ele><time>2026-05-05T14:23:13.977Z</time></trkpt><trkpt lat="40.4500787" lon="15.1294203"><ele>178.0</ele><time>2026-05-05T14:23:14.978Z</time></trkpt><trkpt lat="40.45011" lon="15.1292735"><ele>178.0</ele><time>2026-05-05T14:23:15.979Z</time></trkpt><trkpt lat="40.4501532" lon="15.129133"><ele>178.0</ele><time>2026-05-05T14:23:16.978Z</time></trkpt><trkpt lat="40.4502061" lon="15.1290016"><ele>178.0</ele><time>2026-05-05T14:23:17.979Z</time></trkpt><trkpt lat="40.4502613" lon="15.1288731"><ele>178.4</ele><time>2026-05-05T14:23:18.978Z</time></trkpt><trkpt lat="40.4503077" lon="15.1287452"><ele>178.8</ele><time>2026-05-05T14:23:19.979Z</time></trkpt><trkpt lat="40.450349" lon="15.1286103"><ele>179.2</ele><time>2026-05-05T14:23:20.978Z</time></trkpt><trkpt lat="40.4503846" lon="15.1284758"><ele>179.6</ele><time>2026-05-05T14:23:21.978Z</time></trkpt><trkpt lat="40.4504091" lon="15.1283357"><ele>180.0</ele><time>2026-05-05T14:23:22.978Z</time></trkpt><trkpt lat="40.4504284" lon="15.1281994"><ele>181.2</ele><time>2026-05-05T14:23:23.979Z</time></trkpt><trkpt lat="40.4504456" lon="15.128063"><ele>182.4</ele><time>2026-05-05T14:23:24.979Z</time></trkpt><trkpt lat="40.4504618" lon="15.127938"><ele>183.60000000000002</ele><time>2026-05-05T14:23:25.978Z</time></trkpt><trkpt lat="40.450471" lon="15.1278113"><ele>184.8</ele><time>2026-05-05T14:23:26.979Z</time></trkpt><trkpt lat="40.450483" lon="15.1276848"><ele>186.0</ele><time>2026-05-05T14:23:27.978Z</time></trkpt><trkpt lat="40.4504952" lon="15.1275571"><ele>180.8</ele><time>2026-05-05T14:23:28.979Z</time></trkpt><trkpt lat="40.4505069" lon="15.1274291"><ele>175.60000000000002</ele><time>2026-05-05T14:23:29.979Z</time></trkpt><trkpt lat="40.4505207" lon="15.1273003"><ele>170.4</ele><time>2026-05-05T14:23:30.978Z</time></trkpt><trkpt lat="40.4505326" lon="15.1271704"><ele>165.2</ele><time>2026-05-05T14:23:31.979Z</time></trkpt><trkpt lat="40.4505459" lon="15.127038"><ele>160.0</ele><time>2026-05-05T14:23:32.978Z</time></trkpt><trkpt lat="40.4505625" lon="15.1269088"><ele>159.0</ele><time>2026-05-05T14:23:33.979Z</time></trkpt><trkpt lat="40.4505747" lon="15.1267802"><ele>158.0</ele><time>2026-05-05T14:23:34.978Z</time></trkpt><trkpt lat="40.4505795" lon="15.1266466"><ele>157.0</ele><time>2026-05-05T14:23:35.977Z</time></trkpt><trkpt lat="40.450576" lon="15.1265129"><ele>156.0</ele><time>2026-05-05T14:23:36.979Z</time></trkpt><trkpt lat="40.4505656" lon="15.1263809"><ele>155.0</ele><time>2026-05-05T14:23:37.979Z</time></trkpt><trkpt lat="40.4505696" lon="15.1262497"><ele>155.0</ele><time>2026-05-05T14:23:38.978Z</time></trkpt><trkpt lat="40.4505918" lon="15.1261234"><ele>155.0</ele><time>2026-05-05T14:23:39.979Z</time></trkpt><trkpt lat="40.4506244" lon="15.1259963"><ele>155.0</ele><time>2026-05-05T14:23:40.977Z</time></trkpt><trkpt lat="40.4506731" lon="15.1258786"><ele>155.0</ele><time>2026-05-05T14:23:41.978Z</time></trkpt><trkpt lat="40.4507312" lon="15.1257668"><ele>155.0</ele><time>2026-05-05T14:23:42.978Z</time></trkpt><trkpt lat="40.4507881" lon="15.1256477"><ele>156.4</ele><time>2026-05-05T14:23:43.979Z</time></trkpt><trkpt lat="40.450844" lon="15.1255266"><ele>157.8</ele><time>2026-05-05T14:23:44.979Z</time></trkpt><trkpt lat="40.4508966" lon="15.1254049"><ele>159.2</ele><time>2026-05-05T14:23:45.979Z</time></trkpt><trkpt lat="40.4509484" lon="15.1252812"><ele>160.6</ele><time>2026-05-05T14:23:46.979Z</time></trkpt><trkpt lat="40.4509955" lon="15.1251555"><ele>162.0</ele><time>2026-05-05T14:23:47.979Z</time></trkpt><trkpt lat="40.4510398" lon="15.1250402"><ele>162.0</ele><time>2026-05-05T14:23:48.979Z</time></trkpt><trkpt lat="40.4510821" lon="15.1249288"><ele>162.0</ele><time>2026-05-05T14:23:49.979Z</time></trkpt><trkpt lat="40.4511171" lon="15.1248088"><ele>162.0</ele><time>2026-05-05T14:23:50.978Z</time></trkpt><trkpt lat="40.4511482" lon="15.1246877"><ele>162.0</ele><time>2026-05-05T14:23:51.979Z</time></trkpt><trkpt lat="40.4511797" lon="15.1245717"><ele>162.0</ele><time>2026-05-05T14:23:52.979Z</time></trkpt><trkpt lat="40.4512087" lon="15.1244603"><ele>163.16666666666666</ele><time>2026-05-05T14:23:53.979Z</time></trkpt><trkpt lat="40.4512344" lon="15.1243461"><ele>164.33333333333334</ele><time>2026-05-05T14:23:54.979Z</time></trkpt><trkpt lat="40.451256" lon="15.1242275"><ele>165.5</ele><time>2026-05-05T14:23:55.979Z</time></trkpt><trkpt lat="40.4512775" lon="15.1241106"><ele>166.66666666666669</ele><time>2026-05-05T14:23:56.978Z</time></trkpt><trkpt lat="40.451296" lon="15.1239982"><ele>167.83333333333334</ele><time>2026-05-05T14:23:57.979Z</time></trkpt><trkpt lat="40.4513097" lon="15.1238872"><ele>169.0</ele><time>2026-05-05T14:23:58.978Z</time></trkpt><trkpt lat="40.4513159" lon="15.1237773"><ele>165.16666666666669</ele><time>2026-05-05T14:23:59.979Z</time></trkpt><trkpt lat="40.4513185" lon="15.1236673"><ele>161.33333333333334</ele><time>2026-05-05T14:24:00.979Z</time></trkpt><trkpt lat="40.451317" lon="15.1235588"><ele>157.5</ele><time>2026-05-05T14:24:01.978Z</time></trkpt><trkpt lat="40.4513165" lon="15.1234574"><ele>153.66666666666666</ele><time>2026-05-05T14:24:02.978Z</time></trkpt><trkpt lat="40.4513196" lon="15.1233541"><ele>149.83333333333331</ele><time>2026-05-05T14:24:03.979Z</time></trkpt><trkpt lat="40.4513208" lon="15.123246"><ele>146.0</ele><time>2026-05-05T14:24:04.978Z</time></trkpt><trkpt lat="40.4513212" lon="15.1231321"><ele>145.0</ele><time>2026-05-05T14:24:05.978Z</time></trkpt><trkpt lat="40.4513094" lon="15.1230168"><ele>144.0</ele><time>2026-05-05T14:24:06.978Z</time></trkpt><trkpt lat="40.4512882" lon="15.1228861"><ele>143.0</ele><time>2026-05-05T14:24:07.979Z</time></trkpt><trkpt lat="40.4512715" lon="15.1227358"><ele>142.0</ele><time>2026-05-05T14:24:08.978Z</time></trkpt><trkpt lat="40.4512665" lon="15.1225694"><ele>141.0</ele><time>2026-05-05T14:24:09.979Z</time></trkpt><trkpt lat="40.4512623" lon="15.1224161"><ele>141.8</ele><time>2026-05-05T14:24:10.978Z</time></trkpt><trkpt lat="40.4512585" lon="15.1222712"><ele>142.6</ele><time>2026-05-05T14:24:11.979Z</time></trkpt><trkpt lat="40.451258" lon="15.1221372"><ele>143.4</ele><time>2026-05-05T14:24:12.979Z</time></trkpt><trkpt lat="40.4512817" lon="15.1220311"><ele>144.2</ele><time>2026-05-05T14:24:13.978Z</time></trkpt><trkpt lat="40.451306" lon="15.121932"><ele>145.0</ele><time>2026-05-05T14:24:14.978Z</time></trkpt><trkpt lat="40.4513286" lon="15.1218225"><ele>145.0</ele><time>2026-05-05T14:24:15.979Z</time></trkpt><trkpt lat="40.4513987" lon="15.1218009"><ele>145.0</ele><time>2026-05-05T14:24:16.979Z</time></trkpt><trkpt lat="40.4514886" lon="15.1216932"><ele>145.0</ele><time>2026-05-05T14:24:18.979Z</time></trkpt><trkpt lat="40.4515762" lon="15.1215783"><ele>145.0</ele><time>2026-05-05T14:24:20.978Z</time></trkpt><trkpt lat="40.4516252" lon="15.1215244"><ele>145.0</ele><time>2026-05-05T14:24:21.979Z</time></trkpt><trkpt lat="40.4516763" lon="15.1214727"><ele>145.0</ele><time>2026-05-05T14:24:22.979Z</time></trkpt><trkpt lat="40.4517677" lon="15.1213558"><ele>144.8</ele><time>2026-05-05T14:24:24.978Z</time></trkpt><trkpt lat="40.4518128" lon="15.1212761"><ele>144.6</ele><time>2026-05-05T14:24:25.978Z</time></trkpt><trkpt lat="40.4518554" lon="15.1211731"><ele>144.4</ele><time>2026-05-05T14:24:26.978Z</time></trkpt><trkpt lat="40.4518896" lon="15.1210387"><ele>144.2</ele><time>2026-05-05T14:24:27.979Z</time></trkpt><trkpt lat="40.4519253" lon="15.1208848"><ele>144.0</ele><time>2026-05-05T14:24:28.978Z</time></trkpt><trkpt lat="40.4519542" lon="15.12074"><ele>143.6</ele><time>2026-05-05T14:24:29.979Z</time></trkpt><trkpt lat="40.4519825" lon="15.1205933"><ele>143.2</ele><time>2026-05-05T14:24:30.979Z</time></trkpt><trkpt lat="40.4520074" lon="15.1204577"><ele>142.79999999999998</ele><time>2026-05-05T14:24:31.979Z</time></trkpt><trkpt lat="40.4520174" lon="15.1203275"><ele>142.4</ele><time>2026-05-05T14:24:32.979Z</time></trkpt><trkpt lat="40.4520027" lon="15.120203"><ele>142.0</ele><time>2026-05-05T14:24:33.979Z</time></trkpt><trkpt lat="40.4520055" lon="15.1200883"><ele>142.0</ele><time>2026-05-05T14:24:34.979Z</time></trkpt><trkpt lat="40.4520213" lon="15.1199723"><ele>142.0</ele><time>2026-05-05T14:24:35.978Z</time></trkpt><trkpt lat="40.4520523" lon="15.1198534"><ele>142.0</ele><time>2026-05-05T14:24:36.979Z</time></trkpt><trkpt lat="40.4520824" lon="15.1197344"><ele>142.0</ele><time>2026-05-05T14:24:37.979Z</time></trkpt><trkpt lat="40.452109" lon="15.1196145"><ele>142.0</ele><time>2026-05-05T14:24:38.979Z</time></trkpt><trkpt lat="40.4521315" lon="15.1194947"><ele>137.4</ele><time>2026-05-05T14:24:39.979Z</time></trkpt><trkpt lat="40.4521372" lon="15.1193702"><ele>132.79999999999998</ele><time>2026-05-05T14:24:40.979Z</time></trkpt><trkpt lat="40.4521482" lon="15.1192477"><ele>128.2</ele><time>2026-05-05T14:24:41.979Z</time></trkpt><trkpt lat="40.4521556" lon="15.1191192"><ele>123.6</ele><time>2026-05-05T14:24:42.978Z</time></trkpt><trkpt lat="40.4521531" lon="15.1189815"><ele>119.0</ele><time>2026-05-05T14:24:43.979Z</time></trkpt><trkpt lat="40.4521488" lon="15.1188343"><ele>118.6</ele><time>2026-05-05T14:24:44.979Z</time></trkpt><trkpt lat="40.4521496" lon="15.1187037"><ele>118.2</ele><time>2026-05-05T14:24:45.978Z</time></trkpt><trkpt lat="40.4521585" lon="15.1185743"><ele>117.79999999999998</ele><time>2026-05-05T14:24:46.979Z</time></trkpt><trkpt lat="40.4521673" lon="15.1184502"><ele>117.39999999999999</ele><time>2026-05-05T14:24:47.979Z</time></trkpt><trkpt lat="40.4521785" lon="15.1183209"><ele>117.0</ele><time>2026-05-05T14:24:48.978Z</time></trkpt><trkpt lat="40.452193" lon="15.1181809"><ele>118.19999999999999</ele><time>2026-05-05T14:24:49.979Z</time></trkpt><trkpt lat="40.4522075" lon="15.1180424"><ele>119.39999999999999</ele><time>2026-05-05T14:24:50.979Z</time></trkpt><trkpt lat="40.4522211" lon="15.1179075"><ele>120.60000000000001</ele><time>2026-05-05T14:24:51.979Z</time></trkpt><trkpt lat="40.4522345" lon="15.1177713"><ele>121.80000000000001</ele><time>2026-05-05T14:24:52.978Z</time></trkpt><trkpt lat="40.4522405" lon="15.1176628"><ele>123.0</ele><time>2026-05-05T14:24:53.978Z</time></trkpt><trkpt lat="40.452285" lon="15.117522"><ele>123.0</ele><time>2026-05-05T14:24:55.978Z</time></trkpt><trkpt lat="40.4523924" lon="15.117465"><ele>123.00000000000001</ele><time>2026-05-05T14:24:57.979Z</time></trkpt><trkpt lat="40.452457" lon="15.1174447"><ele>123.00000000000001</ele><time>2026-05-05T14:24:58.979Z</time></trkpt><trkpt lat="40.4525607" lon="15.1174255"><ele>123.0</ele><time>2026-05-05T14:25:00.979Z</time></trkpt><trkpt lat="40.4524964" lon="15.1174536"><ele>123.0</ele><time>2026-05-05T14:25:07.979Z</time></trkpt><trkpt lat="40.4523917" lon="15.1174851"><ele>123.0</ele><time>2026-05-05T14:25:09.979Z</time></trkpt><trkpt lat="40.4523181" lon="15.1174755"><ele>123.0</ele><time>2026-05-05T14:25:11.979Z</time></trkpt><trkpt lat="40.4523047" lon="15.1173612"><ele>123.0</ele><time>2026-05-05T14:25:13.977Z</time></trkpt><trkpt lat="40.4523222" lon="15.1171964"><ele>123.0</ele><time>2026-05-05T14:25:15.979Z</time></trkpt><trkpt lat="40.4523263" lon="15.1170952"><ele>123.0</ele><time>2026-05-05T14:25:16.979Z</time></trkpt><trkpt lat="40.4523386" lon="15.116996"><ele>123.0</ele><time>2026-05-05T14:25:17.979Z</time></trkpt><trkpt lat="40.4523447" lon="15.1168901"><ele>123.33333333333333</ele><time>2026-05-05T14:25:18.979Z</time></trkpt><trkpt lat="40.4523611" lon="15.1168007"><ele>123.66666666666666</ele><time>2026-05-05T14:25:19.979Z</time></trkpt><trkpt lat="40.4523475" lon="15.1167011"><ele>124.0</ele><time>2026-05-05T14:25:20.979Z</time></trkpt><trkpt lat="40.452354" lon="15.1166032"><ele>124.33333333333333</ele><time>2026-05-05T14:25:21.979Z</time></trkpt><trkpt lat="40.4523674" lon="15.1165042"><ele>124.66666666666666</ele><time>2026-05-05T14:25:22.978Z</time></trkpt><trkpt lat="40.4523825" lon="15.1163936"><ele>125.0</ele><time>2026-05-05T14:25:23.979Z</time></trkpt><trkpt lat="40.4523885" lon="15.116286"><ele>125.16666666666666</ele><time>2026-05-05T14:25:24.978Z</time></trkpt><trkpt lat="40.452393" lon="15.1161813"><ele>125.33333333333333</ele><time>2026-05-05T14:25:25.979Z</time></trkpt><trkpt lat="40.452409" lon="15.1160725"><ele>125.5</ele><time>2026-05-05T14:25:26.978Z</time></trkpt><trkpt lat="40.4524256" lon="15.11596"><ele>125.66666666666666</ele><time>2026-05-05T14:25:27.978Z</time></trkpt><trkpt lat="40.452446" lon="15.115849"><ele>125.83333333333333</ele><time>2026-05-05T14:25:28.978Z</time></trkpt><trkpt lat="40.4524688" lon="15.1157342"><ele>126.0</ele><time>2026-05-05T14:25:29.978Z</time></trkpt><trkpt lat="40.4524905" lon="15.115637"><ele>126.33333333333333</ele><time>2026-05-05T14:25:30.979Z</time></trkpt><trkpt lat="40.4524991" lon="15.1155378"><ele>126.66666666666666</ele><time>2026-05-05T14:25:31.979Z</time></trkpt><trkpt lat="40.4525264" lon="15.1154479"><ele>127.0</ele><time>2026-05-05T14:25:32.978Z</time></trkpt><trkpt lat="40.4525549" lon="15.1153508"><ele>127.33333333333333</ele><time>2026-05-05T14:25:33.979Z</time></trkpt><trkpt lat="40.4525848" lon="15.1152513"><ele>127.66666666666666</ele><time>2026-05-05T14:25:34.979Z</time></trkpt><trkpt lat="40.4526114" lon="15.1151495"><ele>128.0</ele><time>2026-05-05T14:25:35.979Z</time></trkpt><trkpt lat="40.4526353" lon="15.115041"><ele>127.99999999999999</ele><time>2026-05-05T14:25:36.979Z</time></trkpt><trkpt lat="40.4526527" lon="15.1149483"><ele>128.0</ele><time>2026-05-05T14:25:37.978Z</time></trkpt><trkpt lat="40.4526755" lon="15.114845"><ele>128.0</ele><time>2026-05-05T14:25:38.979Z</time></trkpt><trkpt lat="40.4527061" lon="15.1147546"><ele>128.0</ele><time>2026-05-05T14:25:39.978Z</time></trkpt><trkpt lat="40.4527352" lon="15.1146549"><ele>127.99999999999999</ele><time>2026-05-05T14:25:40.977Z</time></trkpt><trkpt lat="40.4527742" lon="15.1145625"><ele>128.0</ele><time>2026-05-05T14:25:41.978Z</time></trkpt><trkpt lat="40.4528023" lon="15.1144742"><ele>127.57142857142857</ele><time>2026-05-05T14:25:42.979Z</time></trkpt><trkpt lat="40.4528252" lon="15.1143809"><ele>127.14285714285714</ele><time>2026-05-05T14:25:43.978Z</time></trkpt><trkpt lat="40.4528515" lon="15.1142865"><ele>126.71428571428571</ele><time>2026-05-05T14:25:44.978Z</time></trkpt><trkpt lat="40.4528791" lon="15.1141931"><ele>126.28571428571428</ele><time>2026-05-05T14:25:45.978Z</time></trkpt><trkpt lat="40.4529165" lon="15.1141161"><ele>125.85714285714286</ele><time>2026-05-05T14:25:46.979Z</time></trkpt><trkpt lat="40.4529643" lon="15.1140461"><ele>125.42857142857142</ele><time>2026-05-05T14:25:47.979Z</time></trkpt><trkpt lat="40.4530103" lon="15.1139629"><ele>125.0</ele><time>2026-05-05T14:25:48.979Z</time></trkpt><trkpt lat="40.4530565" lon="15.1138786"><ele>125.0</ele><time>2026-05-05T14:25:49.979Z</time></trkpt><trkpt lat="40.4530798" lon="15.1137398"><ele>125.0</ele><time>2026-05-05T14:25:50.979Z</time></trkpt><trkpt lat="40.4530945" lon="15.1136282"><ele>125.0</ele><time>2026-05-05T14:25:51.978Z</time></trkpt><trkpt lat="40.453111" lon="15.1134901"><ele>125.0</ele><time>2026-05-05T14:25:52.979Z</time></trkpt><trkpt lat="40.453127" lon="15.1133692"><ele>125.0</ele><time>2026-05-05T14:25:53.978Z</time></trkpt><trkpt lat="40.4531384" lon="15.1132378"><ele>126.2</ele><time>2026-05-05T14:25:54.977Z</time></trkpt><trkpt lat="40.4531577" lon="15.1131181"><ele>127.4</ele><time>2026-05-05T14:25:55.979Z</time></trkpt><trkpt lat="40.4531756" lon="15.1129972"><ele>128.6</ele><time>2026-05-05T14:25:56.978Z</time></trkpt><trkpt lat="40.4531999" lon="15.1128724"><ele>129.8</ele><time>2026-05-05T14:25:57.978Z</time></trkpt><trkpt lat="40.4532194" lon="15.1127564"><ele>131.0</ele><time>2026-05-05T14:25:58.979Z</time></trkpt><trkpt lat="40.4532472" lon="15.1126383"><ele>131.0</ele><time>2026-05-05T14:25:59.979Z</time></trkpt><trkpt lat="40.4532677" lon="15.1125309"><ele>131.0</ele><time>2026-05-05T14:26:00.978Z</time></trkpt><trkpt lat="40.4532987" lon="15.1123995"><ele>131.0</ele><time>2026-05-05T14:26:01.979Z</time></trkpt><trkpt lat="40.4533309" lon="15.1122894"><ele>131.0</ele><time>2026-05-05T14:26:02.978Z</time></trkpt><trkpt lat="40.4533633" lon="15.1121837"><ele>131.0</ele><time>2026-05-05T14:26:03.978Z</time></trkpt><trkpt lat="40.4533882" lon="15.1120843"><ele>131.0</ele><time>2026-05-05T14:26:04.978Z</time></trkpt><trkpt lat="40.453397" lon="15.1119818"><ele>129.83333333333331</ele><time>2026-05-05T14:26:05.979Z</time></trkpt><trkpt lat="40.4533785" lon="15.1118849"><ele>128.66666666666666</ele><time>2026-05-05T14:26:06.979Z</time></trkpt><trkpt lat="40.453336" lon="15.1117971"><ele>127.5</ele><time>2026-05-05T14:26:07.979Z</time></trkpt><trkpt lat="40.4532733" lon="15.1117226"><ele>126.33333333333334</ele><time>2026-05-05T14:26:08.979Z</time></trkpt><trkpt lat="40.4531972" lon="15.1116602"><ele>125.16666666666667</ele><time>2026-05-05T14:26:09.979Z</time></trkpt><trkpt lat="40.4531285" lon="15.1115884"><ele>124.0</ele><time>2026-05-05T14:26:10.977Z</time></trkpt><trkpt lat="40.4530816" lon="15.1114919"><ele>125.6</ele><time>2026-05-05T14:26:11.979Z</time></trkpt><trkpt lat="40.4530513" lon="15.1113814"><ele>127.2</ele><time>2026-05-05T14:26:12.979Z</time></trkpt><trkpt lat="40.4530339" lon="15.1112674"><ele>128.79999999999998</ele><time>2026-05-05T14:26:13.979Z</time></trkpt><trkpt lat="40.453009" lon="15.1111497"><ele>130.4</ele><time>2026-05-05T14:26:14.978Z</time></trkpt><trkpt lat="40.4529812" lon="15.1110358"><ele>132.0</ele><time>2026-05-05T14:26:15.979Z</time></trkpt><trkpt lat="40.4529555" lon="15.1109251"><ele>132.0</ele><time>2026-05-05T14:26:16.978Z</time></trkpt><trkpt lat="40.4529421" lon="15.1108216"><ele>132.0</ele><time>2026-05-05T14:26:17.978Z</time></trkpt><trkpt lat="40.4529502" lon="15.1107259"><ele>132.0</ele><time>2026-05-05T14:26:18.978Z</time></trkpt><trkpt lat="40.4530356" lon="15.1106276"><ele>132.0</ele><time>2026-05-05T14:26:20.979Z</time></trkpt><trkpt lat="40.4531147" lon="15.1104895"><ele>132.0</ele><time>2026-05-05T14:26:22.979Z</time></trkpt><trkpt lat="40.4531386" lon="15.1103925"><ele>128.2</ele><time>2026-05-05T14:26:23.979Z</time></trkpt><trkpt lat="40.453158" lon="15.1102823"><ele>124.39999999999999</ele><time>2026-05-05T14:26:24.978Z</time></trkpt><trkpt lat="40.4531687" lon="15.1101497"><ele>120.60000000000001</ele><time>2026-05-05T14:26:25.978Z</time></trkpt><trkpt lat="40.4531717" lon="15.1099965"><ele>116.80000000000001</ele><time>2026-05-05T14:26:26.979Z</time></trkpt><trkpt lat="40.4531804" lon="15.1098496"><ele>113.0</ele><time>2026-05-05T14:26:27.977Z</time></trkpt><trkpt lat="40.4531912" lon="15.109705"><ele>113.0</ele><time>2026-05-05T14:26:28.979Z</time></trkpt><trkpt lat="40.4532088" lon="15.1095653"><ele>113.00000000000001</ele><time>2026-05-05T14:26:29.977Z</time></trkpt><trkpt lat="40.4532235" lon="15.1094309"><ele>113.00000000000001</ele><time>2026-05-05T14:26:30.979Z</time></trkpt><trkpt lat="40.4532273" lon="15.1092918"><ele>113.0</ele><time>2026-05-05T14:26:31.979Z</time></trkpt><trkpt lat="40.4532157" lon="15.109141"><ele>113.0</ele><time>2026-05-05T14:26:32.979Z</time></trkpt><trkpt lat="40.4531931" lon="15.1089787"><ele>116.0</ele><time>2026-05-05T14:26:33.977Z</time></trkpt><trkpt lat="40.453166" lon="15.1088206"><ele>119.0</ele><time>2026-05-05T14:26:34.979Z</time></trkpt><trkpt lat="40.453129" lon="15.1086652"><ele>122.0</ele><time>2026-05-05T14:26:35.978Z</time></trkpt><trkpt lat="40.4530798" lon="15.1085164"><ele>125.0</ele><time>2026-05-05T14:26:36.978Z</time></trkpt><trkpt lat="40.4530225" lon="15.108374"><ele>129.0</ele><time>2026-05-05T14:26:37.979Z</time></trkpt><trkpt lat="40.4529647" lon="15.1082367"><ele>133.0</ele><time>2026-05-05T14:26:38.978Z</time></trkpt><trkpt lat="40.4529126" lon="15.1081046"><ele>137.0</ele><time>2026-05-05T14:26:39.979Z</time></trkpt><trkpt lat="40.4528767" lon="15.1079655"><ele>141.0</ele><time>2026-05-05T14:26:40.978Z</time></trkpt><trkpt lat="40.4528408" lon="15.1078236"><ele>142.0</ele><time>2026-05-05T14:26:41.979Z</time></trkpt><trkpt lat="40.4528015" lon="15.107677"><ele>143.0</ele><time>2026-05-05T14:26:42.979Z</time></trkpt><trkpt lat="40.4527606" lon="15.10753"><ele>144.0</ele><time>2026-05-05T14:26:43.978Z</time></trkpt><trkpt lat="40.4527162" lon="15.1073801"><ele>145.0</ele><time>2026-05-05T14:26:44.978Z</time></trkpt><trkpt lat="40.4526728" lon="15.1072291"><ele>146.0</ele><time>2026-05-05T14:26:45.979Z</time></trkpt><trkpt lat="40.4526444" lon="15.1070932"><ele>147.0</ele><time>2026-05-05T14:26:46.979Z</time></trkpt><trkpt lat="40.4526154" lon="15.1069617"><ele>148.0</ele><time>2026-05-05T14:26:47.979Z</time></trkpt><trkpt lat="40.4525858" lon="15.1068247"><ele>149.0</ele><time>2026-05-05T14:26:48.979Z</time></trkpt><trkpt lat="40.4525466" lon="15.1066808"><ele>150.0</ele><time>2026-05-05T14:26:49.978Z</time></trkpt><trkpt lat="40.4525166" lon="15.1065418"><ele>152.0</ele><time>2026-05-05T14:26:50.979Z</time></trkpt><trkpt lat="40.4525059" lon="15.1064104"><ele>154.0</ele><time>2026-05-05T14:26:51.979Z</time></trkpt><trkpt lat="40.4525233" lon="15.1062904"><ele>156.0</ele><time>2026-05-05T14:26:52.979Z</time></trkpt><trkpt lat="40.4525663" lon="15.1061718"><ele>158.0</ele><time>2026-05-05T14:26:53.978Z</time></trkpt><trkpt lat="40.4526059" lon="15.1060435"><ele>160.0</ele><time>2026-05-05T14:26:54.979Z</time></trkpt><trkpt lat="40.4526477" lon="15.1058941"><ele>160.0</ele><time>2026-05-05T14:26:55.978Z</time></trkpt><trkpt lat="40.4526776" lon="15.1057513"><ele>160.0</ele><time>2026-05-05T14:26:56.979Z</time></trkpt><trkpt lat="40.4526994" lon="15.1055812"><ele>160.0</ele><time>2026-05-05T14:26:57.979Z</time></trkpt><trkpt lat="40.4527063" lon="15.1054287"><ele>160.0</ele><time>2026-05-05T14:26:58.979Z</time></trkpt><trkpt lat="40.4526981" lon="15.1052872"><ele>160.2</ele><time>2026-05-05T14:26:59.979Z</time></trkpt><trkpt lat="40.4526804" lon="15.1051384"><ele>160.4</ele><time>2026-05-05T14:27:00.979Z</time></trkpt><trkpt lat="40.4526675" lon="15.1049879"><ele>160.60000000000002</ele><time>2026-05-05T14:27:01.978Z</time></trkpt><trkpt lat="40.4526537" lon="15.1048353"><ele>160.8</ele><time>2026-05-05T14:27:02.979Z</time></trkpt><trkpt lat="40.4526415" lon="15.1047093"><ele>161.0</ele><time>2026-05-05T14:27:03.978Z</time></trkpt><trkpt lat="40.4526331" lon="15.1045882"><ele>159.5</ele><time>2026-05-05T14:27:04.978Z</time></trkpt><trkpt lat="40.4526663" lon="15.104501"><ele>158.0</ele><time>2026-05-05T14:27:06.978Z</time></trkpt><trkpt lat="40.4527269" lon="15.1045423"><ele>156.5</ele><time>2026-05-05T14:27:10.978Z</time></trkpt><trkpt lat="40.4528381" lon="15.104616"><ele>155.0</ele><time>2026-05-05T14:27:12.978Z</time></trkpt><trkpt lat="40.4529199" lon="15.1046544"><ele>153.5</ele><time>2026-05-05T14:27:13.978Z</time></trkpt><trkpt lat="40.4529974" lon="15.1046838"><ele>152.0</ele><time>2026-05-05T14:27:14.979Z</time></trkpt><trkpt lat="40.4530848" lon="15.1047174"><ele>149.2</ele><time>2026-05-05T14:27:15.979Z</time></trkpt><trkpt lat="40.4531754" lon="15.1047434"><ele>146.39999999999998</ele><time>2026-05-05T14:27:16.978Z</time></trkpt><trkpt lat="40.453269" lon="15.1047449"><ele>143.60000000000002</ele><time>2026-05-05T14:27:17.979Z</time></trkpt><trkpt lat="40.4533706" lon="15.1047381"><ele>140.8</ele><time>2026-05-05T14:27:18.979Z</time></trkpt><trkpt lat="40.4534718" lon="15.1047267"><ele>138.0</ele><time>2026-05-05T14:27:19.979Z</time></trkpt><trkpt lat="40.4535751" lon="15.1047179"><ele>138.0</ele><time>2026-05-05T14:27:20.978Z</time></trkpt><trkpt lat="40.453685" lon="15.1047067"><ele>138.0</ele><time>2026-05-05T14:27:21.979Z</time></trkpt><trkpt lat="40.453793" lon="15.1047044"><ele>138.0</ele><time>2026-05-05T14:27:22.977Z</time></trkpt><trkpt lat="40.4539003" lon="15.1047048"><ele>138.0</ele><time>2026-05-05T14:27:23.978Z</time></trkpt><trkpt lat="40.4539983" lon="15.1047046"><ele>138.0</ele><time>2026-05-05T14:27:24.978Z</time></trkpt><trkpt lat="40.4540828" lon="15.1047016"><ele>137.0</ele><time>2026-05-05T14:27:25.979Z</time></trkpt><trkpt lat="40.4541598" lon="15.104718"><ele>136.0</ele><time>2026-05-05T14:27:26.979Z</time></trkpt><trkpt lat="40.4542235" lon="15.1047615"><ele>135.0</ele><time>2026-05-05T14:27:27.978Z</time></trkpt><trkpt lat="40.454282" lon="15.1048353"><ele>134.0</ele><time>2026-05-05T14:27:28.979Z</time></trkpt><trkpt lat="40.4543512" lon="15.1049033"><ele>133.0</ele><time>2026-05-05T14:27:29.978Z</time></trkpt><trkpt lat="40.4544287" lon="15.1049443"><ele>132.0</ele><time>2026-05-05T14:27:30.978Z</time></trkpt><trkpt lat="40.4545119" lon="15.1049766"><ele>132.0</ele><time>2026-05-05T14:27:31.977Z</time></trkpt><trkpt lat="40.4546105" lon="15.1050175"><ele>132.0</ele><time>2026-05-05T14:27:32.979Z</time></trkpt><trkpt lat="40.4547047" lon="15.1050452"><ele>132.0</ele><time>2026-05-05T14:27:33.978Z</time></trkpt><trkpt lat="40.4547758" lon="15.1050554"><ele>132.0</ele><time>2026-05-05T14:27:34.979Z</time></trkpt><trkpt lat="40.4548384" lon="15.105082"><ele>132.0</ele><time>2026-05-05T14:27:35.979Z</time></trkpt><trkpt lat="40.4549068" lon="15.1051975"><ele>132.0</ele><time>2026-05-05T14:27:37.979Z</time></trkpt><trkpt lat="40.4549282" lon="15.1053006"><ele>129.4</ele><time>2026-05-05T14:27:38.977Z</time></trkpt><trkpt lat="40.4549659" lon="15.1054083"><ele>126.79999999999998</ele><time>2026-05-05T14:27:39.977Z</time></trkpt><trkpt lat="40.4550095" lon="15.1055207"><ele>124.2</ele><time>2026-05-05T14:27:40.979Z</time></trkpt><trkpt lat="40.4550518" lon="15.1056363"><ele>121.6</ele><time>2026-05-05T14:27:41.979Z</time></trkpt><trkpt lat="40.4551001" lon="15.1057432"><ele>119.0</ele><time>2026-05-05T14:27:42.978Z</time></trkpt><trkpt lat="40.4551537" lon="15.1058419"><ele>117.6</ele><time>2026-05-05T14:27:43.978Z</time></trkpt><trkpt lat="40.4552223" lon="15.1059238"><ele>116.2</ele><time>2026-05-05T14:27:44.978Z</time></trkpt><trkpt lat="40.4553021" lon="15.1059762"><ele>114.79999999999998</ele><time>2026-05-05T14:27:45.979Z</time></trkpt><trkpt lat="40.4553876" lon="15.1060228"><ele>113.39999999999999</ele><time>2026-05-05T14:27:46.979Z</time></trkpt><trkpt lat="40.4554642" lon="15.1060855"><ele>112.0</ele><time>2026-05-05T14:27:47.978Z</time></trkpt><trkpt lat="40.4555423" lon="15.1061671"><ele>109.6</ele><time>2026-05-05T14:27:48.978Z</time></trkpt><trkpt lat="40.455619" lon="15.1062632"><ele>107.19999999999999</ele><time>2026-05-05T14:27:49.979Z</time></trkpt><trkpt lat="40.4556993" lon="15.106362"><ele>104.8</ele><time>2026-05-05T14:27:50.978Z</time></trkpt><trkpt lat="40.4557813" lon="15.1064665"><ele>102.4</ele><time>2026-05-05T14:27:51.979Z</time></trkpt><trkpt lat="40.455864" lon="15.1065739"><ele>100.0</ele><time>2026-05-05T14:27:52.979Z</time></trkpt><trkpt lat="40.4559453" lon="15.1066754"><ele>99.0</ele><time>2026-05-05T14:27:53.979Z</time></trkpt><trkpt lat="40.4560255" lon="15.106779"><ele>98.0</ele><time>2026-05-05T14:27:54.979Z</time></trkpt><trkpt lat="40.4561019" lon="15.1068843"><ele>97.0</ele><time>2026-05-05T14:27:55.978Z</time></trkpt><trkpt lat="40.4561784" lon="15.1069805"><ele>96.0</ele><time>2026-05-05T14:27:56.978Z</time></trkpt><trkpt lat="40.4562671" lon="15.107064"><ele>95.0</ele><time>2026-05-05T14:27:57.978Z</time></trkpt><trkpt lat="40.4563614" lon="15.1071398"><ele>89.8</ele><time>2026-05-05T14:27:58.978Z</time></trkpt><trkpt lat="40.4564603" lon="15.107216"><ele>84.6</ele><time>2026-05-05T14:27:59.979Z</time></trkpt><trkpt lat="40.4565512" lon="15.1072869"><ele>79.4</ele><time>2026-05-05T14:28:00.977Z</time></trkpt><trkpt lat="40.4566384" lon="15.1073623"><ele>74.2</ele><time>2026-05-05T14:28:01.978Z</time></trkpt><trkpt lat="40.4567257" lon="15.1074308"><ele>69.0</ele><time>2026-05-05T14:28:02.978Z</time></trkpt><trkpt lat="40.4568046" lon="15.1074951"><ele>69.0</ele><time>2026-05-05T14:28:03.979Z</time></trkpt><trkpt lat="40.4568724" lon="15.1075489"><ele>69.0</ele><time>2026-05-05T14:28:04.977Z</time></trkpt><trkpt lat="40.4569305" lon="15.1075903"><ele>69.0</ele><time>2026-05-05T14:28:05.978Z</time></trkpt><trkpt lat="40.4569971" lon="15.1076222"><ele>69.0</ele><time>2026-05-05T14:28:07.978Z</time></trkpt><trkpt lat="40.4570756" lon="15.1075324"><ele>69.0</ele><time>2026-05-05T14:28:54.978Z</time></trkpt><trkpt lat="40.4570854" lon="15.1074364"><ele>69.0</ele><time>2026-05-05T14:28:55.978Z</time></trkpt><trkpt lat="40.4570975" lon="15.1073295"><ele>68.75</ele><time>2026-05-05T14:28:56.979Z</time></trkpt><trkpt lat="40.4571125" lon="15.1072"><ele>68.5</ele><time>2026-05-05T14:28:57.979Z</time></trkpt><trkpt lat="40.4571302" lon="15.1070596"><ele>68.25</ele><time>2026-05-05T14:28:58.978Z</time></trkpt><trkpt lat="40.4571496" lon="15.1069051"><ele>68.0</ele><time>2026-05-05T14:28:59.978Z</time></trkpt><trkpt lat="40.4571709" lon="15.1067381"><ele>66.5</ele><time>2026-05-05T14:29:00.979Z</time></trkpt><trkpt lat="40.4571969" lon="15.1065642"><ele>65.0</ele><time>2026-05-05T14:29:01.977Z</time></trkpt><trkpt lat="40.4572302" lon="15.1063823"><ele>63.5</ele><time>2026-05-05T14:29:02.979Z</time></trkpt><trkpt lat="40.4572693" lon="15.1061957"><ele>62.0</ele><time>2026-05-05T14:29:03.978Z</time></trkpt><trkpt lat="40.4573132" lon="15.106007"><ele>62.0</ele><time>2026-05-05T14:29:04.977Z</time></trkpt><trkpt lat="40.4573617" lon="15.1058145"><ele>62.0</ele><time>2026-05-05T14:29:05.979Z</time></trkpt><trkpt lat="40.4574166" lon="15.1056199"><ele>62.0</ele><time>2026-05-05T14:29:06.979Z</time></trkpt><trkpt lat="40.4574695" lon="15.1054245"><ele>63.333333333333336</ele><time>2026-05-05T14:29:07.979Z</time></trkpt><trkpt lat="40.457519" lon="15.1052319"><ele>64.66666666666667</ele><time>2026-05-05T14:29:08.978Z</time></trkpt><trkpt lat="40.4575652" lon="15.1050446"><ele>66.0</ele><time>2026-05-05T14:29:09.978Z</time></trkpt><trkpt lat="40.4576107" lon="15.1048595"><ele>66.75</ele><time>2026-05-05T14:29:10.978Z</time></trkpt><trkpt lat="40.4576514" lon="15.1046743"><ele>67.5</ele><time>2026-05-05T14:29:11.979Z</time></trkpt><trkpt lat="40.4576891" lon="15.1044858"><ele>68.25</ele><time>2026-05-05T14:29:12.978Z</time></trkpt><trkpt lat="40.4577254" lon="15.1042941"><ele>69.0</ele><time>2026-05-05T14:29:13.979Z</time></trkpt><trkpt lat="40.4577624" lon="15.1041018"><ele>68.75</ele><time>2026-05-05T14:29:14.979Z</time></trkpt><trkpt lat="40.4578004" lon="15.1039187"><ele>68.5</ele><time>2026-05-05T14:29:15.978Z</time></trkpt><trkpt lat="40.4578396" lon="15.1037423"><ele>68.25</ele><time>2026-05-05T14:29:16.979Z</time></trkpt><trkpt lat="40.4578766" lon="15.1035702"><ele>68.0</ele><time>2026-05-05T14:29:17.979Z</time></trkpt><trkpt lat="40.4579166" lon="15.1034045"><ele>66.75</ele><time>2026-05-05T14:29:18.977Z</time></trkpt><trkpt lat="40.4579608" lon="15.1032471"><ele>65.5</ele><time>2026-05-05T14:29:19.978Z</time></trkpt><trkpt lat="40.4580076" lon="15.1031005"><ele>64.25</ele><time>2026-05-05T14:29:20.979Z</time></trkpt><trkpt lat="40.4580548" lon="15.1029664"><ele>63.0</ele><time>2026-05-05T14:29:21.979Z</time></trkpt><trkpt lat="40.4580983" lon="15.1028438"><ele>63.0</ele><time>2026-05-05T14:29:22.978Z</time></trkpt><trkpt lat="40.4581392" lon="15.1027307"><ele>63.0</ele><time>2026-05-05T14:29:23.978Z</time></trkpt><trkpt lat="40.4581646" lon="15.1026203"><ele>63.0</ele><time>2026-05-05T14:29:24.979Z</time></trkpt><trkpt lat="40.458162" lon="15.1024963"><ele>63.0</ele><time>2026-05-05T14:29:25.978Z</time></trkpt><trkpt lat="40.4581474" lon="15.1023775"><ele>63.0</ele><time>2026-05-05T14:29:26.979Z</time></trkpt><trkpt lat="40.4581349" lon="15.1022529"><ele>63.599999999999994</ele><time>2026-05-05T14:29:27.979Z</time></trkpt><trkpt lat="40.4581232" lon="15.1021262"><ele>64.19999999999999</ele><time>2026-05-05T14:29:28.979Z</time></trkpt><trkpt lat="40.4581111" lon="15.1020025"><ele>64.8</ele><time>2026-05-05T14:29:29.979Z</time></trkpt><trkpt lat="40.4580884" lon="15.1018837"><ele>65.39999999999999</ele><time>2026-05-05T14:29:30.979Z</time></trkpt><trkpt lat="40.4580481" lon="15.1017733"><ele>66.0</ele><time>2026-05-05T14:29:31.979Z</time></trkpt><trkpt lat="40.45799" lon="15.1016782"><ele>67.66666666666667</ele><time>2026-05-05T14:29:32.978Z</time></trkpt><trkpt lat="40.4579323" lon="15.1015877"><ele>69.33333333333333</ele><time>2026-05-05T14:29:33.978Z</time></trkpt><trkpt lat="40.4578773" lon="15.1014986"><ele>71.0</ele><time>2026-05-05T14:29:34.977Z</time></trkpt><trkpt lat="40.4578219" lon="15.1014139"><ele>72.66666666666666</ele><time>2026-05-05T14:29:35.978Z</time></trkpt><trkpt lat="40.457766" lon="15.1013413"><ele>74.33333333333333</ele><time>2026-05-05T14:29:36.979Z</time></trkpt><trkpt lat="40.4577106" lon="15.1012812"><ele>76.0</ele><time>2026-05-05T14:29:37.978Z</time></trkpt><trkpt lat="40.4576551" lon="15.1012283"><ele>76.42857142857143</ele><time>2026-05-05T14:29:38.978Z</time></trkpt><trkpt lat="40.4575981" lon="15.1011814"><ele>76.85714285714286</ele><time>2026-05-05T14:29:39.978Z</time></trkpt><trkpt lat="40.4575408" lon="15.1011372"><ele>77.28571428571429</ele><time>2026-05-05T14:29:40.978Z</time></trkpt><trkpt lat="40.4574827" lon="15.1010931"><ele>77.71428571428572</ele><time>2026-05-05T14:29:41.977Z</time></trkpt><trkpt lat="40.4574268" lon="15.1010424"><ele>78.14285714285714</ele><time>2026-05-05T14:29:42.979Z</time></trkpt><trkpt lat="40.4573734" lon="15.1009897"><ele>78.57142857142858</ele><time>2026-05-05T14:29:43.979Z</time></trkpt><trkpt lat="40.4572886" lon="15.1008994"><ele>79.0</ele><time>2026-05-05T14:29:45.979Z</time></trkpt><trkpt lat="40.4572273" lon="15.1008386"><ele>79.0</ele><time>2026-05-05T14:29:47.978Z</time></trkpt><trkpt lat="40.4571578" lon="15.1008078"><ele>79.0</ele><time>2026-05-05T14:30:10.979Z</time></trkpt><trkpt lat="40.457092" lon="15.1007771"><ele>79.0</ele><time>2026-05-05T14:30:12.978Z</time></trkpt><trkpt lat="40.4570032" lon="15.1008051"><ele>79.0</ele><time>2026-05-05T14:30:14.979Z</time></trkpt><trkpt lat="40.4568778" lon="15.1008601"><ele>79.0</ele><time>2026-05-05T14:30:16.978Z</time></trkpt><trkpt lat="40.4567941" lon="15.1008636"><ele>80.2</ele><time>2026-05-05T14:30:17.978Z</time></trkpt><trkpt lat="40.4567018" lon="15.1008604"><ele>81.4</ele><time>2026-05-05T14:30:18.979Z</time></trkpt><trkpt lat="40.4565991" lon="15.1008634"><ele>82.6</ele><time>2026-05-05T14:30:19.979Z</time></trkpt><trkpt lat="40.4564891" lon="15.10088"><ele>83.8</ele><time>2026-05-05T14:30:20.978Z</time></trkpt><trkpt lat="40.4563724" lon="15.1008934"><ele>85.0</ele><time>2026-05-05T14:30:21.978Z</time></trkpt><trkpt lat="40.4562515" lon="15.1009071"><ele>87.25</ele><time>2026-05-05T14:30:22.977Z</time></trkpt><trkpt lat="40.4561272" lon="15.1009324"><ele>89.5</ele><time>2026-05-05T14:30:23.977Z</time></trkpt><trkpt lat="40.4559998" lon="15.1009637"><ele>91.75</ele><time>2026-05-05T14:30:24.979Z</time></trkpt><trkpt lat="40.4558758" lon="15.1010006"><ele>94.0</ele><time>2026-05-05T14:30:25.979Z</time></trkpt><trkpt lat="40.4557526" lon="15.1010384"><ele>94.0</ele><time>2026-05-05T14:30:26.979Z</time></trkpt><trkpt lat="40.4556299" lon="15.1010758"><ele>94.0</ele><time>2026-05-05T14:30:27.979Z</time></trkpt><trkpt lat="40.4555101" lon="15.1011163"><ele>94.0</ele><time>2026-05-05T14:30:28.979Z</time></trkpt><trkpt lat="40.4553925" lon="15.1011562"><ele>94.0</ele><time>2026-05-05T14:30:29.978Z</time></trkpt><trkpt lat="40.4552769" lon="15.1011951"><ele>96.75</ele><time>2026-05-05T14:30:30.978Z</time></trkpt><trkpt lat="40.4551626" lon="15.1012247"><ele>99.5</ele><time>2026-05-05T14:30:31.979Z</time></trkpt><trkpt lat="40.4550498" lon="15.1012375"><ele>102.25</ele><time>2026-05-05T14:30:32.978Z</time></trkpt><trkpt lat="40.4549356" lon="15.1012344"><ele>105.0</ele><time>2026-05-05T14:30:33.978Z</time></trkpt><trkpt lat="40.4548174" lon="15.1012167"><ele>105.0</ele><time>2026-05-05T14:30:34.979Z</time></trkpt><trkpt lat="40.4547007" lon="15.1011858"><ele>105.0</ele><time>2026-05-05T14:30:35.979Z</time></trkpt><trkpt lat="40.4545849" lon="15.1011474"><ele>105.0</ele><time>2026-05-05T14:30:36.977Z</time></trkpt><trkpt lat="40.4544782" lon="15.1010938"><ele>105.0</ele><time>2026-05-05T14:30:37.979Z</time></trkpt><trkpt lat="40.4543867" lon="15.1010157"><ele>107.2</ele><time>2026-05-05T14:30:38.978Z</time></trkpt><trkpt lat="40.4543163" lon="15.1009097"><ele>109.4</ele><time>2026-05-05T14:30:39.979Z</time></trkpt><trkpt lat="40.4542514" lon="15.1007943"><ele>111.6</ele><time>2026-05-05T14:30:40.977Z</time></trkpt><trkpt lat="40.4541821" lon="15.100681"><ele>113.8</ele><time>2026-05-05T14:30:41.979Z</time></trkpt><trkpt lat="40.4541138" lon="15.1005667"><ele>116.0</ele><time>2026-05-05T14:30:42.979Z</time></trkpt><trkpt lat="40.4540516" lon="15.1004526"><ele>116.66666666666666</ele><time>2026-05-05T14:30:43.979Z</time></trkpt><trkpt lat="40.4539972" lon="15.100349"><ele>117.33333333333333</ele><time>2026-05-05T14:30:44.979Z</time></trkpt><trkpt lat="40.4539573" lon="15.1002569"><ele>118.0</ele><time>2026-05-05T14:30:45.979Z</time></trkpt><trkpt lat="40.4539197" lon="15.1001818"><ele>118.66666666666666</ele><time>2026-05-05T14:30:46.979Z</time></trkpt><trkpt lat="40.4538696" lon="15.100128"><ele>119.33333333333333</ele><time>2026-05-05T14:30:47.979Z</time></trkpt><trkpt lat="40.4538032" lon="15.1000779"><ele>120.0</ele><time>2026-05-05T14:30:48.979Z</time></trkpt><trkpt lat="40.4537204" lon="15.1000299"><ele>122.5</ele><time>2026-05-05T14:30:49.978Z</time></trkpt><trkpt lat="40.4536246" lon="15.0999775"><ele>125.0</ele><time>2026-05-05T14:30:50.978Z</time></trkpt><trkpt lat="40.4535158" lon="15.0999182"><ele>127.5</ele><time>2026-05-05T14:30:51.978Z</time></trkpt><trkpt lat="40.4533832" lon="15.0998618"><ele>130.0</ele><time>2026-05-05T14:30:52.979Z</time></trkpt><trkpt lat="40.4532373" lon="15.099814"><ele>131.0</ele><time>2026-05-05T14:30:53.978Z</time></trkpt><trkpt lat="40.453102" lon="15.0997672"><ele>132.0</ele><time>2026-05-05T14:30:54.979Z</time></trkpt><trkpt lat="40.4529961" lon="15.0997128"><ele>133.0</ele><time>2026-05-05T14:30:55.979Z</time></trkpt><trkpt lat="40.4529066" lon="15.0996868"><ele>134.0</ele><time>2026-05-05T14:30:56.978Z</time></trkpt><trkpt lat="40.4528328" lon="15.0996794"><ele>135.0</ele><time>2026-05-05T14:30:57.978Z</time></trkpt><trkpt lat="40.4527322" lon="15.0997199"><ele>136.8</ele><time>2026-05-05T14:30:59.978Z</time></trkpt><trkpt lat="40.4526134" lon="15.0997869"><ele>138.6</ele><time>2026-05-05T14:31:01.978Z</time></trkpt><trkpt lat="40.4525376" lon="15.099835"><ele>140.4</ele><time>2026-05-05T14:31:02.978Z</time></trkpt><trkpt lat="40.4524615" lon="15.0998927"><ele>142.2</ele><time>2026-05-05T14:31:03.979Z</time></trkpt><trkpt lat="40.4523958" lon="15.0999675"><ele>144.0</ele><time>2026-05-05T14:31:04.979Z</time></trkpt><trkpt lat="40.4523489" lon="15.1000535"><ele>144.0</ele><time>2026-05-05T14:31:05.978Z</time></trkpt><trkpt lat="40.4523224" lon="15.100162"><ele>144.0</ele><time>2026-05-05T14:31:06.978Z</time></trkpt><trkpt lat="40.4523057" lon="15.1002904"><ele>144.0</ele><time>2026-05-05T14:31:07.978Z</time></trkpt><trkpt lat="40.4522933" lon="15.1004201"><ele>144.0</ele><time>2026-05-05T14:31:08.978Z</time></trkpt><trkpt lat="40.4522939" lon="15.1005324"><ele>144.0</ele><time>2026-05-05T14:31:09.979Z</time></trkpt><trkpt lat="40.4523039" lon="15.1006463"><ele>144.0</ele><time>2026-05-05T14:31:10.979Z</time></trkpt><trkpt lat="40.4523419" lon="15.1007704"><ele>144.0</ele><time>2026-05-05T14:31:11.979Z</time></trkpt><trkpt lat="40.4523644" lon="15.100888"><ele>144.0</ele><time>2026-05-05T14:31:12.979Z</time></trkpt><trkpt lat="40.4523813" lon="15.1009976"><ele>144.0</ele><time>2026-05-05T14:31:13.979Z</time></trkpt><trkpt lat="40.4523909" lon="15.1011006"><ele>144.0</ele><time>2026-05-05T14:31:14.979Z</time></trkpt><trkpt lat="40.4523766" lon="15.1012055"><ele>144.0</ele><time>2026-05-05T14:31:15.978Z</time></trkpt><trkpt lat="40.4523544" lon="15.1013205"><ele>144.0</ele><time>2026-05-05T14:31:16.979Z</time></trkpt><trkpt lat="40.4523148" lon="15.1014391"><ele>144.0</ele><time>2026-05-05T14:31:17.978Z</time></trkpt><trkpt lat="40.4522611" lon="15.1015736"><ele>144.0</ele><time>2026-05-05T14:31:18.979Z</time></trkpt><trkpt lat="40.4521981" lon="15.1017117"><ele>144.0</ele><time>2026-05-05T14:31:19.977Z</time></trkpt><trkpt lat="40.4521139" lon="15.1018392"><ele>147.2</ele><time>2026-05-05T14:31:20.978Z</time></trkpt><trkpt lat="40.4520509" lon="15.1019389"><ele>150.4</ele><time>2026-05-05T14:31:21.979Z</time></trkpt><trkpt lat="40.452016" lon="15.1020353"><ele>153.6</ele><time>2026-05-05T14:31:22.979Z</time></trkpt><trkpt lat="40.4520003" lon="15.1021317"><ele>156.8</ele><time>2026-05-05T14:31:23.979Z</time></trkpt><trkpt lat="40.4520033" lon="15.102257"><ele>160.0</ele><time>2026-05-05T14:31:24.978Z</time></trkpt><trkpt lat="40.4520072" lon="15.1023918"><ele>159.6</ele><time>2026-05-05T14:31:25.979Z</time></trkpt><trkpt lat="40.4520137" lon="15.1025196"><ele>159.2</ele><time>2026-05-05T14:31:26.978Z</time></trkpt><trkpt lat="40.4520199" lon="15.1026474"><ele>158.8</ele><time>2026-05-05T14:31:27.978Z</time></trkpt><trkpt lat="40.4520423" lon="15.1027967"><ele>158.4</ele><time>2026-05-05T14:31:28.979Z</time></trkpt><trkpt lat="40.4520644" lon="15.1029604"><ele>158.0</ele><time>2026-05-05T14:31:29.979Z</time></trkpt><trkpt lat="40.4520881" lon="15.1031126"><ele>158.60000000000002</ele><time>2026-05-05T14:31:30.978Z</time></trkpt><trkpt lat="40.4521021" lon="15.1032559"><ele>159.20000000000002</ele><time>2026-05-05T14:31:31.977Z</time></trkpt><trkpt lat="40.4521102" lon="15.1033874"><ele>159.8</ele><time>2026-05-05T14:31:32.979Z</time></trkpt><trkpt lat="40.4521173" lon="15.1034982"><ele>160.4</ele><time>2026-05-05T14:31:33.979Z</time></trkpt><trkpt lat="40.4521251" lon="15.1035901"><ele>161.0</ele><time>2026-05-05T14:31:34.979Z</time></trkpt><trkpt lat="40.452199" lon="15.1037094"><ele>159.5</ele><time>2026-05-05T14:31:36.977Z</time></trkpt><trkpt lat="40.4522821" lon="15.1037596"><ele>158.0</ele><time>2026-05-05T14:31:37.978Z</time></trkpt><trkpt lat="40.452346" lon="15.1038149"><ele>156.5</ele><time>2026-05-05T14:31:38.979Z</time></trkpt><trkpt lat="40.452402" lon="15.1038828"><ele>155.0</ele><time>2026-05-05T14:31:39.978Z</time></trkpt><trkpt lat="40.4524635" lon="15.103954"><ele>153.5</ele><time>2026-05-05T14:31:40.979Z</time></trkpt><trkpt lat="40.4525027" lon="15.1040613"><ele>152.0</ele><time>2026-05-05T14:31:41.979Z</time></trkpt><trkpt lat="40.4525546" lon="15.1041625"><ele>152.0</ele><time>2026-05-05T14:31:42.979Z</time></trkpt><trkpt lat="40.452599" lon="15.1042643"><ele>152.0</ele><time>2026-05-05T14:31:43.978Z</time></trkpt><trkpt lat="40.4526302" lon="15.1043656"><ele>152.0</ele><time>2026-05-05T14:31:44.978Z</time></trkpt><trkpt lat="40.4526459" lon="15.104458"><ele>152.0</ele><time>2026-05-05T14:31:45.977Z</time></trkpt><trkpt lat="40.4526602" lon="15.1045806"><ele>152.0</ele><time>2026-05-05T14:31:47.979Z</time></trkpt><trkpt lat="40.4526912" lon="15.1045078"><ele>152.0</ele><time>2026-05-05T14:31:51.978Z</time></trkpt><trkpt lat="40.452633" lon="15.1043689"><ele>152.0</ele><time>2026-05-05T14:31:53.978Z</time></trkpt><trkpt lat="40.4526028" lon="15.1042797"><ele>152.0</ele><time>2026-05-05T14:31:54.979Z</time></trkpt><trkpt lat="40.452565" lon="15.1041753"><ele>152.0</ele><time>2026-05-05T14:31:55.979Z</time></trkpt><trkpt lat="40.4525153" lon="15.1040636"><ele>152.0</ele><time>2026-05-05T14:31:56.979Z</time></trkpt><trkpt lat="40.4524642" lon="15.1039653"><ele>152.0</ele><time>2026-05-05T14:31:57.979Z</time></trkpt><trkpt lat="40.4523995" lon="15.1038617"><ele>153.5</ele><time>2026-05-05T14:31:58.979Z</time></trkpt><trkpt lat="40.4523023" lon="15.1037811"><ele>155.0</ele><time>2026-05-05T14:31:59.978Z</time></trkpt><trkpt lat="40.4522205" lon="15.103715"><ele>156.5</ele><time>2026-05-05T14:32:00.979Z</time></trkpt><trkpt lat="40.4521643" lon="15.1036526"><ele>158.0</ele><time>2026-05-05T14:32:01.978Z</time></trkpt><trkpt lat="40.4521279" lon="15.1035699"><ele>159.5</ele><time>2026-05-05T14:32:02.978Z</time></trkpt><trkpt lat="40.4521144" lon="15.1034636"><ele>161.0</ele><time>2026-05-05T14:32:03.977Z</time></trkpt><trkpt lat="40.4521058" lon="15.1033267"><ele>160.25</ele><time>2026-05-05T14:32:04.979Z</time></trkpt><trkpt lat="40.4521022" lon="15.1031674"><ele>159.5</ele><time>2026-05-05T14:32:05.979Z</time></trkpt><trkpt lat="40.4520712" lon="15.102988"><ele>158.75</ele><time>2026-05-05T14:32:06.979Z</time></trkpt><trkpt lat="40.4520456" lon="15.1028088"><ele>158.0</ele><time>2026-05-05T14:32:07.978Z</time></trkpt><trkpt lat="40.4520241" lon="15.1026637"><ele>158.0</ele><time>2026-05-05T14:32:08.978Z</time></trkpt><trkpt lat="40.4520098" lon="15.1025279"><ele>158.0</ele><time>2026-05-05T14:32:09.979Z</time></trkpt><trkpt lat="40.4520097" lon="15.1023921"><ele>158.0</ele><time>2026-05-05T14:32:10.979Z</time></trkpt><trkpt lat="40.4520066" lon="15.1022583"><ele>158.0</ele><time>2026-05-05T14:32:11.979Z</time></trkpt><trkpt lat="40.4519987" lon="15.102136"><ele>158.0</ele><time>2026-05-05T14:32:12.978Z</time></trkpt><trkpt lat="40.4520031" lon="15.1020414"><ele>158.4</ele><time>2026-05-05T14:32:13.979Z</time></trkpt><trkpt lat="40.4520355" lon="15.1019562"><ele>158.8</ele><time>2026-05-05T14:32:14.978Z</time></trkpt><trkpt lat="40.4520925" lon="15.1018648"><ele>159.2</ele><time>2026-05-05T14:32:15.979Z</time></trkpt><trkpt lat="40.4521626" lon="15.1017591"><ele>159.6</ele><time>2026-05-05T14:32:16.978Z</time></trkpt><trkpt lat="40.4522301" lon="15.1016324"><ele>160.0</ele><time>2026-05-05T14:32:17.979Z</time></trkpt><trkpt lat="40.4522915" lon="15.1014953"><ele>156.8</ele><time>2026-05-05T14:32:18.978Z</time></trkpt><trkpt lat="40.4523446" lon="15.1013679"><ele>153.6</ele><time>2026-05-05T14:32:19.978Z</time></trkpt><trkpt lat="40.4523781" lon="15.1012421"><ele>150.4</ele><time>2026-05-05T14:32:20.979Z</time></trkpt><trkpt lat="40.4523932" lon="15.1011086"><ele>147.2</ele><time>2026-05-05T14:32:21.979Z</time></trkpt><trkpt lat="40.4523854" lon="15.1009762"><ele>144.0</ele><time>2026-05-05T14:32:22.978Z</time></trkpt><trkpt lat="40.4523573" lon="15.1008312"><ele>144.0</ele><time>2026-05-05T14:32:23.978Z</time></trkpt><trkpt lat="40.4523193" lon="15.1006936"><ele>144.0</ele><time>2026-05-05T14:32:24.979Z</time></trkpt><trkpt lat="40.4522926" lon="15.1005746"><ele>144.0</ele><time>2026-05-05T14:32:25.978Z</time></trkpt><trkpt lat="40.4522901" lon="15.1004595"><ele>144.0</ele><time>2026-05-05T14:32:26.979Z</time></trkpt><trkpt lat="40.4522993" lon="15.1003371"><ele>144.0</ele><time>2026-05-05T14:32:27.979Z</time></trkpt><trkpt lat="40.4523145" lon="15.1002182"><ele>144.0</ele><time>2026-05-05T14:32:28.979Z</time></trkpt><trkpt lat="40.4523374" lon="15.1001022"><ele>144.0</ele><time>2026-05-05T14:32:29.979Z</time></trkpt><trkpt lat="40.4523751" lon="15.099997"><ele>144.0</ele><time>2026-05-05T14:32:30.979Z</time></trkpt><trkpt lat="40.4524332" lon="15.0999067"><ele>144.0</ele><time>2026-05-05T14:32:31.978Z</time></trkpt><trkpt lat="40.4525091" lon="15.0998453"><ele>144.0</ele><time>2026-05-05T14:32:32.979Z</time></trkpt><trkpt lat="40.4525909" lon="15.0997947"><ele>144.0</ele><time>2026-05-05T14:32:33.979Z</time></trkpt><trkpt lat="40.4526711" lon="15.0997478"><ele>144.83333333333334</ele><time>2026-05-05T14:32:34.979Z</time></trkpt><trkpt lat="40.4527334" lon="15.0997045"><ele>145.66666666666666</ele><time>2026-05-05T14:32:35.978Z</time></trkpt><trkpt lat="40.4527997" lon="15.099649"><ele>146.5</ele><time>2026-05-05T14:32:37.979Z</time></trkpt><trkpt lat="40.4527891" lon="15.0995008"><ele>147.33333333333331</ele><time>2026-05-05T14:40:50.977Z</time></trkpt><trkpt lat="40.4527926" lon="15.0994024"><ele>148.16666666666666</ele><time>2026-05-05T14:40:51.978Z</time></trkpt><trkpt lat="40.4527878" lon="15.0992969"><ele>149.0</ele><time>2026-05-05T14:40:52.978Z</time></trkpt><trkpt lat="40.4527784" lon="15.0992074"><ele>149.0</ele><time>2026-05-05T14:40:53.979Z</time></trkpt><trkpt lat="40.4527659" lon="15.0991229"><ele>149.0</ele><time>2026-05-05T14:40:54.979Z</time></trkpt><trkpt lat="40.4527427" lon="15.0989903"><ele>149.0</ele><time>2026-05-05T14:40:56.978Z</time></trkpt><trkpt lat="40.4527762" lon="15.0988843"><ele>149.0</ele><time>2026-05-05T14:40:59.979Z</time></trkpt><trkpt lat="40.4528663" lon="15.0988241"><ele>149.0</ele><time>2026-05-05T14:41:01.978Z</time></trkpt><trkpt lat="40.4529392" lon="15.0987336"><ele>147.0</ele><time>2026-05-05T14:41:03.979Z</time></trkpt><trkpt lat="40.4529895" lon="15.0986026"><ele>145.0</ele><time>2026-05-05T14:41:05.979Z</time></trkpt><trkpt lat="40.4530271" lon="15.0984473"><ele>143.0</ele><time>2026-05-05T14:41:07.977Z</time></trkpt><trkpt lat="40.4530468" lon="15.0983"><ele>141.0</ele><time>2026-05-05T14:41:09.977Z</time></trkpt><trkpt lat="40.4530626" lon="15.0981622"><ele>141.0</ele><time>2026-05-05T14:41:11.979Z</time></trkpt><trkpt lat="40.4530892" lon="15.0980521"><ele>141.0</ele><time>2026-05-05T14:41:13.979Z</time></trkpt><trkpt lat="40.4531113" lon="15.0979209"><ele>141.0</ele><time>2026-05-05T14:41:15.978Z</time></trkpt><trkpt lat="40.4531375" lon="15.0977764"><ele>141.0</ele><time>2026-05-05T14:41:17.979Z</time></trkpt><trkpt lat="40.4531543" lon="15.0976376"><ele>141.0</ele><time>2026-05-05T14:41:19.978Z</time></trkpt><trkpt lat="40.4531786" lon="15.0974956"><ele>140.4</ele><time>2026-05-05T14:41:21.978Z</time></trkpt><trkpt lat="40.4532112" lon="15.0973615"><ele>139.8</ele><time>2026-05-05T14:41:23.979Z</time></trkpt><trkpt lat="40.453251" lon="15.0972233"><ele>139.20000000000002</ele><time>2026-05-05T14:41:25.979Z</time></trkpt><trkpt lat="40.4532705" lon="15.0971045"><ele>138.6</ele><time>2026-05-05T14:41:27.979Z</time></trkpt><trkpt lat="40.4532724" lon="15.0969988"><ele>138.0</ele><time>2026-05-05T14:41:29.979Z</time></trkpt><trkpt lat="40.4532789" lon="15.0968986"><ele>138.0</ele><time>2026-05-05T14:41:31.978Z</time></trkpt><trkpt lat="40.4532901" lon="15.0968111"><ele>138.0</ele><time>2026-05-05T14:41:33.978Z</time></trkpt><trkpt lat="40.4532929" lon="15.0967025"><ele>138.0</ele><time>2026-05-05T14:41:35.979Z</time></trkpt><trkpt lat="40.4533118" lon="15.0965781"><ele>138.0</ele><time>2026-05-05T14:41:37.978Z</time></trkpt><trkpt lat="40.4533231" lon="15.0964348"><ele>138.0</ele><time>2026-05-05T14:41:39.978Z</time></trkpt><trkpt lat="40.4533286" lon="15.0962983"><ele>138.4</ele><time>2026-05-05T14:41:41.979Z</time></trkpt><trkpt lat="40.4533445" lon="15.0961404"><ele>138.8</ele><time>2026-05-05T14:41:43.979Z</time></trkpt><trkpt lat="40.4533619" lon="15.0960108"><ele>139.2</ele><time>2026-05-05T14:41:45.978Z</time></trkpt><trkpt lat="40.4534296" lon="15.0959855"><ele>139.6</ele><time>2026-05-05T14:41:48.979Z</time></trkpt><trkpt lat="40.4534437" lon="15.0961108"><ele>140.0</ele><time>2026-05-05T14:41:51.978Z</time></trkpt><trkpt lat="40.4534418" lon="15.096195"><ele>140.0</ele><time>2026-05-05T14:41:52.978Z</time></trkpt><trkpt lat="40.4534416" lon="15.0963059"><ele>140.0</ele><time>2026-05-05T14:41:53.979Z</time></trkpt><trkpt lat="40.4534408" lon="15.0964218"><ele>140.0</ele><time>2026-05-05T14:41:54.979Z</time></trkpt><trkpt lat="40.453443" lon="15.0965321"><ele>140.0</ele><time>2026-05-05T14:41:55.979Z</time></trkpt><trkpt lat="40.4534559" lon="15.0966308"><ele>140.0</ele><time>2026-05-05T14:41:56.978Z</time></trkpt><trkpt lat="40.4534879" lon="15.0967107"><ele>140.0</ele><time>2026-05-05T14:41:57.978Z</time></trkpt><trkpt lat="40.4535366" lon="15.0967653"><ele>139.66666666666666</ele><time>2026-05-05T14:41:58.978Z</time></trkpt><trkpt lat="40.4536001" lon="15.0967893"><ele>139.33333333333331</ele><time>2026-05-05T14:41:59.979Z</time></trkpt><trkpt lat="40.4536733" lon="15.096776"><ele>139.0</ele><time>2026-05-05T14:42:00.978Z</time></trkpt><trkpt lat="40.4537513" lon="15.0967577"><ele>138.66666666666666</ele><time>2026-05-05T14:42:01.979Z</time></trkpt><trkpt lat="40.4538375" lon="15.0967353"><ele>138.33333333333334</ele><time>2026-05-05T14:42:02.979Z</time></trkpt><trkpt lat="40.4539257" lon="15.0967054"><ele>138.0</ele><time>2026-05-05T14:42:03.979Z</time></trkpt><trkpt lat="40.4540183" lon="15.0966674"><ele>135.20000000000002</ele><time>2026-05-05T14:42:04.979Z</time></trkpt><trkpt lat="40.4541136" lon="15.0966213"><ele>132.4</ele><time>2026-05-05T14:42:05.978Z</time></trkpt><trkpt lat="40.4542097" lon="15.0965669"><ele>129.60000000000002</ele><time>2026-05-05T14:42:06.979Z</time></trkpt><trkpt lat="40.4543046" lon="15.0965107"><ele>126.80000000000001</ele><time>2026-05-05T14:42:07.977Z</time></trkpt><trkpt lat="40.4544036" lon="15.0964613"><ele>124.0</ele><time>2026-05-05T14:42:08.979Z</time></trkpt><trkpt lat="40.4545054" lon="15.0964194"><ele>123.80000000000001</ele><time>2026-05-05T14:42:09.978Z</time></trkpt><trkpt lat="40.4546095" lon="15.0963862"><ele>123.60000000000001</ele><time>2026-05-05T14:42:10.979Z</time></trkpt><trkpt lat="40.4547121" lon="15.0963562"><ele>123.4</ele><time>2026-05-05T14:42:11.978Z</time></trkpt><trkpt lat="40.4548222" lon="15.0963234"><ele>123.2</ele><time>2026-05-05T14:42:12.979Z</time></trkpt><trkpt lat="40.4549294" lon="15.0963011"><ele>123.0</ele><time>2026-05-05T14:42:13.978Z</time></trkpt><trkpt lat="40.4550371" lon="15.0962844"><ele>120.2</ele><time>2026-05-05T14:42:14.979Z</time></trkpt><trkpt lat="40.455144" lon="15.0962761"><ele>117.4</ele><time>2026-05-05T14:42:15.979Z</time></trkpt><trkpt lat="40.455248" lon="15.0962714"><ele>114.60000000000001</ele><time>2026-05-05T14:42:16.979Z</time></trkpt><trkpt lat="40.4553412" lon="15.0962691"><ele>111.80000000000001</ele><time>2026-05-05T14:42:17.979Z</time></trkpt><trkpt lat="40.4554156" lon="15.0962697"><ele>109.0</ele><time>2026-05-05T14:42:18.978Z</time></trkpt><trkpt lat="40.4555002" lon="15.0962644"><ele>106.4</ele><time>2026-05-05T14:42:20.979Z</time></trkpt><trkpt lat="40.4555305" lon="15.0961754"><ele>103.80000000000001</ele><time>2026-05-05T14:42:22.978Z</time></trkpt><trkpt lat="40.4555318" lon="15.0960886"><ele>101.19999999999999</ele><time>2026-05-05T14:42:23.979Z</time></trkpt><trkpt lat="40.4555218" lon="15.0959675"><ele>98.6</ele><time>2026-05-05T14:42:24.978Z</time></trkpt><trkpt lat="40.4555067" lon="15.0958338"><ele>96.0</ele><time>2026-05-05T14:42:25.978Z</time></trkpt><trkpt lat="40.4554798" lon="15.0956865"><ele>99.0</ele><time>2026-05-05T14:42:26.979Z</time></trkpt><trkpt lat="40.4554461" lon="15.0955285"><ele>102.0</ele><time>2026-05-05T14:42:27.979Z</time></trkpt><trkpt lat="40.4554094" lon="15.0953493"><ele>105.0</ele><time>2026-05-05T14:42:28.978Z</time></trkpt><trkpt lat="40.4553834" lon="15.0951583"><ele>108.0</ele><time>2026-05-05T14:42:29.978Z</time></trkpt><trkpt lat="40.4553655" lon="15.0949579"><ele>108.66666666666666</ele><time>2026-05-05T14:42:30.979Z</time></trkpt><trkpt lat="40.4553481" lon="15.094755"><ele>109.33333333333333</ele><time>2026-05-05T14:42:31.979Z</time></trkpt><trkpt lat="40.4553377" lon="15.0945565"><ele>110.0</ele><time>2026-05-05T14:42:32.979Z</time></trkpt><trkpt lat="40.4553371" lon="15.0943664"><ele>110.0</ele><time>2026-05-05T14:42:33.979Z</time></trkpt><trkpt lat="40.4553287" lon="15.0941833"><ele>110.0</ele><time>2026-05-05T14:42:34.978Z</time></trkpt><trkpt lat="40.4553091" lon="15.0940141"><ele>110.0</ele><time>2026-05-05T14:42:35.978Z</time></trkpt><trkpt lat="40.4552668" lon="15.0938651"><ele>110.0</ele><time>2026-05-05T14:42:36.979Z</time></trkpt><trkpt lat="40.4552006" lon="15.0937413"><ele>110.75</ele><time>2026-05-05T14:42:37.979Z</time></trkpt><trkpt lat="40.4551242" lon="15.0936251"><ele>111.5</ele><time>2026-05-05T14:42:38.979Z</time></trkpt><trkpt lat="40.455061" lon="15.0935062"><ele>112.25</ele><time>2026-05-05T14:42:39.979Z</time></trkpt><trkpt lat="40.455018" lon="15.0933733"><ele>113.0</ele><time>2026-05-05T14:42:40.978Z</time></trkpt><trkpt lat="40.4549981" lon="15.0932246"><ele>115.0</ele><time>2026-05-05T14:42:41.979Z</time></trkpt><trkpt lat="40.4549896" lon="15.0930682"><ele>117.0</ele><time>2026-05-05T14:42:42.978Z</time></trkpt><trkpt lat="40.4549826" lon="15.0929026"><ele>119.0</ele><time>2026-05-05T14:42:43.978Z</time></trkpt><trkpt lat="40.4549681" lon="15.0927345"><ele>121.0</ele><time>2026-05-05T14:42:44.978Z</time></trkpt><trkpt lat="40.4549505" lon="15.0925567"><ele>123.5</ele><time>2026-05-05T14:42:45.979Z</time></trkpt><trkpt lat="40.4549454" lon="15.092382"><ele>126.0</ele><time>2026-05-05T14:42:46.978Z</time></trkpt><trkpt lat="40.4549595" lon="15.0922131"><ele>128.5</ele><time>2026-05-05T14:42:47.979Z</time></trkpt><trkpt lat="40.4549868" lon="15.0920628"><ele>131.0</ele><time>2026-05-05T14:42:48.979Z</time></trkpt><trkpt lat="40.4550177" lon="15.0919301"><ele>131.0</ele><time>2026-05-05T14:42:49.978Z</time></trkpt><trkpt lat="40.4550383" lon="15.0918103"><ele>131.0</ele><time>2026-05-05T14:42:50.979Z</time></trkpt><trkpt lat="40.4550451" lon="15.0916974"><ele>131.0</ele><time>2026-05-05T14:42:51.979Z</time></trkpt><trkpt lat="40.4550403" lon="15.0915925"><ele>131.0</ele><time>2026-05-05T14:42:52.978Z</time></trkpt><trkpt lat="40.4550349" lon="15.0914805"><ele>131.0</ele><time>2026-05-05T14:42:53.978Z</time></trkpt><trkpt lat="40.4550331" lon="15.0913619"><ele>131.0</ele><time>2026-05-05T14:42:54.979Z</time></trkpt><trkpt lat="40.4550316" lon="15.0912376"><ele>131.0</ele><time>2026-05-05T14:42:55.978Z</time></trkpt><trkpt lat="40.4550232" lon="15.0911097"><ele>131.0</ele><time>2026-05-05T14:42:56.979Z</time></trkpt><trkpt lat="40.4550043" lon="15.0909761"><ele>131.0</ele><time>2026-05-05T14:42:57.979Z</time></trkpt><trkpt lat="40.4549844" lon="15.0908378"><ele>131.0</ele><time>2026-05-05T14:42:58.977Z</time></trkpt><trkpt lat="40.4549583" lon="15.0907033"><ele>131.0</ele><time>2026-05-05T14:42:59.978Z</time></trkpt><trkpt lat="40.4549195" lon="15.0905668"><ele>130.0</ele><time>2026-05-05T14:43:00.978Z</time></trkpt><trkpt lat="40.454872" lon="15.0904293"><ele>129.0</ele><time>2026-05-05T14:43:01.979Z</time></trkpt><trkpt lat="40.4548195" lon="15.0902906"><ele>128.0</ele><time>2026-05-05T14:43:02.979Z</time></trkpt><trkpt lat="40.4547655" lon="15.0901542"><ele>127.0</ele><time>2026-05-05T14:43:03.978Z</time></trkpt><trkpt lat="40.4547146" lon="15.0900232"><ele>127.39999999999999</ele><time>2026-05-05T14:43:04.979Z</time></trkpt><trkpt lat="40.4546727" lon="15.089896"><ele>127.79999999999998</ele><time>2026-05-05T14:43:05.979Z</time></trkpt><trkpt lat="40.4546372" lon="15.0897749"><ele>128.2</ele><time>2026-05-05T14:43:06.979Z</time></trkpt><trkpt lat="40.454614" lon="15.0896622"><ele>128.6</ele><time>2026-05-05T14:43:07.979Z</time></trkpt><trkpt lat="40.4546075" lon="15.0895572"><ele>129.0</ele><time>2026-05-05T14:43:08.978Z</time></trkpt><trkpt lat="40.4546183" lon="15.0894527"><ele>129.0</ele><time>2026-05-05T14:43:09.979Z</time></trkpt><trkpt lat="40.454627" lon="15.089344"><ele>129.0</ele><time>2026-05-05T14:43:10.979Z</time></trkpt><trkpt lat="40.4546338" lon="15.0892307"><ele>129.0</ele><time>2026-05-05T14:43:11.979Z</time></trkpt><trkpt lat="40.4546474" lon="15.0891158"><ele>129.0</ele><time>2026-05-05T14:43:12.979Z</time></trkpt><trkpt lat="40.4546646" lon="15.0890018"><ele>129.0</ele><time>2026-05-05T14:43:13.978Z</time></trkpt><trkpt lat="40.4546826" lon="15.0888834"><ele>129.0</ele><time>2026-05-05T14:43:14.978Z</time></trkpt><trkpt lat="40.4547109" lon="15.0887658"><ele>130.0</ele><time>2026-05-05T14:43:15.979Z</time></trkpt><trkpt lat="40.4547579" lon="15.0886547"><ele>131.0</ele><time>2026-05-05T14:43:16.978Z</time></trkpt><trkpt lat="40.4548148" lon="15.0885476"><ele>132.0</ele><time>2026-05-05T14:43:17.978Z</time></trkpt><trkpt lat="40.4548792" lon="15.0884433"><ele>133.0</ele><time>2026-05-05T14:43:18.978Z</time></trkpt><trkpt lat="40.4549344" lon="15.0883236"><ele>134.0</ele><time>2026-05-05T14:43:19.979Z</time></trkpt><trkpt lat="40.4549675" lon="15.0881826"><ele>135.5</ele><time>2026-05-05T14:43:20.979Z</time></trkpt><trkpt lat="40.4549876" lon="15.0880331"><ele>137.0</ele><time>2026-05-05T14:43:21.978Z</time></trkpt><trkpt lat="40.4550038" lon="15.0878806"><ele>138.5</ele><time>2026-05-05T14:43:22.979Z</time></trkpt><trkpt lat="40.4550196" lon="15.0877357"><ele>140.0</ele><time>2026-05-05T14:43:23.979Z</time></trkpt><trkpt lat="40.4550379" lon="15.0875983"><ele>140.0</ele><time>2026-05-05T14:43:24.979Z</time></trkpt><trkpt lat="40.4550522" lon="15.087461"><ele>140.0</ele><time>2026-05-05T14:43:25.979Z</time></trkpt><trkpt lat="40.4550488" lon="15.0873212"><ele>140.0</ele><time>2026-05-05T14:43:26.979Z</time></trkpt><trkpt lat="40.4550283" lon="15.0871786"><ele>140.0</ele><time>2026-05-05T14:43:27.978Z</time></trkpt><trkpt lat="40.4549979" lon="15.0870386"><ele>140.0</ele><time>2026-05-05T14:43:28.979Z</time></trkpt><trkpt lat="40.454961" lon="15.0869092"><ele>139.2</ele><time>2026-05-05T14:43:29.978Z</time></trkpt><trkpt lat="40.4549191" lon="15.086785"><ele>138.4</ele><time>2026-05-05T14:43:30.979Z</time></trkpt><trkpt lat="40.4548814" lon="15.0866613"><ele>137.6</ele><time>2026-05-05T14:43:31.979Z</time></trkpt><trkpt lat="40.4548548" lon="15.0865315"><ele>136.8</ele><time>2026-05-05T14:43:32.979Z</time></trkpt><trkpt lat="40.454853" lon="15.0863948"><ele>136.0</ele><time>2026-05-05T14:43:33.979Z</time></trkpt><trkpt lat="40.4548766" lon="15.0862616"><ele>135.2</ele><time>2026-05-05T14:43:34.979Z</time></trkpt><trkpt lat="40.4549093" lon="15.0861308"><ele>134.39999999999998</ele><time>2026-05-05T14:43:35.979Z</time></trkpt><trkpt lat="40.4549448" lon="15.0860022"><ele>133.6</ele><time>2026-05-05T14:43:36.978Z</time></trkpt><trkpt lat="40.4549823" lon="15.0858809"><ele>132.79999999999998</ele><time>2026-05-05T14:43:37.978Z</time></trkpt><trkpt lat="40.4550178" lon="15.0857726"><ele>132.0</ele><time>2026-05-05T14:43:38.979Z</time></trkpt><trkpt lat="40.4550474" lon="15.08568"><ele>129.0</ele><time>2026-05-05T14:43:39.978Z</time></trkpt><trkpt lat="40.4550926" lon="15.08555"><ele>129.0</ele><time>2026-05-05T14:43:41.979Z</time></trkpt></trkseg><trkseg><trkpt lat="40.4550503" lon="15.0853431"><ele>129.0</ele><time>2026-05-05T14:54:24.979Z</time></trkpt><trkpt lat="40.4550459" lon="15.08514"><ele>129.0</ele><time>2026-05-05T14:54:28.979Z</time></trkpt><trkpt lat="40.4550541" lon="15.0850393"><ele>129.0</ele><time>2026-05-05T14:54:29.979Z</time></trkpt><trkpt lat="40.4550503" lon="15.0849496"><ele>129.0</ele><time>2026-05-05T14:54:30.979Z</time></trkpt><trkpt lat="40.4550352" lon="15.0848652"><ele>129.0</ele><time>2026-05-05T14:54:31.979Z</time></trkpt><trkpt lat="40.455008" lon="15.0847779"><ele>129.0</ele><time>2026-05-05T14:54:32.978Z</time></trkpt><trkpt lat="40.4549859" lon="15.0846832"><ele>129.0</ele><time>2026-05-05T14:54:33.979Z</time></trkpt><trkpt lat="40.4549742" lon="15.0845889"><ele>129.0</ele><time>2026-05-05T14:54:34.979Z</time></trkpt><trkpt lat="40.4549623" lon="15.0845076"><ele>129.0</ele><time>2026-05-05T14:54:35.979Z</time></trkpt><trkpt lat="40.4549522" lon="15.084358"><ele>129.0</ele><time>2026-05-05T14:54:37.979Z</time></trkpt><trkpt lat="40.4549682" lon="15.0842627"><ele>129.0</ele><time>2026-05-05T14:54:38.979Z</time></trkpt><trkpt lat="40.4549948" lon="15.0841487"><ele>129.0</ele><time>2026-05-05T14:54:39.978Z</time></trkpt><trkpt lat="40.4550294" lon="15.0840251"><ele>129.8</ele><time>2026-05-05T14:54:40.978Z</time></trkpt><trkpt lat="40.4550665" lon="15.0839024"><ele>130.60000000000002</ele><time>2026-05-05T14:54:41.978Z</time></trkpt><trkpt lat="40.4550968" lon="15.0837874"><ele>131.4</ele><time>2026-05-05T14:54:42.977Z</time></trkpt><trkpt lat="40.4551222" lon="15.0836695"><ele>132.20000000000002</ele><time>2026-05-05T14:54:43.979Z</time></trkpt><trkpt lat="40.4551416" lon="15.0835438"><ele>133.0</ele><time>2026-05-05T14:54:44.979Z</time></trkpt><trkpt lat="40.4551599" lon="15.083416"><ele>133.0</ele><time>2026-05-05T14:54:45.979Z</time></trkpt><trkpt lat="40.455161" lon="15.0832891"><ele>133.0</ele><time>2026-05-05T14:54:46.979Z</time></trkpt><trkpt lat="40.4551445" lon="15.0831783"><ele>133.0</ele><time>2026-05-05T14:54:47.979Z</time></trkpt><trkpt lat="40.4551264" lon="15.0830835"><ele>133.0</ele><time>2026-05-05T14:54:48.978Z</time></trkpt><trkpt lat="40.4551273" lon="15.0829853"><ele>133.0</ele><time>2026-05-05T14:54:49.979Z</time></trkpt><trkpt lat="40.4551408" lon="15.0828969"><ele>133.0</ele><time>2026-05-05T14:54:50.979Z</time></trkpt><trkpt lat="40.4552091" lon="15.0827606"><ele>133.33333333333334</ele><time>2026-05-05T14:54:52.979Z</time></trkpt><trkpt lat="40.455257" lon="15.0826084"><ele>133.66666666666669</ele><time>2026-05-05T14:54:54.978Z</time></trkpt><trkpt lat="40.4552726" lon="15.0825259"><ele>134.0</ele><time>2026-05-05T14:54:55.978Z</time></trkpt><trkpt lat="40.4552717" lon="15.082431"><ele>134.33333333333334</ele><time>2026-05-05T14:54:56.979Z</time></trkpt><trkpt lat="40.4552525" lon="15.0823346"><ele>134.66666666666666</ele><time>2026-05-05T14:54:57.979Z</time></trkpt><trkpt lat="40.4552259" lon="15.0822134"><ele>135.0</ele><time>2026-05-05T14:54:58.978Z</time></trkpt><trkpt lat="40.4552025" lon="15.0820993"><ele>134.33333333333334</ele><time>2026-05-05T14:54:59.979Z</time></trkpt><trkpt lat="40.4551747" lon="15.0819963"><ele>133.66666666666666</ele><time>2026-05-05T14:55:00.978Z</time></trkpt><trkpt lat="40.4551615" lon="15.0818806"><ele>133.0</ele><time>2026-05-05T14:55:01.979Z</time></trkpt><trkpt lat="40.4551496" lon="15.0817628"><ele>132.33333333333331</ele><time>2026-05-05T14:55:02.979Z</time></trkpt><trkpt lat="40.4551407" lon="15.0816461"><ele>131.66666666666666</ele><time>2026-05-05T14:55:03.978Z</time></trkpt><trkpt lat="40.4551229" lon="15.0815237"><ele>131.0</ele><time>2026-05-05T14:55:04.978Z</time></trkpt><trkpt lat="40.4550968" lon="15.0813913"><ele>129.6</ele><time>2026-05-05T14:55:05.979Z</time></trkpt><trkpt lat="40.4550723" lon="15.081252"><ele>128.2</ele><time>2026-05-05T14:55:06.979Z</time></trkpt><trkpt lat="40.4550406" lon="15.0811087"><ele>126.80000000000001</ele><time>2026-05-05T14:55:07.979Z</time></trkpt><trkpt lat="40.455011" lon="15.0809725"><ele>125.4</ele><time>2026-05-05T14:55:08.979Z</time></trkpt><trkpt lat="40.4549835" lon="15.0808415"><ele>124.0</ele><time>2026-05-05T14:55:09.977Z</time></trkpt><trkpt lat="40.4549669" lon="15.0807111"><ele>123.4</ele><time>2026-05-05T14:55:10.979Z</time></trkpt><trkpt lat="40.4549624" lon="15.0805863"><ele>122.80000000000001</ele><time>2026-05-05T14:55:11.978Z</time></trkpt><trkpt lat="40.4549604" lon="15.0804488"><ele>122.19999999999999</ele><time>2026-05-05T14:55:12.978Z</time></trkpt><trkpt lat="40.4549689" lon="15.0803069"><ele>121.6</ele><time>2026-05-05T14:55:13.979Z</time></trkpt><trkpt lat="40.4549732" lon="15.0801728"><ele>121.0</ele><time>2026-05-05T14:55:14.979Z</time></trkpt><trkpt lat="40.454984" lon="15.0800346"><ele>120.6</ele><time>2026-05-05T14:55:15.979Z</time></trkpt><trkpt lat="40.4549997" lon="15.0799068"><ele>120.19999999999999</ele><time>2026-05-05T14:55:16.978Z</time></trkpt><trkpt lat="40.4550315" lon="15.079778"><ele>119.80000000000001</ele><time>2026-05-05T14:55:17.979Z</time></trkpt><trkpt lat="40.4550612" lon="15.079653"><ele>119.4</ele><time>2026-05-05T14:55:18.978Z</time></trkpt><trkpt lat="40.4550851" lon="15.0795309"><ele>119.0</ele><time>2026-05-05T14:55:19.979Z</time></trkpt><trkpt lat="40.4551116" lon="15.0794121"><ele>119.0</ele><time>2026-05-05T14:55:20.978Z</time></trkpt><trkpt lat="40.4551223" lon="15.079288"><ele>119.0</ele><time>2026-05-05T14:55:21.979Z</time></trkpt><trkpt lat="40.4551267" lon="15.0791635"><ele>119.0</ele><time>2026-05-05T14:55:22.979Z</time></trkpt><trkpt lat="40.45513" lon="15.0790434"><ele>119.0</ele><time>2026-05-05T14:55:23.979Z</time></trkpt><trkpt lat="40.4551127" lon="15.0789109"><ele>119.0</ele><time>2026-05-05T14:55:24.978Z</time></trkpt><trkpt lat="40.4551046" lon="15.0787869"><ele>118.49999999999999</ele><time>2026-05-05T14:55:25.978Z</time></trkpt><trkpt lat="40.4550939" lon="15.0786496"><ele>118.0</ele><time>2026-05-05T14:55:26.979Z</time></trkpt><trkpt lat="40.4550865" lon="15.0785251"><ele>117.5</ele><time>2026-05-05T14:55:27.979Z</time></trkpt><trkpt lat="40.4550856" lon="15.0784086"><ele>117.0</ele><time>2026-05-05T14:55:28.979Z</time></trkpt><trkpt lat="40.4550795" lon="15.0783035"><ele>116.49999999999999</ele><time>2026-05-05T14:55:29.978Z</time></trkpt><trkpt lat="40.4550683" lon="15.0782161"><ele>116.0</ele><time>2026-05-05T14:55:30.978Z</time></trkpt><trkpt lat="40.4550437" lon="15.0781239"><ele>115.49999999999999</ele><time>2026-05-05T14:55:31.979Z</time></trkpt><trkpt lat="40.4550077" lon="15.0780299"><ele>115.0</ele><time>2026-05-05T14:55:32.978Z</time></trkpt><trkpt lat="40.4549676" lon="15.0779385"><ele>114.5</ele><time>2026-05-05T14:55:33.979Z</time></trkpt><trkpt lat="40.4549258" lon="15.0778502"><ele>114.0</ele><time>2026-05-05T14:55:34.979Z</time></trkpt><trkpt lat="40.4548911" lon="15.077764"><ele>113.49999999999999</ele><time>2026-05-05T14:55:35.979Z</time></trkpt><trkpt lat="40.4548722" lon="15.0776783"><ele>113.0</ele><time>2026-05-05T14:55:36.979Z</time></trkpt><trkpt lat="40.4548791" lon="15.0775264"><ele>112.83333333333333</ele><time>2026-05-05T14:55:38.978Z</time></trkpt><trkpt lat="40.454894" lon="15.0773671"><ele>112.66666666666666</ele><time>2026-05-05T14:55:40.979Z</time></trkpt><trkpt lat="40.4549159" lon="15.0772049"><ele>112.5</ele><time>2026-05-05T14:55:42.979Z</time></trkpt><trkpt lat="40.4549441" lon="15.0771262"><ele>112.33333333333334</ele><time>2026-05-05T14:55:43.979Z</time></trkpt><trkpt lat="40.4549752" lon="15.0770509"><ele>112.16666666666667</ele><time>2026-05-05T14:55:44.978Z</time></trkpt><trkpt lat="40.4550083" lon="15.0769736"><ele>112.0</ele><time>2026-05-05T14:55:45.979Z</time></trkpt><trkpt lat="40.4550437" lon="15.0768966"><ele>112.0</ele><time>2026-05-05T14:55:46.979Z</time></trkpt><trkpt lat="40.455081" lon="15.076823"><ele>112.0</ele><time>2026-05-05T14:55:47.979Z</time></trkpt><trkpt lat="40.455118" lon="15.0767512"><ele>112.0</ele><time>2026-05-05T14:55:48.979Z</time></trkpt><trkpt lat="40.4551567" lon="15.0766802"><ele>112.0</ele><time>2026-05-05T14:55:49.978Z</time></trkpt><trkpt lat="40.4551947" lon="15.0766044"><ele>112.0</ele><time>2026-05-05T14:55:50.979Z</time></trkpt><trkpt lat="40.4552335" lon="15.0765216"><ele>112.0</ele><time>2026-05-05T14:55:51.977Z</time></trkpt><trkpt lat="40.4552705" lon="15.0764297"><ele>112.0</ele><time>2026-05-05T14:55:52.979Z</time></trkpt><trkpt lat="40.4553045" lon="15.0763326"><ele>111.71428571428571</ele><time>2026-05-05T14:55:53.979Z</time></trkpt><trkpt lat="40.4553347" lon="15.0762471"><ele>111.42857142857143</ele><time>2026-05-05T14:55:54.978Z</time></trkpt><trkpt lat="40.4553627" lon="15.0761681"><ele>111.14285714285714</ele><time>2026-05-05T14:55:55.979Z</time></trkpt><trkpt lat="40.4554077" lon="15.0761"><ele>110.85714285714286</ele><time>2026-05-05T14:55:56.979Z</time></trkpt><trkpt lat="40.4554719" lon="15.0760657"><ele>110.57142857142857</ele><time>2026-05-05T14:55:57.979Z</time></trkpt><trkpt lat="40.4555413" lon="15.0760606"><ele>110.28571428571428</ele><time>2026-05-05T14:55:58.979Z</time></trkpt><trkpt lat="40.4556145" lon="15.0760738"><ele>110.0</ele><time>2026-05-05T14:55:59.979Z</time></trkpt><trkpt lat="40.4556913" lon="15.0760961"><ele>107.99999999999999</ele><time>2026-05-05T14:56:00.979Z</time></trkpt><trkpt lat="40.4557698" lon="15.0761178"><ele>106.0</ele><time>2026-05-05T14:56:01.978Z</time></trkpt><trkpt lat="40.45585" lon="15.0761409"><ele>104.0</ele><time>2026-05-05T14:56:02.978Z</time></trkpt><trkpt lat="40.4559284" lon="15.076164"><ele>102.0</ele><time>2026-05-05T14:56:03.979Z</time></trkpt><trkpt lat="40.4560093" lon="15.0761632"><ele>99.99999999999999</ele><time>2026-05-05T14:56:04.978Z</time></trkpt><trkpt lat="40.4560834" lon="15.0761295"><ele>98.0</ele><time>2026-05-05T14:56:05.979Z</time></trkpt><trkpt lat="40.4561495" lon="15.076064"><ele>98.0</ele><time>2026-05-05T14:56:06.979Z</time></trkpt><trkpt lat="40.4562084" lon="15.0759798"><ele>98.0</ele><time>2026-05-05T14:56:07.978Z</time></trkpt><trkpt lat="40.4562607" lon="15.0758753"><ele>98.0</ele><time>2026-05-05T14:56:08.979Z</time></trkpt><trkpt lat="40.4563085" lon="15.0757623"><ele>98.0</ele><time>2026-05-05T14:56:09.979Z</time></trkpt><trkpt lat="40.4563653" lon="15.0756565"><ele>98.0</ele><time>2026-05-05T14:56:10.978Z</time></trkpt><trkpt lat="40.4564296" lon="15.0755593"><ele>96.2</ele><time>2026-05-05T14:56:11.978Z</time></trkpt><trkpt lat="40.4564983" lon="15.0754673"><ele>94.4</ele><time>2026-05-05T14:56:12.979Z</time></trkpt><trkpt lat="40.4565767" lon="15.0753913"><ele>92.60000000000001</ele><time>2026-05-05T14:56:13.979Z</time></trkpt><trkpt lat="40.4566588" lon="15.075329"><ele>90.80000000000001</ele><time>2026-05-05T14:56:14.978Z</time></trkpt><trkpt lat="40.4567422" lon="15.0752767"><ele>89.0</ele><time>2026-05-05T14:56:15.979Z</time></trkpt><trkpt lat="40.4568288" lon="15.0752468"><ele>89.0</ele><time>2026-05-05T14:56:16.978Z</time></trkpt><trkpt lat="40.4569077" lon="15.0752498"><ele>89.0</ele><time>2026-05-05T14:56:17.978Z</time></trkpt><trkpt lat="40.456977" lon="15.0752936"><ele>89.0</ele><time>2026-05-05T14:56:18.978Z</time></trkpt><trkpt lat="40.4570318" lon="15.0753734"><ele>89.0</ele><time>2026-05-05T14:56:19.978Z</time></trkpt><trkpt lat="40.4570747" lon="15.0754718"><ele>89.0</ele><time>2026-05-05T14:56:20.978Z</time></trkpt><trkpt lat="40.4571159" lon="15.0755842"><ele>89.0</ele><time>2026-05-05T14:56:21.979Z</time></trkpt><trkpt lat="40.4571564" lon="15.0757053"><ele>87.2</ele><time>2026-05-05T14:56:22.979Z</time></trkpt><trkpt lat="40.4571966" lon="15.0758285"><ele>85.4</ele><time>2026-05-05T14:56:23.978Z</time></trkpt><trkpt lat="40.4572369" lon="15.0759517"><ele>83.6</ele><time>2026-05-05T14:56:24.979Z</time></trkpt><trkpt lat="40.4572782" lon="15.0760739"><ele>81.8</ele><time>2026-05-05T14:56:25.978Z</time></trkpt><trkpt lat="40.4573249" lon="15.0761927"><ele>80.0</ele><time>2026-05-05T14:56:26.979Z</time></trkpt><trkpt lat="40.4573718" lon="15.0763089"><ele>80.0</ele><time>2026-05-05T14:56:27.979Z</time></trkpt><trkpt lat="40.4574172" lon="15.0764137"><ele>80.0</ele><time>2026-05-05T14:56:28.978Z</time></trkpt><trkpt lat="40.4574761" lon="15.0764826"><ele>80.0</ele><time>2026-05-05T14:56:29.979Z</time></trkpt><trkpt lat="40.4575402" lon="15.0765086"><ele>80.0</ele><time>2026-05-05T14:56:30.979Z</time></trkpt><trkpt lat="40.4576031" lon="15.0764848"><ele>80.0</ele><time>2026-05-05T14:56:31.979Z</time></trkpt><trkpt lat="40.4576549" lon="15.0764266"><ele>80.0</ele><time>2026-05-05T14:56:32.979Z</time></trkpt><trkpt lat="40.4577036" lon="15.0763496"><ele>80.0</ele><time>2026-05-05T14:56:33.978Z</time></trkpt><trkpt lat="40.4577571" lon="15.0762812"><ele>80.0</ele><time>2026-05-05T14:56:34.979Z</time></trkpt><trkpt lat="40.4578267" lon="15.0762315"><ele>80.0</ele><time>2026-05-05T14:56:35.979Z</time></trkpt><trkpt lat="40.4579015" lon="15.0761945"><ele>80.0</ele><time>2026-05-05T14:56:36.978Z</time></trkpt><trkpt lat="40.4579846" lon="15.0761801"><ele>80.0</ele><time>2026-05-05T14:56:37.979Z</time></trkpt><trkpt lat="40.4580688" lon="15.0761846"><ele>80.0</ele><time>2026-05-05T14:56:38.978Z</time></trkpt><trkpt lat="40.4581535" lon="15.0761952"><ele>80.0</ele><time>2026-05-05T14:56:39.979Z</time></trkpt><trkpt lat="40.4582398" lon="15.0762059"><ele>78.5</ele><time>2026-05-05T14:56:40.979Z</time></trkpt><trkpt lat="40.4583276" lon="15.0762193"><ele>77.0</ele><time>2026-05-05T14:56:41.978Z</time></trkpt><trkpt lat="40.4584136" lon="15.0762347"><ele>75.5</ele><time>2026-05-05T14:56:42.979Z</time></trkpt><trkpt lat="40.4585027" lon="15.0762557"><ele>74.0</ele><time>2026-05-05T14:56:43.978Z</time></trkpt><trkpt lat="40.4585929" lon="15.0762739"><ele>72.5</ele><time>2026-05-05T14:56:44.979Z</time></trkpt><trkpt lat="40.4586834" lon="15.0762876"><ele>71.0</ele><time>2026-05-05T14:56:45.979Z</time></trkpt><trkpt lat="40.4587737" lon="15.0762893"><ele>69.6</ele><time>2026-05-05T14:56:46.979Z</time></trkpt><trkpt lat="40.4588664" lon="15.0762826"><ele>68.19999999999999</ele><time>2026-05-05T14:56:47.978Z</time></trkpt><trkpt lat="40.4589584" lon="15.0762683"><ele>66.80000000000001</ele><time>2026-05-05T14:56:48.979Z</time></trkpt><trkpt lat="40.45905" lon="15.0762533"><ele>65.4</ele><time>2026-05-05T14:56:49.978Z</time></trkpt><trkpt lat="40.4591427" lon="15.0762291"><ele>64.0</ele><time>2026-05-05T14:56:50.978Z</time></trkpt><trkpt lat="40.4592327" lon="15.076198"><ele>64.0</ele><time>2026-05-05T14:56:51.979Z</time></trkpt><trkpt lat="40.4593206" lon="15.0761618"><ele>64.0</ele><time>2026-05-05T14:56:52.977Z</time></trkpt><trkpt lat="40.4594069" lon="15.0761197"><ele>64.0</ele><time>2026-05-05T14:56:53.979Z</time></trkpt><trkpt lat="40.4594892" lon="15.0760727"><ele>64.0</ele><time>2026-05-05T14:56:54.978Z</time></trkpt><trkpt lat="40.4595696" lon="15.076018"><ele>64.0</ele><time>2026-05-05T14:56:55.979Z</time></trkpt><trkpt lat="40.4596486" lon="15.0759584"><ele>63.0</ele><time>2026-05-05T14:56:56.979Z</time></trkpt><trkpt lat="40.4597281" lon="15.0758958"><ele>62.00000000000001</ele><time>2026-05-05T14:56:57.979Z</time></trkpt><trkpt lat="40.4598071" lon="15.0758334"><ele>61.00000000000001</ele><time>2026-05-05T14:56:58.979Z</time></trkpt><trkpt lat="40.4598847" lon="15.0757746"><ele>60.0</ele><time>2026-05-05T14:56:59.979Z</time></trkpt><trkpt lat="40.4599626" lon="15.0757216"><ele>59.0</ele><time>2026-05-05T14:57:00.979Z</time></trkpt><trkpt lat="40.4600436" lon="15.0756758"><ele>59.0</ele><time>2026-05-05T14:57:01.979Z</time></trkpt><trkpt lat="40.4601245" lon="15.0756355"><ele>59.00000000000001</ele><time>2026-05-05T14:57:02.979Z</time></trkpt><trkpt lat="40.4602086" lon="15.0755951"><ele>59.00000000000001</ele><time>2026-05-05T14:57:03.979Z</time></trkpt><trkpt lat="40.4602954" lon="15.0755534"><ele>59.0</ele><time>2026-05-05T14:57:04.977Z</time></trkpt><trkpt lat="40.4603831" lon="15.0755138"><ele>59.0</ele><time>2026-05-05T14:57:05.979Z</time></trkpt><trkpt lat="40.4604696" lon="15.0754821"><ele>58.333333333333336</ele><time>2026-05-05T14:57:06.979Z</time></trkpt><trkpt lat="40.4605529" lon="15.0754524"><ele>57.66666666666667</ele><time>2026-05-05T14:57:07.978Z</time></trkpt><trkpt lat="40.4606345" lon="15.0754325"><ele>57.0</ele><time>2026-05-05T14:57:08.979Z</time></trkpt><trkpt lat="40.4607109" lon="15.0754242"><ele>56.33333333333333</ele><time>2026-05-05T14:57:09.979Z</time></trkpt><trkpt lat="40.4607747" lon="15.0754175"><ele>55.666666666666664</ele><time>2026-05-05T14:57:10.978Z</time></trkpt><trkpt lat="40.4608578" lon="15.0754122"><ele>55.0</ele><time>2026-05-05T14:57:12.979Z</time></trkpt><trkpt lat="40.4609062" lon="15.0753377"><ele>55.0</ele><time>2026-05-05T14:57:35.979Z</time></trkpt><trkpt lat="40.4608987" lon="15.0752066"><ele>55.0</ele><time>2026-05-05T14:57:37.979Z</time></trkpt><trkpt lat="40.4608832" lon="15.0751112"><ele>55.0</ele><time>2026-05-05T14:57:38.979Z</time></trkpt><trkpt lat="40.4608629" lon="15.0750028"><ele>55.0</ele><time>2026-05-05T14:57:39.978Z</time></trkpt><trkpt lat="40.4608419" lon="15.0748797"><ele>55.0</ele><time>2026-05-05T14:57:40.979Z</time></trkpt><trkpt lat="40.4608177" lon="15.0747475"><ele>54.5</ele><time>2026-05-05T14:57:41.979Z</time></trkpt><trkpt lat="40.4607927" lon="15.0746035"><ele>54.0</ele><time>2026-05-05T14:57:42.978Z</time></trkpt><trkpt lat="40.4607672" lon="15.0744561"><ele>53.5</ele><time>2026-05-05T14:57:43.978Z</time></trkpt><trkpt lat="40.4607391" lon="15.0743016"><ele>53.0</ele><time>2026-05-05T14:57:44.978Z</time></trkpt><trkpt lat="40.4607118" lon="15.0741408"><ele>53.25</ele><time>2026-05-05T14:57:45.979Z</time></trkpt><trkpt lat="40.4606845" lon="15.0739772"><ele>53.5</ele><time>2026-05-05T14:57:46.979Z</time></trkpt><trkpt lat="40.460657" lon="15.0738117"><ele>53.75</ele><time>2026-05-05T14:57:47.977Z</time></trkpt><trkpt lat="40.4606308" lon="15.0736468"><ele>54.0</ele><time>2026-05-05T14:57:48.978Z</time></trkpt><trkpt lat="40.460603" lon="15.0734807"><ele>54.0</ele><time>2026-05-05T14:57:49.978Z</time></trkpt><trkpt lat="40.4605748" lon="15.0733173"><ele>54.0</ele><time>2026-05-05T14:57:50.979Z</time></trkpt><trkpt lat="40.4605472" lon="15.0731546"><ele>54.0</ele><time>2026-05-05T14:57:51.979Z</time></trkpt><trkpt lat="40.4605196" lon="15.0729964"><ele>54.0</ele><time>2026-05-05T14:57:52.979Z</time></trkpt><trkpt lat="40.4604918" lon="15.0728409"><ele>54.25</ele><time>2026-05-05T14:57:53.979Z</time></trkpt><trkpt lat="40.4604626" lon="15.0726841"><ele>54.5</ele><time>2026-05-05T14:57:54.979Z</time></trkpt><trkpt lat="40.4604366" lon="15.0725282"><ele>54.75</ele><time>2026-05-05T14:57:55.979Z</time></trkpt><trkpt lat="40.4604117" lon="15.0723742"><ele>55.0</ele><time>2026-05-05T14:57:56.978Z</time></trkpt><trkpt lat="40.460386" lon="15.0722218"><ele>55.25</ele><time>2026-05-05T14:57:57.978Z</time></trkpt><trkpt lat="40.4603616" lon="15.0720674"><ele>55.5</ele><time>2026-05-05T14:57:58.979Z</time></trkpt><trkpt lat="40.4603367" lon="15.0719137"><ele>55.75</ele><time>2026-05-05T14:57:59.978Z</time></trkpt><trkpt lat="40.4603099" lon="15.0717608"><ele>56.0</ele><time>2026-05-05T14:58:00.978Z</time></trkpt><trkpt lat="40.460283" lon="15.0716066"><ele>56.0</ele><time>2026-05-05T14:58:01.978Z</time></trkpt><trkpt lat="40.4602566" lon="15.0714522"><ele>56.0</ele><time>2026-05-05T14:58:02.979Z</time></trkpt><trkpt lat="40.4602308" lon="15.0713011"><ele>56.0</ele><time>2026-05-05T14:58:03.977Z</time></trkpt><trkpt lat="40.4602057" lon="15.0711532"><ele>56.0</ele><time>2026-05-05T14:58:04.979Z</time></trkpt><trkpt lat="40.4601797" lon="15.071007"><ele>56.0</ele><time>2026-05-05T14:58:05.978Z</time></trkpt><trkpt lat="40.4601546" lon="15.0708581"><ele>56.0</ele><time>2026-05-05T14:58:06.978Z</time></trkpt><trkpt lat="40.4601292" lon="15.0707091"><ele>56.0</ele><time>2026-05-05T14:58:07.979Z</time></trkpt><trkpt lat="40.4601002" lon="15.0705583"><ele>56.0</ele><time>2026-05-05T14:58:08.979Z</time></trkpt><trkpt lat="40.4600751" lon="15.0704046"><ele>55.75</ele><time>2026-05-05T14:58:09.979Z</time></trkpt><trkpt lat="40.4600511" lon="15.0702502"><ele>55.5</ele><time>2026-05-05T14:58:10.978Z</time></trkpt><trkpt lat="40.4600263" lon="15.0700948"><ele>55.25</ele><time>2026-05-05T14:58:11.978Z</time></trkpt><trkpt lat="40.4600025" lon="15.0699417"><ele>55.0</ele><time>2026-05-05T14:58:12.978Z</time></trkpt><trkpt lat="40.4599788" lon="15.0697929"><ele>55.0</ele><time>2026-05-05T14:58:13.979Z</time></trkpt><trkpt lat="40.4599549" lon="15.0696509"><ele>55.0</ele><time>2026-05-05T14:58:14.978Z</time></trkpt><trkpt lat="40.4599312" lon="15.0695143"><ele>55.0</ele><time>2026-05-05T14:58:15.978Z</time></trkpt><trkpt lat="40.4599071" lon="15.0693769"><ele>55.0</ele><time>2026-05-05T14:58:16.978Z</time></trkpt><trkpt lat="40.4598826" lon="15.0692373"><ele>55.0</ele><time>2026-05-05T14:58:17.978Z</time></trkpt><trkpt lat="40.4598576" lon="15.0690944"><ele>54.8</ele><time>2026-05-05T14:58:18.979Z</time></trkpt><trkpt lat="40.459834" lon="15.0689483"><ele>54.6</ele><time>2026-05-05T14:58:19.978Z</time></trkpt><trkpt lat="40.459813" lon="15.0688045"><ele>54.400000000000006</ele><time>2026-05-05T14:58:20.979Z</time></trkpt><trkpt lat="40.4597899" lon="15.068664"><ele>54.2</ele><time>2026-05-05T14:58:21.979Z</time></trkpt><trkpt lat="40.4597666" lon="15.0685226"><ele>54.0</ele><time>2026-05-05T14:58:22.979Z</time></trkpt><trkpt lat="40.4597433" lon="15.0683817"><ele>54.2</ele><time>2026-05-05T14:58:23.978Z</time></trkpt><trkpt lat="40.4597198" lon="15.0682413"><ele>54.400000000000006</ele><time>2026-05-05T14:58:24.979Z</time></trkpt><trkpt lat="40.4596968" lon="15.0681002"><ele>54.6</ele><time>2026-05-05T14:58:25.978Z</time></trkpt><trkpt lat="40.4596774" lon="15.0679562"><ele>54.8</ele><time>2026-05-05T14:58:26.979Z</time></trkpt><trkpt lat="40.4596597" lon="15.0678127"><ele>55.0</ele><time>2026-05-05T14:58:27.979Z</time></trkpt><trkpt lat="40.4596422" lon="15.0676703"><ele>55.0</ele><time>2026-05-05T14:58:28.978Z</time></trkpt><trkpt lat="40.4596249" lon="15.0675288"><ele>55.0</ele><time>2026-05-05T14:58:29.979Z</time></trkpt><trkpt lat="40.4596084" lon="15.0673862"><ele>55.0</ele><time>2026-05-05T14:58:30.979Z</time></trkpt><trkpt lat="40.4595972" lon="15.0672467"><ele>55.0</ele><time>2026-05-05T14:58:31.978Z</time></trkpt><trkpt lat="40.459589" lon="15.0671074"><ele>55.0</ele><time>2026-05-05T14:58:32.979Z</time></trkpt><trkpt lat="40.4595841" lon="15.0669684"><ele>55.2</ele><time>2026-05-05T14:58:33.977Z</time></trkpt><trkpt lat="40.4595805" lon="15.0668319"><ele>55.4</ele><time>2026-05-05T14:58:34.978Z</time></trkpt><trkpt lat="40.4595769" lon="15.0666951"><ele>55.599999999999994</ele><time>2026-05-05T14:58:35.978Z</time></trkpt><trkpt lat="40.4595721" lon="15.0665563"><ele>55.8</ele><time>2026-05-05T14:58:36.979Z</time></trkpt><trkpt lat="40.4595677" lon="15.0664144"><ele>56.0</ele><time>2026-05-05T14:58:37.978Z</time></trkpt><trkpt lat="40.4595632" lon="15.0662706"><ele>56.0</ele><time>2026-05-05T14:58:38.979Z</time></trkpt><trkpt lat="40.4595609" lon="15.0661256"><ele>56.0</ele><time>2026-05-05T14:58:39.979Z</time></trkpt><trkpt lat="40.4595601" lon="15.0659784"><ele>56.0</ele><time>2026-05-05T14:58:40.978Z</time></trkpt><trkpt lat="40.4595575" lon="15.0658277"><ele>56.0</ele><time>2026-05-05T14:58:41.977Z</time></trkpt><trkpt lat="40.4595561" lon="15.0656747"><ele>56.25</ele><time>2026-05-05T14:58:42.979Z</time></trkpt><trkpt lat="40.4595555" lon="15.0655229"><ele>56.5</ele><time>2026-05-05T14:58:43.978Z</time></trkpt><trkpt lat="40.4595562" lon="15.0653744"><ele>56.75</ele><time>2026-05-05T14:58:44.979Z</time></trkpt><trkpt lat="40.4595559" lon="15.0652243"><ele>57.0</ele><time>2026-05-05T14:58:45.977Z</time></trkpt><trkpt lat="40.4595532" lon="15.0650713"><ele>57.0</ele><time>2026-05-05T14:58:46.979Z</time></trkpt><trkpt lat="40.4595494" lon="15.0649187"><ele>57.0</ele><time>2026-05-05T14:58:47.978Z</time></trkpt><trkpt lat="40.4595474" lon="15.06477"><ele>57.0</ele><time>2026-05-05T14:58:48.979Z</time></trkpt><trkpt lat="40.4595434" lon="15.064621"><ele>57.0</ele><time>2026-05-05T14:58:49.979Z</time></trkpt><trkpt lat="40.4595372" lon="15.0644776"><ele>57.0</ele><time>2026-05-05T14:58:50.977Z</time></trkpt><trkpt lat="40.459529" lon="15.0643323"><ele>57.0</ele><time>2026-05-05T14:58:51.978Z</time></trkpt><trkpt lat="40.4595199" lon="15.0641858"><ele>57.0</ele><time>2026-05-05T14:58:52.978Z</time></trkpt><trkpt lat="40.4595099" lon="15.0640391"><ele>57.0</ele><time>2026-05-05T14:58:53.979Z</time></trkpt><trkpt lat="40.4594984" lon="15.0638903"><ele>57.0</ele><time>2026-05-05T14:58:54.978Z</time></trkpt><trkpt lat="40.4594864" lon="15.0637414"><ele>56.75</ele><time>2026-05-05T14:58:55.979Z</time></trkpt><trkpt lat="40.4594742" lon="15.0635901"><ele>56.5</ele><time>2026-05-05T14:58:56.979Z</time></trkpt><trkpt lat="40.4594628" lon="15.0634399"><ele>56.25</ele><time>2026-05-05T14:58:57.978Z</time></trkpt><trkpt lat="40.4594505" lon="15.0632918"><ele>56.0</ele><time>2026-05-05T14:58:58.979Z</time></trkpt><trkpt lat="40.4594382" lon="15.0631449"><ele>56.0</ele><time>2026-05-05T14:58:59.978Z</time></trkpt><trkpt lat="40.4594237" lon="15.062999"><ele>55.99999999999999</ele><time>2026-05-05T14:59:00.979Z</time></trkpt><trkpt lat="40.4594092" lon="15.0628552"><ele>55.99999999999999</ele><time>2026-05-05T14:59:01.979Z</time></trkpt><trkpt lat="40.4593951" lon="15.0627096"><ele>56.0</ele><time>2026-05-05T14:59:02.979Z</time></trkpt><trkpt lat="40.4593797" lon="15.0625594"><ele>56.0</ele><time>2026-05-05T14:59:03.978Z</time></trkpt><trkpt lat="40.4593651" lon="15.0624078"><ele>56.0</ele><time>2026-05-05T14:59:04.979Z</time></trkpt><trkpt lat="40.4593522" lon="15.0622546"><ele>56.0</ele><time>2026-05-05T14:59:05.979Z</time></trkpt><trkpt lat="40.45934" lon="15.0621008"><ele>56.0</ele><time>2026-05-05T14:59:06.977Z</time></trkpt><trkpt lat="40.4593238" lon="15.0619477"><ele>56.0</ele><time>2026-05-05T14:59:07.979Z</time></trkpt><trkpt lat="40.4593056" lon="15.0617952"><ele>56.0</ele><time>2026-05-05T14:59:08.978Z</time></trkpt><trkpt lat="40.4592907" lon="15.0616436"><ele>56.0</ele><time>2026-05-05T14:59:09.978Z</time></trkpt><trkpt lat="40.4592763" lon="15.0614929"><ele>56.0</ele><time>2026-05-05T14:59:10.979Z</time></trkpt><trkpt lat="40.4592618" lon="15.0613412"><ele>56.0</ele><time>2026-05-05T14:59:11.978Z</time></trkpt><trkpt lat="40.4592481" lon="15.06119"><ele>56.0</ele><time>2026-05-05T14:59:12.979Z</time></trkpt><trkpt lat="40.4592353" lon="15.0610382"><ele>56.0</ele><time>2026-05-05T14:59:13.979Z</time></trkpt><trkpt lat="40.4592227" lon="15.0608865"><ele>56.0</ele><time>2026-05-05T14:59:14.978Z</time></trkpt><trkpt lat="40.4592086" lon="15.0607326"><ele>56.0</ele><time>2026-05-05T14:59:15.978Z</time></trkpt><trkpt lat="40.4591927" lon="15.060576"><ele>56.0</ele><time>2026-05-05T14:59:16.978Z</time></trkpt><trkpt lat="40.459177" lon="15.0604179"><ele>56.0</ele><time>2026-05-05T14:59:17.978Z</time></trkpt><trkpt lat="40.4591641" lon="15.0602609"><ele>56.0</ele><time>2026-05-05T14:59:18.979Z</time></trkpt><trkpt lat="40.4591504" lon="15.0601059"><ele>56.0</ele><time>2026-05-05T14:59:19.979Z</time></trkpt><trkpt lat="40.4591364" lon="15.0599537"><ele>56.25</ele><time>2026-05-05T14:59:20.979Z</time></trkpt><trkpt lat="40.4591219" lon="15.0598015"><ele>56.5</ele><time>2026-05-05T14:59:21.979Z</time></trkpt><trkpt lat="40.4591072" lon="15.0596492"><ele>56.75</ele><time>2026-05-05T14:59:22.979Z</time></trkpt><trkpt lat="40.4590918" lon="15.0594991"><ele>57.0</ele><time>2026-05-05T14:59:23.979Z</time></trkpt><trkpt lat="40.4590761" lon="15.0593486"><ele>57.0</ele><time>2026-05-05T14:59:24.979Z</time></trkpt><trkpt lat="40.4590643" lon="15.0591973"><ele>57.0</ele><time>2026-05-05T14:59:25.979Z</time></trkpt><trkpt lat="40.4590526" lon="15.0590444"><ele>57.0</ele><time>2026-05-05T14:59:26.979Z</time></trkpt><trkpt lat="40.459038" lon="15.0588889"><ele>57.0</ele><time>2026-05-05T14:59:27.978Z</time></trkpt><trkpt lat="40.4590221" lon="15.0587331"><ele>57.0</ele><time>2026-05-05T14:59:28.978Z</time></trkpt><trkpt lat="40.4590072" lon="15.0585784"><ele>57.0</ele><time>2026-05-05T14:59:29.978Z</time></trkpt><trkpt lat="40.4589947" lon="15.0584292"><ele>57.0</ele><time>2026-05-05T14:59:30.979Z</time></trkpt><trkpt lat="40.4589811" lon="15.0582805"><ele>57.0</ele><time>2026-05-05T14:59:31.979Z</time></trkpt><trkpt lat="40.4589665" lon="15.0581262"><ele>57.0</ele><time>2026-05-05T14:59:32.979Z</time></trkpt><trkpt lat="40.4589517" lon="15.0579724"><ele>57.0</ele><time>2026-05-05T14:59:33.979Z</time></trkpt><trkpt lat="40.4589377" lon="15.0578195"><ele>57.0</ele><time>2026-05-05T14:59:34.979Z</time></trkpt><trkpt lat="40.4589246" lon="15.0576688"><ele>57.0</ele><time>2026-05-05T14:59:35.978Z</time></trkpt><trkpt lat="40.458914" lon="15.0575225"><ele>57.25</ele><time>2026-05-05T14:59:36.979Z</time></trkpt><trkpt lat="40.4589031" lon="15.0573784"><ele>57.5</ele><time>2026-05-05T14:59:37.978Z</time></trkpt><trkpt lat="40.4588915" lon="15.0572309"><ele>57.75</ele><time>2026-05-05T14:59:38.978Z</time></trkpt><trkpt lat="40.4588764" lon="15.0570811"><ele>58.0</ele><time>2026-05-05T14:59:39.977Z</time></trkpt><trkpt lat="40.4588615" lon="15.05693"><ele>58.0</ele><time>2026-05-05T14:59:40.979Z</time></trkpt><trkpt lat="40.4588453" lon="15.0567785"><ele>58.0</ele><time>2026-05-05T14:59:41.979Z</time></trkpt><trkpt lat="40.4588292" lon="15.0566239"><ele>58.0</ele><time>2026-05-05T14:59:42.977Z</time></trkpt><trkpt lat="40.4588116" lon="15.0564684"><ele>58.0</ele><time>2026-05-05T14:59:43.978Z</time></trkpt><trkpt lat="40.4587955" lon="15.056315"><ele>57.75</ele><time>2026-05-05T14:59:44.978Z</time></trkpt><trkpt lat="40.4587825" lon="15.056166"><ele>57.5</ele><time>2026-05-05T14:59:45.978Z</time></trkpt><trkpt lat="40.4587675" lon="15.0560141"><ele>57.25</ele><time>2026-05-05T14:59:46.979Z</time></trkpt><trkpt lat="40.4587526" lon="15.0558616"><ele>57.0</ele><time>2026-05-05T14:59:47.979Z</time></trkpt><trkpt lat="40.4587365" lon="15.0557086"><ele>57.0</ele><time>2026-05-05T14:59:48.978Z</time></trkpt><trkpt lat="40.4587206" lon="15.0555553"><ele>57.0</ele><time>2026-05-05T14:59:49.979Z</time></trkpt><trkpt lat="40.4587045" lon="15.0554021"><ele>57.0</ele><time>2026-05-05T14:59:50.979Z</time></trkpt><trkpt lat="40.4586893" lon="15.0552493"><ele>57.0</ele><time>2026-05-05T14:59:51.979Z</time></trkpt><trkpt lat="40.4586728" lon="15.0550935"><ele>57.0</ele><time>2026-05-05T14:59:52.978Z</time></trkpt><trkpt lat="40.4586571" lon="15.0549404"><ele>57.0</ele><time>2026-05-05T14:59:53.978Z</time></trkpt><trkpt lat="40.4586415" lon="15.0547955"><ele>57.0</ele><time>2026-05-05T14:59:54.978Z</time></trkpt><trkpt lat="40.4586253" lon="15.0546577"><ele>57.0</ele><time>2026-05-05T14:59:55.978Z</time></trkpt><trkpt lat="40.4586071" lon="15.0545303"><ele>57.0</ele><time>2026-05-05T14:59:56.979Z</time></trkpt><trkpt lat="40.4585848" lon="15.0544109"><ele>57.0</ele><time>2026-05-05T14:59:57.978Z</time></trkpt><trkpt lat="40.4585606" lon="15.0543066"><ele>57.0</ele><time>2026-05-05T14:59:58.977Z</time></trkpt><trkpt lat="40.4585377" lon="15.0542171"><ele>57.0</ele><time>2026-05-05T14:59:59.978Z</time></trkpt><trkpt lat="40.4584997" lon="15.0540892"><ele>56.0</ele><time>2026-05-05T15:00:01.979Z</time></trkpt><trkpt lat="40.4585642" lon="15.0540513"><ele>56.0</ele><time>2026-05-05T15:00:05.979Z</time></trkpt></trkseg></trk></gpx>